AAA74 KSFO-YSSY
Flight info
| Callsign | AAA74 |
|---|---|
| Flight time | 14h 8m |
| Altitude | 30000 |
| Route | GNNRR3 CINNY DCT ALANN DCT ADUMM/N0502F300 DCT 30N131W 25N134W 20N137W 16N140W 07N150W/N0507F320 02S160W/N0500F340 05S164W 10S170W 15S175W DCT IDNIP DCT 18S180E DCT NILAX/N0492F360 DCT 25S170E 30S163E 31S160E DCT GOOMA H258 RIKNI N774 MARLN |
| Aircraft | B77W/H-SDE1E2E3FGHIJ2J3J4J5M1RWXY/LB1D1 |
Departure
| Time | 2026-04-21 13:13 |
|---|---|
| Airport | San Francisco International Airport (KSFO) |
Arrival
| Time | 2026-04-22 03:22 |
|---|---|
| Airport | Sydney Kingsford Smith International Airport (YSSY) |
| Time | Latitude | Longitude | Altitude | Speed | Heading |
|---|---|---|---|---|---|
| 2026-04-21 12:54 | 37.61327 | -122.38990 | 23 ft | 0 kts | 118° |
| 2026-04-21 12:58 | 37.61334 | -122.39004 | 22 ft | 4 kts | 118° |
| 2026-04-21 12:59 | 37.61344 | -122.39028 | 26 ft | 4 kts | 94° |
| 2026-04-21 12:59 | 37.61341 | -122.39058 | 25 ft | 4 kts | 77° |
| 2026-04-21 12:59 | 37.61336 | -122.39090 | 25 ft | 4 kts | 89° |
| 2026-04-21 12:59 | 37.61337 | -122.39110 | 26 ft | 16 kts | 132° |
| 2026-04-21 13:00 | 37.61327 | -122.39112 | 27 ft | 12 kts | 182° |
| 2026-04-21 13:00 | 37.61309 | -122.39121 | 28 ft | 7 kts | 208° |
| 2026-04-21 13:00 | 37.61310 | -122.39120 | 29 ft | 6 kts | 208° |
| 2026-04-21 13:01 | 37.61310 | -122.39121 | 28 ft | 0 kts | 208° |
| 2026-04-21 13:03 | 37.61264 | -122.39152 | 29 ft | 12 kts | 208° |
| 2026-04-21 13:03 | 37.61192 | -122.39190 | 28 ft | 12 kts | 190° |
| 2026-04-21 13:03 | 37.61119 | -122.39158 | 28 ft | 12 kts | 143° |
| 2026-04-21 13:03 | 37.61065 | -122.39083 | 26 ft | 12 kts | 129° |
| 2026-04-21 13:04 | 37.61013 | -122.39005 | 31 ft | 12 kts | 129° |
| 2026-04-21 13:04 | 37.60965 | -122.38924 | 31 ft | 12 kts | 124° |
| 2026-04-21 13:04 | 37.60920 | -122.38841 | 31 ft | 12 kts | 124° |
| 2026-04-21 13:04 | 37.60880 | -122.38754 | 29 ft | 12 kts | 117° |
| 2026-04-21 13:05 | 37.60843 | -122.38664 | 30 ft | 12 kts | 118° |
| 2026-04-21 13:05 | 37.60804 | -122.38575 | 29 ft | 12 kts | 118° |
| 2026-04-21 13:05 | 37.60751 | -122.38503 | 29 ft | 12 kts | 158° |
| 2026-04-21 13:05 | 37.60676 | -122.38472 | 28 ft | 12 kts | 145° |
| 2026-04-21 13:06 | 37.60620 | -122.38398 | 29 ft | 12 kts | 131° |
| 2026-04-21 13:06 | 37.60569 | -122.38320 | 27 ft | 12 kts | 129° |
| 2026-04-21 13:06 | 37.60521 | -122.38239 | 30 ft | 12 kts | 122° |
| 2026-04-21 13:06 | 37.60500 | -122.38142 | 28 ft | 12 kts | 88° |
| 2026-04-21 13:07 | 37.60516 | -122.38044 | 24 ft | 12 kts | 77° |
| 2026-04-21 13:07 | 37.60559 | -122.37962 | 24 ft | 11 kts | 32° |
| 2026-04-21 13:07 | 37.60637 | -122.37907 | 29 ft | 18 kts | 29° |
| 2026-04-21 13:07 | 37.60758 | -122.37825 | 28 ft | 20 kts | 27° |
| 2026-04-21 13:08 | 37.60881 | -122.37745 | 21 ft | 20 kts | 27° |
| 2026-04-21 13:08 | 37.61005 | -122.37662 | 28 ft | 20 kts | 28° |
| 2026-04-21 13:08 | 37.61128 | -122.37580 | 27 ft | 20 kts | 27° |
| 2026-04-21 13:08 | 37.61252 | -122.37498 | 23 ft | 20 kts | 27° |
| 2026-04-21 13:09 | 37.61377 | -122.37417 | 20 ft | 20 kts | 27° |
| 2026-04-21 13:09 | 37.61499 | -122.37332 | 29 ft | 20 kts | 40° |
| 2026-04-21 13:09 | 37.61552 | -122.37238 | 27 ft | 20 kts | 68° |
| 2026-04-21 13:09 | 37.61510 | -122.37018 | 25 ft | 20 kts | 117° |
| 2026-04-21 13:10 | 37.61430 | -122.36873 | 23 ft | 20 kts | 133° |
| 2026-04-21 13:10 | 37.61346 | -122.36735 | 24 ft | 20 kts | 118° |
| 2026-04-21 13:10 | 37.61280 | -122.36580 | 27 ft | 20 kts | 117° |
| 2026-04-21 13:10 | 37.61209 | -122.36410 | 20 ft | 24 kts | 117° |
| 2026-04-21 13:11 | 37.61132 | -122.36223 | 26 ft | 23 kts | 117° |
| 2026-04-21 13:11 | 37.61114 | -122.36102 | 27 ft | 9 kts | 62° |
| 2026-04-21 13:11 | 37.61167 | -122.36064 | 30 ft | 9 kts | 24° |
| 2026-04-21 13:11 | 37.61225 | -122.36036 | 28 ft | 9 kts | 8° |
| 2026-04-21 13:12 | 37.61273 | -122.36078 | 29 ft | 9 kts | 298° |
| 2026-04-21 13:12 | 37.61286 | -122.36110 | 27 ft | 0 kts | 298° |
| 2026-04-21 13:12 | 37.61311 | -122.36169 | 29 ft | 32 kts | 298° |
| 2026-04-21 13:13 | 37.61548 | -122.36726 | 25 ft | 112 kts | 298° |
| 2026-04-21 13:13 | 37.62024 | -122.37890 | 28 ft | 186 kts | 295° |
| 2026-04-21 13:13 | 37.62659 | -122.39464 | 584 ft | 201 kts | 296° |
| 2026-04-21 13:13 | 37.63261 | -122.40978 | 1641 ft | 197 kts | 290° |
| 2026-04-21 13:14 | 37.63842 | -122.42491 | 2435 ft | 190 kts | 290° |
| 2026-04-21 13:14 | 37.64465 | -122.43992 | 2618 ft | 202 kts | 296° |
| 2026-04-21 13:14 | 37.65220 | -122.45556 | 2749 ft | 215 kts | 296° |
| 2026-04-21 13:14 | 37.66010 | -122.47231 | 2859 ft | 226 kts | 296° |
| 2026-04-21 13:15 | 37.66810 | -122.49003 | 3059 ft | 237 kts | 288° |
| 2026-04-21 13:15 | 37.66992 | -122.51038 | 3144 ft | 239 kts | 249° |
| 2026-04-21 13:15 | 37.66140 | -122.52841 | 3334 ft | 246 kts | 227° |
| 2026-04-21 13:15 | 37.65007 | -122.54516 | 3760 ft | 254 kts | 229° |
| 2026-04-21 13:16 | 37.63856 | -122.56242 | 4358 ft | 258 kts | 229° |
| 2026-04-21 13:16 | 37.62716 | -122.57963 | 4992 ft | 260 kts | 229° |
| 2026-04-21 13:16 | 37.61555 | -122.59724 | 5624 ft | 263 kts | 229° |
| 2026-04-21 13:16 | 37.60393 | -122.61496 | 6262 ft | 264 kts | 229° |
| 2026-04-21 13:17 | 37.59220 | -122.63293 | 6867 ft | 266 kts | 229° |
| 2026-04-21 13:17 | 37.58048 | -122.65096 | 7525 ft | 265 kts | 229° |
| 2026-04-21 13:17 | 37.56894 | -122.66876 | 8119 ft | 267 kts | 229° |
| 2026-04-21 13:17 | 37.55717 | -122.68696 | 8697 ft | 269 kts | 229° |
| 2026-04-21 13:18 | 37.54531 | -122.70532 | 9265 ft | 271 kts | 228° |
| 2026-04-21 13:18 | 37.53337 | -122.72381 | 9842 ft | 272 kts | 228° |
| 2026-04-21 13:18 | 37.52134 | -122.74244 | 10294 ft | 279 kts | 228° |
| 2026-04-21 13:18 | 37.50866 | -122.76203 | 10410 ft | 297 kts | 228° |
| 2026-04-21 13:19 | 37.49521 | -122.78282 | 10557 ft | 315 kts | 228° |
| 2026-04-21 13:19 | 37.48102 | -122.80476 | 10716 ft | 332 kts | 229° |
| 2026-04-21 13:19 | 37.46621 | -122.82768 | 11091 ft | 343 kts | 229° |
| 2026-04-21 13:19 | 37.45152 | -122.85044 | 11576 ft | 349 kts | 229° |
| 2026-04-21 13:20 | 37.44136 | -122.86617 | 11980 ft | 352 kts | 229° |
| 2026-04-21 13:20 | 37.42071 | -122.89815 | 12849 ft | 356 kts | 229° |
| 2026-04-21 13:20 | 37.40506 | -122.92236 | 13493 ft | 359 kts | 229° |
| 2026-04-21 13:20 | 37.38920 | -122.94685 | 14071 ft | 363 kts | 228° |
| 2026-04-21 13:21 | 37.37317 | -122.97159 | 14639 ft | 366 kts | 228° |
| 2026-04-21 13:21 | 37.35707 | -122.99642 | 15251 ft | 368 kts | 228° |
| 2026-04-21 13:21 | 37.34086 | -123.02141 | 15841 ft | 370 kts | 228° |
| 2026-04-21 13:21 | 37.32454 | -123.04653 | 16422 ft | 373 kts | 228° |
| 2026-04-21 13:22 | 37.30806 | -123.07188 | 16999 ft | 376 kts | 228° |
| 2026-04-21 13:22 | 37.29145 | -123.09741 | 17580 ft | 379 kts | 228° |
| 2026-04-21 13:22 | 37.27468 | -123.12316 | 18149 ft | 382 kts | 228° |
| 2026-04-21 13:22 | 37.25806 | -123.14868 | 18664 ft | 384 kts | 228° |
| 2026-04-21 13:23 | 37.24116 | -123.17460 | 19239 ft | 384 kts | 228° |
| 2026-04-21 13:23 | 37.22458 | -123.20002 | 19812 ft | 384 kts | 227° |
| 2026-04-21 13:23 | 37.21339 | -123.21716 | 20174 ft | 384 kts | 227° |
| 2026-04-21 13:23 | 37.19087 | -123.25161 | 20869 ft | 386 kts | 227° |
| 2026-04-21 13:24 | 37.17379 | -123.27772 | 21372 ft | 388 kts | 227° |
| 2026-04-21 13:24 | 37.15663 | -123.30393 | 21884 ft | 389 kts | 227° |
| 2026-04-21 13:24 | 37.13937 | -123.33027 | 22382 ft | 391 kts | 227° |
| 2026-04-21 13:24 | 37.12207 | -123.35664 | 22864 ft | 393 kts | 227° |
| 2026-04-21 13:25 | 37.10467 | -123.38316 | 23349 ft | 395 kts | 227° |
| 2026-04-21 13:25 | 37.08788 | -123.40872 | 23735 ft | 396 kts | 227° |
| 2026-04-21 13:25 | 37.07030 | -123.43547 | 24110 ft | 398 kts | 227° |
| 2026-04-21 13:25 | 37.05265 | -123.46231 | 24484 ft | 400 kts | 227° |
| 2026-04-21 13:26 | 37.03497 | -123.48917 | 24839 ft | 402 kts | 227° |
| 2026-04-21 13:26 | 37.01723 | -123.51609 | 25190 ft | 404 kts | 227° |
| 2026-04-21 13:26 | 36.99931 | -123.54326 | 25540 ft | 405 kts | 227° |
| 2026-04-21 13:26 | 36.98135 | -123.57047 | 25877 ft | 407 kts | 227° |
| 2026-04-21 13:27 | 36.96327 | -123.59785 | 26213 ft | 409 kts | 227° |
| 2026-04-21 13:27 | 36.94507 | -123.62539 | 26523 ft | 411 kts | 227° |
| 2026-04-21 13:27 | 36.92680 | -123.65300 | 26832 ft | 414 kts | 227° |
| 2026-04-21 13:27 | 36.90844 | -123.68073 | 27149 ft | 416 kts | 227° |
| 2026-04-21 13:28 | 36.88994 | -123.70865 | 27438 ft | 418 kts | 227° |
| 2026-04-21 13:28 | 36.87135 | -123.73667 | 27709 ft | 420 kts | 227° |
| 2026-04-21 13:28 | 36.85900 | -123.75528 | 27909 ft | 421 kts | 227° |
| 2026-04-21 13:28 | 36.83391 | -123.79305 | 28280 ft | 424 kts | 227° |
| 2026-04-21 13:29 | 36.81529 | -123.82107 | 28522 ft | 426 kts | 227° |
| 2026-04-21 13:29 | 36.79607 | -123.84994 | 28749 ft | 428 kts | 227° |
| 2026-04-21 13:29 | 36.77722 | -123.87825 | 28978 ft | 430 kts | 227° |
| 2026-04-21 13:29 | 36.75806 | -123.90699 | 29208 ft | 432 kts | 227° |
| 2026-04-21 13:30 | 36.73877 | -123.93591 | 29403 ft | 435 kts | 227° |
| 2026-04-21 13:30 | 36.71938 | -123.96494 | 29580 ft | 437 kts | 227° |
| 2026-04-21 13:30 | 36.69989 | -123.99410 | 29771 ft | 439 kts | 227° |
| 2026-04-21 13:30 | 36.68030 | -124.02339 | 29869 ft | 442 kts | 227° |
| 2026-04-21 13:31 | 36.64075 | -124.08245 | 29941 ft | 444 kts | 228° |
| 2026-04-21 13:31 | 36.60132 | -124.14123 | 29944 ft | 441 kts | 228° |
| 2026-04-21 13:32 | 36.56200 | -124.19975 | 29949 ft | 441 kts | 228° |
| 2026-04-21 13:32 | 36.52259 | -124.25827 | 29948 ft | 442 kts | 228° |
| 2026-04-21 13:33 | 36.48304 | -124.31691 | 29950 ft | 443 kts | 229° |
| 2026-04-21 13:33 | 36.44329 | -124.37573 | 29951 ft | 445 kts | 229° |
| 2026-04-21 13:34 | 36.41012 | -124.42474 | 29945 ft | 447 kts | 229° |
| 2026-04-21 13:34 | 36.36370 | -124.49323 | 29940 ft | 448 kts | 229° |
| 2026-04-21 13:35 | 36.33028 | -124.54244 | 29947 ft | 449 kts | 229° |
| 2026-04-21 13:35 | 36.29024 | -124.60131 | 29951 ft | 449 kts | 229° |
| 2026-04-21 13:36 | 36.24996 | -124.66044 | 29942 ft | 449 kts | 229° |
| 2026-04-21 13:36 | 36.20967 | -124.71949 | 29938 ft | 448 kts | 230° |
| 2026-04-21 13:37 | 36.17053 | -124.77944 | 29938 ft | 448 kts | 236° |
| 2026-04-21 13:37 | 36.13867 | -124.84436 | 29941 ft | 448 kts | 239° |
| 2026-04-21 13:38 | 36.10769 | -124.91055 | 29944 ft | 448 kts | 239° |
| 2026-04-21 13:38 | 36.07591 | -124.97680 | 29956 ft | 448 kts | 238° |
| 2026-04-21 13:39 | 36.04366 | -125.04276 | 29952 ft | 448 kts | 238° |
| 2026-04-21 13:39 | 36.01125 | -125.10859 | 29951 ft | 449 kts | 238° |
| 2026-04-21 13:40 | 35.97878 | -125.17442 | 29951 ft | 449 kts | 239° |
| 2026-04-21 13:40 | 35.94633 | -125.24014 | 29954 ft | 449 kts | 239° |
| 2026-04-21 13:41 | 35.91375 | -125.30600 | 29959 ft | 449 kts | 239° |
| 2026-04-21 13:41 | 35.88108 | -125.37194 | 29956 ft | 450 kts | 239° |
| 2026-04-21 13:42 | 35.84843 | -125.43770 | 29951 ft | 450 kts | 239° |
| 2026-04-21 13:42 | 35.81569 | -125.50351 | 29955 ft | 450 kts | 239° |
| 2026-04-21 13:43 | 35.78288 | -125.56933 | 29960 ft | 451 kts | 239° |
| 2026-04-21 13:43 | 35.75002 | -125.63515 | 29951 ft | 451 kts | 240° |
| 2026-04-21 13:44 | 35.71713 | -125.70088 | 29950 ft | 451 kts | 240° |
| 2026-04-21 13:44 | 35.68421 | -125.76657 | 29953 ft | 451 kts | 240° |
| 2026-04-21 13:45 | 35.65147 | -125.83175 | 29964 ft | 451 kts | 240° |
| 2026-04-21 13:45 | 35.61844 | -125.89744 | 29965 ft | 451 kts | 240° |
| 2026-04-21 13:46 | 35.58444 | -125.96226 | 29960 ft | 452 kts | 237° |
| 2026-04-21 13:46 | 35.54769 | -126.02497 | 29961 ft | 453 kts | 237° |
| 2026-04-21 13:47 | 35.51067 | -126.08765 | 29963 ft | 453 kts | 237° |
| 2026-04-21 13:47 | 35.47372 | -126.15037 | 29960 ft | 453 kts | 237° |
| 2026-04-21 13:48 | 35.43686 | -126.21301 | 29968 ft | 453 kts | 237° |
| 2026-04-21 13:48 | 35.39998 | -126.27564 | 29965 ft | 453 kts | 238° |
| 2026-04-21 13:49 | 35.36302 | -126.33829 | 29959 ft | 453 kts | 238° |
| 2026-04-21 13:49 | 35.32640 | -126.40025 | 29964 ft | 453 kts | 238° |
| 2026-04-21 13:50 | 35.28946 | -126.46263 | 29964 ft | 453 kts | 238° |
| 2026-04-21 13:50 | 35.25245 | -126.52501 | 29970 ft | 452 kts | 239° |
| 2026-04-21 13:51 | 35.21548 | -126.58722 | 29973 ft | 452 kts | 239° |
| 2026-04-21 13:51 | 35.17849 | -126.64935 | 29972 ft | 452 kts | 239° |
| 2026-04-21 13:52 | 35.14150 | -126.71137 | 29973 ft | 451 kts | 239° |
| 2026-04-21 13:52 | 35.10471 | -126.77295 | 29975 ft | 450 kts | 239° |
| 2026-04-21 13:53 | 35.06776 | -126.83470 | 29976 ft | 450 kts | 239° |
| 2026-04-21 13:53 | 35.03092 | -126.89614 | 29975 ft | 449 kts | 240° |
| 2026-04-21 13:54 | 34.99410 | -126.95744 | 29975 ft | 447 kts | 240° |
| 2026-04-21 13:54 | 34.95735 | -127.01852 | 29973 ft | 446 kts | 240° |
| 2026-04-21 13:55 | 34.92063 | -127.07946 | 29975 ft | 445 kts | 240° |
| 2026-04-21 13:55 | 34.88405 | -127.14005 | 29982 ft | 444 kts | 241° |
| 2026-04-21 13:56 | 34.84774 | -127.20010 | 29987 ft | 443 kts | 241° |
| 2026-04-21 13:56 | 34.81118 | -127.26044 | 29982 ft | 442 kts | 241° |
| 2026-04-21 13:57 | 34.77469 | -127.32060 | 29986 ft | 441 kts | 241° |
| 2026-04-21 13:57 | 34.73895 | -127.37939 | 29985 ft | 440 kts | 242° |
| 2026-04-21 13:58 | 34.70257 | -127.43915 | 29983 ft | 439 kts | 242° |
| 2026-04-21 13:58 | 34.66628 | -127.49865 | 29987 ft | 438 kts | 242° |
| 2026-04-21 13:59 | 34.63002 | -127.55801 | 29987 ft | 437 kts | 242° |
| 2026-04-21 13:59 | 34.59379 | -127.61722 | 29986 ft | 436 kts | 242° |
| 2026-04-21 14:00 | 34.55792 | -127.67575 | 29989 ft | 434 kts | 243° |
| 2026-04-21 14:00 | 34.52189 | -127.73445 | 29998 ft | 433 kts | 243° |
| 2026-04-21 14:01 | 34.48592 | -127.79295 | 29994 ft | 432 kts | 243° |
| 2026-04-21 14:01 | 34.45019 | -127.85097 | 29998 ft | 432 kts | 243° |
| 2026-04-21 14:02 | 34.41427 | -127.90920 | 29991 ft | 431 kts | 243° |
| 2026-04-21 14:03 | 34.36042 | -127.99632 | 30006 ft | 431 kts | 243° |
| 2026-04-21 14:03 | 34.32442 | -128.05446 | 30002 ft | 432 kts | 243° |
| 2026-04-21 14:04 | 34.28833 | -128.11265 | 30005 ft | 433 kts | 243° |
| 2026-04-21 14:04 | 34.25217 | -128.17083 | 30002 ft | 433 kts | 243° |
| 2026-04-21 14:05 | 34.21599 | -128.22896 | 29995 ft | 433 kts | 243° |
| 2026-04-21 14:05 | 34.17999 | -128.28670 | 30002 ft | 433 kts | 243° |
| 2026-04-21 14:06 | 34.14374 | -128.34476 | 30008 ft | 433 kts | 243° |
| 2026-04-21 14:06 | 34.10736 | -128.40294 | 30007 ft | 434 kts | 243° |
| 2026-04-21 14:07 | 34.07118 | -128.46071 | 30005 ft | 434 kts | 243° |
| 2026-04-21 14:07 | 34.03491 | -128.51851 | 30010 ft | 435 kts | 242° |
| 2026-04-21 14:08 | 33.99846 | -128.57653 | 30011 ft | 436 kts | 242° |
| 2026-04-21 14:08 | 33.96177 | -128.63483 | 30010 ft | 437 kts | 242° |
| 2026-04-21 14:09 | 33.92497 | -128.69323 | 30027 ft | 438 kts | 242° |
| 2026-04-21 14:09 | 33.88689 | -128.75077 | 30021 ft | 447 kts | 235° |
| 2026-04-21 14:10 | 33.83830 | -128.79957 | 30031 ft | 463 kts | 225° |
| 2026-04-21 14:10 | 33.81063 | -128.82017 | 30022 ft | 474 kts | 218° |
| 2026-04-21 14:10 | 33.78120 | -128.83811 | 30035 ft | 475 kts | 217° |
| 2026-04-21 14:11 | 33.72168 | -128.87295 | 30022 ft | 475 kts | 217° |
| 2026-04-21 14:11 | 33.66269 | -128.90749 | 30021 ft | 474 kts | 217° |
| 2026-04-21 14:12 | 33.60365 | -128.94249 | 30027 ft | 473 kts | 217° |
| 2026-04-21 14:12 | 33.54481 | -128.97757 | 30038 ft | 472 kts | 217° |
| 2026-04-21 14:13 | 33.48611 | -129.01257 | 30030 ft | 471 kts | 217° |
| 2026-04-21 14:13 | 33.42736 | -129.04752 | 30035 ft | 471 kts | 217° |
| 2026-04-21 14:14 | 33.36860 | -129.08241 | 30044 ft | 471 kts | 217° |
| 2026-04-21 14:14 | 33.31132 | -129.11637 | 30043 ft | 472 kts | 217° |
| 2026-04-21 14:15 | 33.25246 | -129.15122 | 30046 ft | 472 kts | 217° |
| 2026-04-21 14:15 | 33.19459 | -129.18541 | 30040 ft | 472 kts | 217° |
| 2026-04-21 14:16 | 33.13568 | -129.22017 | 30040 ft | 472 kts | 217° |
| 2026-04-21 14:16 | 33.07864 | -129.25378 | 30044 ft | 472 kts | 216° |
| 2026-04-21 14:17 | 33.01974 | -129.28843 | 30046 ft | 472 kts | 216° |
| 2026-04-21 14:17 | 32.96081 | -129.32305 | 30042 ft | 472 kts | 216° |
| 2026-04-21 14:18 | 32.90196 | -129.35757 | 30059 ft | 472 kts | 216° |
| 2026-04-21 14:18 | 32.84305 | -129.39208 | 30059 ft | 472 kts | 216° |
| 2026-04-21 14:19 | 32.78418 | -129.42651 | 30054 ft | 472 kts | 216° |
| 2026-04-21 14:19 | 32.72628 | -129.46033 | 30060 ft | 472 kts | 216° |
| 2026-04-21 14:20 | 32.66780 | -129.49443 | 30063 ft | 472 kts | 216° |
| 2026-04-21 14:20 | 32.60985 | -129.52818 | 30070 ft | 472 kts | 216° |
| 2026-04-21 14:21 | 32.55125 | -129.56225 | 30067 ft | 472 kts | 216° |
| 2026-04-21 14:21 | 32.50284 | -129.59036 | 30066 ft | 472 kts | 216° |
| 2026-04-21 14:22 | 32.44383 | -129.62458 | 30068 ft | 472 kts | 216° |
| 2026-04-21 14:22 | 32.37549 | -129.66414 | 30072 ft | 473 kts | 215° |
| 2026-04-21 14:23 | 32.32597 | -129.69278 | 30073 ft | 473 kts | 215° |
| 2026-04-21 14:23 | 32.26781 | -129.72636 | 30076 ft | 473 kts | 215° |
| 2026-04-21 14:24 | 32.20867 | -129.76045 | 30081 ft | 473 kts | 215° |
| 2026-04-21 14:24 | 32.14955 | -129.79448 | 30074 ft | 473 kts | 215° |
| 2026-04-21 14:25 | 32.09086 | -129.82822 | 30081 ft | 472 kts | 215° |
| 2026-04-21 14:25 | 32.03177 | -129.86214 | 30078 ft | 472 kts | 215° |
| 2026-04-21 14:26 | 31.97274 | -129.89598 | 30079 ft | 471 kts | 215° |
| 2026-04-21 14:26 | 31.91564 | -129.92866 | 30080 ft | 471 kts | 215° |
| 2026-04-21 14:27 | 31.85666 | -129.96237 | 30083 ft | 471 kts | 214° |
| 2026-04-21 14:27 | 31.79946 | -129.99502 | 30088 ft | 470 kts | 214° |
| 2026-04-21 14:28 | 31.74056 | -130.02860 | 30083 ft | 470 kts | 214° |
| 2026-04-21 14:28 | 31.68222 | -130.06181 | 30086 ft | 471 kts | 214° |
| 2026-04-21 14:29 | 31.62328 | -130.09531 | 30101 ft | 471 kts | 214° |
| 2026-04-21 14:29 | 31.56413 | -130.12888 | 30092 ft | 472 kts | 214° |
| 2026-04-21 14:30 | 31.50536 | -130.16219 | 30101 ft | 472 kts | 214° |
| 2026-04-21 14:30 | 31.44770 | -130.19483 | 30103 ft | 473 kts | 214° |
| 2026-04-21 14:31 | 31.38842 | -130.22833 | 30105 ft | 473 kts | 214° |
| 2026-04-21 14:31 | 31.33033 | -130.26112 | 30102 ft | 474 kts | 214° |
| 2026-04-21 14:32 | 31.27091 | -130.29461 | 30107 ft | 474 kts | 214° |
| 2026-04-21 14:32 | 31.21262 | -130.32741 | 30109 ft | 475 kts | 213° |
| 2026-04-21 14:33 | 31.15310 | -130.36087 | 30112 ft | 475 kts | 213° |
| 2026-04-21 14:33 | 31.09485 | -130.39356 | 30109 ft | 476 kts | 213° |
| 2026-04-21 14:34 | 31.03515 | -130.42703 | 30114 ft | 476 kts | 213° |
| 2026-04-21 14:34 | 30.97535 | -130.46050 | 30117 ft | 477 kts | 213° |
| 2026-04-21 14:35 | 30.91564 | -130.49387 | 30115 ft | 477 kts | 213° |
| 2026-04-21 14:35 | 30.85773 | -130.52620 | 30115 ft | 478 kts | 213° |
| 2026-04-21 14:36 | 30.79734 | -130.55986 | 30121 ft | 479 kts | 213° |
| 2026-04-21 14:36 | 30.73918 | -130.59223 | 30120 ft | 479 kts | 213° |
| 2026-04-21 14:37 | 30.67897 | -130.62571 | 30116 ft | 480 kts | 213° |
| 2026-04-21 14:37 | 30.61874 | -130.65914 | 30129 ft | 480 kts | 213° |
| 2026-04-21 14:38 | 30.55840 | -130.69259 | 30124 ft | 481 kts | 212° |
| 2026-04-21 14:38 | 30.49953 | -130.72517 | 30124 ft | 481 kts | 212° |
| 2026-04-21 14:39 | 30.43907 | -130.75860 | 30132 ft | 481 kts | 212° |
| 2026-04-21 14:39 | 30.37972 | -130.79136 | 30129 ft | 481 kts | 212° |
| 2026-04-21 14:40 | 30.31916 | -130.82474 | 30127 ft | 481 kts | 212° |
| 2026-04-21 14:40 | 30.25970 | -130.85749 | 30130 ft | 480 kts | 212° |
| 2026-04-21 14:41 | 30.19966 | -130.89050 | 30130 ft | 480 kts | 212° |
| 2026-04-21 14:41 | 30.13932 | -130.92364 | 30129 ft | 480 kts | 212° |
| 2026-04-21 14:42 | 30.08058 | -130.95586 | 30132 ft | 480 kts | 212° |
| 2026-04-21 14:42 | 30.02025 | -130.98891 | 30133 ft | 480 kts | 211° |
| 2026-04-21 14:43 | 29.96296 | -131.02271 | 30136 ft | 477 kts | 214° |
| 2026-04-21 14:43 | 29.90488 | -131.05961 | 30137 ft | 477 kts | 214° |
| 2026-04-21 14:44 | 29.84843 | -131.09556 | 30138 ft | 477 kts | 214° |
| 2026-04-21 14:44 | 29.79034 | -131.13232 | 30138 ft | 477 kts | 214° |
| 2026-04-21 14:45 | 29.73347 | -131.16813 | 30133 ft | 477 kts | 214° |
| 2026-04-21 14:45 | 29.67526 | -131.20471 | 30141 ft | 477 kts | 214° |
| 2026-04-21 14:46 | 29.61848 | -131.24034 | 30147 ft | 476 kts | 213° |
| 2026-04-21 14:46 | 29.56022 | -131.27687 | 30144 ft | 476 kts | 213° |
| 2026-04-21 14:47 | 29.50252 | -131.31299 | 30137 ft | 476 kts | 213° |
| 2026-04-21 14:47 | 29.44443 | -131.34932 | 30135 ft | 475 kts | 213° |
| 2026-04-21 14:48 | 29.38644 | -131.38553 | 30136 ft | 474 kts | 213° |
| 2026-04-21 14:48 | 29.32859 | -131.42162 | 30136 ft | 473 kts | 213° |
| 2026-04-21 14:49 | 29.27175 | -131.45702 | 30137 ft | 472 kts | 213° |
| 2026-04-21 14:49 | 29.21403 | -131.49293 | 30142 ft | 472 kts | 213° |
| 2026-04-21 14:50 | 29.16604 | -131.52275 | 30140 ft | 472 kts | 213° |
| 2026-04-21 14:50 | 29.09856 | -131.56463 | 30142 ft | 473 kts | 213° |
| 2026-04-21 14:51 | 29.04222 | -131.59955 | 30146 ft | 473 kts | 213° |
| 2026-04-21 14:51 | 28.98422 | -131.63545 | 30149 ft | 474 kts | 213° |
| 2026-04-21 14:52 | 28.92712 | -131.67075 | 30148 ft | 475 kts | 213° |
| 2026-04-21 14:52 | 28.86898 | -131.70664 | 30149 ft | 475 kts | 213° |
| 2026-04-21 14:53 | 28.81119 | -131.74227 | 30150 ft | 475 kts | 213° |
| 2026-04-21 14:53 | 28.75360 | -131.77772 | 30149 ft | 475 kts | 213° |
| 2026-04-21 14:54 | 28.69543 | -131.81349 | 30151 ft | 474 kts | 213° |
| 2026-04-21 14:54 | 28.63737 | -131.84916 | 30154 ft | 474 kts | 213° |
| 2026-04-21 14:55 | 28.57936 | -131.88474 | 30148 ft | 474 kts | 213° |
| 2026-04-21 14:55 | 28.52132 | -131.92030 | 30151 ft | 473 kts | 213° |
| 2026-04-21 14:56 | 28.46337 | -131.95577 | 30151 ft | 473 kts | 213° |
| 2026-04-21 14:56 | 28.40541 | -131.99119 | 30150 ft | 473 kts | 213° |
| 2026-04-21 14:57 | 28.34747 | -132.02655 | 30152 ft | 472 kts | 213° |
| 2026-04-21 14:57 | 28.28958 | -132.06184 | 30151 ft | 472 kts | 213° |
| 2026-04-21 14:58 | 28.23177 | -132.09703 | 30146 ft | 472 kts | 213° |
| 2026-04-21 14:58 | 28.17397 | -132.13218 | 30150 ft | 471 kts | 213° |
| 2026-04-21 14:59 | 28.11619 | -132.16727 | 30153 ft | 471 kts | 213° |
| 2026-04-21 14:59 | 28.05843 | -132.20231 | 30153 ft | 471 kts | 213° |
| 2026-04-21 15:00 | 28.00173 | -132.23666 | 30151 ft | 471 kts | 213° |
| 2026-04-21 15:00 | 27.94433 | -132.27139 | 30150 ft | 470 kts | 213° |
| 2026-04-21 15:01 | 27.88813 | -132.30536 | 30148 ft | 470 kts | 213° |
| 2026-04-21 15:01 | 27.83042 | -132.34020 | 30162 ft | 470 kts | 213° |
| 2026-04-21 15:02 | 27.77276 | -132.37497 | 30151 ft | 470 kts | 213° |
| 2026-04-21 15:02 | 27.71510 | -132.40969 | 30157 ft | 469 kts | 213° |
| 2026-04-21 15:03 | 27.65752 | -132.44432 | 30151 ft | 469 kts | 213° |
| 2026-04-21 15:03 | 27.59991 | -132.47893 | 30153 ft | 469 kts | 213° |
| 2026-04-21 15:04 | 27.54233 | -132.51348 | 30154 ft | 469 kts | 213° |
| 2026-04-21 15:04 | 27.48473 | -132.54800 | 30152 ft | 468 kts | 213° |
| 2026-04-21 15:05 | 27.42719 | -132.58244 | 30153 ft | 467 kts | 213° |
| 2026-04-21 15:05 | 27.34150 | -132.63366 | 30149 ft | 466 kts | 213° |
| 2026-04-21 15:06 | 27.28426 | -132.66782 | 30153 ft | 465 kts | 213° |
| 2026-04-21 15:06 | 27.22711 | -132.70189 | 30152 ft | 465 kts | 213° |
| 2026-04-21 15:07 | 27.16997 | -132.73591 | 30152 ft | 464 kts | 213° |
| 2026-04-21 15:07 | 27.11290 | -132.76986 | 30157 ft | 464 kts | 213° |
| 2026-04-21 15:08 | 27.05583 | -132.80376 | 30156 ft | 464 kts | 213° |
| 2026-04-21 15:08 | 26.99880 | -132.83760 | 30152 ft | 464 kts | 213° |
| 2026-04-21 15:09 | 26.95131 | -132.86575 | 30154 ft | 464 kts | 213° |
| 2026-04-21 15:09 | 26.88451 | -132.90530 | 30155 ft | 465 kts | 214° |
| 2026-04-21 15:10 | 26.82731 | -132.93912 | 30159 ft | 465 kts | 214° |
| 2026-04-21 15:10 | 26.77005 | -132.97295 | 30159 ft | 466 kts | 214° |
| 2026-04-21 15:11 | 26.72239 | -133.00107 | 30153 ft | 466 kts | 214° |
| 2026-04-21 15:11 | 26.66560 | -133.03454 | 30170 ft | 466 kts | 214° |
| 2026-04-21 15:12 | 26.60820 | -133.06833 | 30169 ft | 466 kts | 214° |
| 2026-04-21 15:12 | 26.55087 | -133.10204 | 30167 ft | 466 kts | 214° |
| 2026-04-21 15:13 | 26.49351 | -133.13572 | 30165 ft | 465 kts | 214° |
| 2026-04-21 15:13 | 26.43622 | -133.16934 | 30161 ft | 464 kts | 214° |
| 2026-04-21 15:14 | 26.37940 | -133.20263 | 30157 ft | 464 kts | 214° |
| 2026-04-21 15:14 | 26.32206 | -133.23620 | 30159 ft | 463 kts | 213° |
| 2026-04-21 15:15 | 26.26535 | -133.26936 | 30158 ft | 462 kts | 213° |
| 2026-04-21 15:15 | 26.20873 | -133.30244 | 30160 ft | 462 kts | 213° |
| 2026-04-21 15:16 | 26.15171 | -133.33570 | 30157 ft | 462 kts | 213° |
| 2026-04-21 15:16 | 26.09473 | -133.36891 | 30161 ft | 462 kts | 213° |
| 2026-04-21 15:17 | 26.03781 | -133.40205 | 30161 ft | 462 kts | 213° |
| 2026-04-21 15:17 | 25.98074 | -133.43524 | 30159 ft | 463 kts | 213° |
| 2026-04-21 15:18 | 25.92367 | -133.46839 | 30160 ft | 463 kts | 213° |
| 2026-04-21 15:18 | 25.86868 | -133.50029 | 30160 ft | 463 kts | 213° |
| 2026-04-21 15:19 | 25.81161 | -133.53337 | 30157 ft | 463 kts | 213° |
| 2026-04-21 15:19 | 25.75446 | -133.56647 | 30157 ft | 463 kts | 213° |
| 2026-04-21 15:20 | 25.69768 | -133.59930 | 30160 ft | 463 kts | 213° |
| 2026-04-21 15:20 | 25.64052 | -133.63233 | 30155 ft | 463 kts | 213° |
| 2026-04-21 15:21 | 25.58331 | -133.66535 | 30151 ft | 463 kts | 213° |
| 2026-04-21 15:21 | 25.52723 | -133.69768 | 30160 ft | 463 kts | 213° |
| 2026-04-21 15:22 | 25.47001 | -133.73063 | 30161 ft | 463 kts | 213° |
| 2026-04-21 15:22 | 25.41377 | -133.76298 | 30153 ft | 463 kts | 213° |
| 2026-04-21 15:23 | 25.35665 | -133.79580 | 30158 ft | 463 kts | 213° |
| 2026-04-21 15:23 | 25.29985 | -133.82841 | 30154 ft | 463 kts | 212° |
| 2026-04-21 15:24 | 25.24268 | -133.86119 | 30156 ft | 462 kts | 212° |
| 2026-04-21 15:24 | 25.18716 | -133.89300 | 30156 ft | 462 kts | 212° |
| 2026-04-21 15:25 | 25.13002 | -133.92569 | 30155 ft | 462 kts | 212° |
| 2026-04-21 15:25 | 25.07380 | -133.95784 | 30150 ft | 462 kts | 212° |
| 2026-04-21 15:26 | 25.01677 | -133.99041 | 30151 ft | 462 kts | 212° |
| 2026-04-21 15:26 | 24.96095 | -134.02332 | 30151 ft | 460 kts | 214° |
| 2026-04-21 15:27 | 24.90551 | -134.05833 | 30152 ft | 459 kts | 214° |
| 2026-04-21 15:27 | 24.85104 | -134.09289 | 30150 ft | 459 kts | 214° |
| 2026-04-21 15:28 | 24.79548 | -134.12781 | 30150 ft | 459 kts | 214° |
| 2026-04-21 15:28 | 24.74029 | -134.16227 | 30150 ft | 459 kts | 214° |
| 2026-04-21 15:29 | 24.68469 | -134.19691 | 30151 ft | 459 kts | 214° |
| 2026-04-21 15:29 | 24.63096 | -134.23034 | 30154 ft | 460 kts | 214° |
| 2026-04-21 15:30 | 24.57520 | -134.26502 | 30152 ft | 461 kts | 214° |
| 2026-04-21 15:30 | 24.52145 | -134.29841 | 30148 ft | 462 kts | 214° |
| 2026-04-21 15:31 | 24.46472 | -134.33362 | 30151 ft | 463 kts | 214° |
| 2026-04-21 15:31 | 24.40952 | -134.36784 | 30154 ft | 464 kts | 214° |
| 2026-04-21 15:32 | 24.35369 | -134.40242 | 30151 ft | 464 kts | 214° |
| 2026-04-21 15:32 | 24.29733 | -134.43729 | 30150 ft | 465 kts | 214° |
| 2026-04-21 15:33 | 24.24092 | -134.47215 | 30151 ft | 465 kts | 214° |
| 2026-04-21 15:33 | 24.18468 | -134.50688 | 30145 ft | 465 kts | 214° |
| 2026-04-21 15:34 | 24.12817 | -134.54173 | 30147 ft | 465 kts | 214° |
| 2026-04-21 15:34 | 24.07173 | -134.57651 | 30145 ft | 465 kts | 214° |
| 2026-04-21 15:35 | 24.01566 | -134.61103 | 30150 ft | 466 kts | 214° |
| 2026-04-21 15:35 | 23.95883 | -134.64598 | 30146 ft | 466 kts | 214° |
| 2026-04-21 15:36 | 23.90262 | -134.68051 | 30148 ft | 467 kts | 214° |
| 2026-04-21 15:36 | 23.84631 | -134.71507 | 30147 ft | 468 kts | 214° |
| 2026-04-21 15:37 | 23.78964 | -134.74981 | 30144 ft | 469 kts | 214° |
| 2026-04-21 15:37 | 23.73278 | -134.78464 | 30161 ft | 469 kts | 214° |
| 2026-04-21 15:38 | 23.67581 | -134.81949 | 30147 ft | 469 kts | 214° |
| 2026-04-21 15:38 | 23.61886 | -134.85430 | 30133 ft | 469 kts | 214° |
| 2026-04-21 15:39 | 23.56184 | -134.88911 | 30145 ft | 469 kts | 214° |
| 2026-04-21 15:39 | 23.50491 | -134.92383 | 30141 ft | 469 kts | 214° |
| 2026-04-21 15:40 | 23.44793 | -134.95855 | 30142 ft | 468 kts | 214° |
| 2026-04-21 15:40 | 23.39105 | -134.99318 | 30138 ft | 468 kts | 214° |
| 2026-04-21 15:41 | 23.33414 | -135.02780 | 30138 ft | 469 kts | 214° |
| 2026-04-21 15:41 | 23.27718 | -135.06240 | 30137 ft | 469 kts | 213° |
| 2026-04-21 15:42 | 23.22019 | -135.09700 | 30139 ft | 469 kts | 213° |
| 2026-04-21 15:42 | 23.16375 | -135.13122 | 30139 ft | 470 kts | 213° |
| 2026-04-21 15:43 | 23.10624 | -135.16606 | 30133 ft | 470 kts | 213° |
| 2026-04-21 15:43 | 23.04903 | -135.20068 | 30140 ft | 471 kts | 213° |
| 2026-04-21 15:44 | 22.99182 | -135.23527 | 30141 ft | 471 kts | 213° |
| 2026-04-21 15:44 | 22.93503 | -135.26957 | 30138 ft | 471 kts | 213° |
| 2026-04-21 15:45 | 22.87782 | -135.30408 | 30137 ft | 470 kts | 213° |
| 2026-04-21 15:45 | 22.82067 | -135.33854 | 30133 ft | 470 kts | 213° |
| 2026-04-21 15:46 | 22.76347 | -135.37298 | 30136 ft | 470 kts | 213° |
| 2026-04-21 15:46 | 22.70638 | -135.40733 | 30135 ft | 469 kts | 213° |
| 2026-04-21 15:47 | 22.64938 | -135.44159 | 30132 ft | 468 kts | 213° |
| 2026-04-21 15:47 | 22.59236 | -135.47583 | 30129 ft | 468 kts | 213° |
| 2026-04-21 15:48 | 22.53547 | -135.50996 | 30134 ft | 467 kts | 213° |
| 2026-04-21 15:48 | 22.47863 | -135.54403 | 30132 ft | 467 kts | 213° |
| 2026-04-21 15:49 | 22.42175 | -135.57809 | 30132 ft | 467 kts | 213° |
| 2026-04-21 15:49 | 22.36494 | -135.61207 | 30125 ft | 467 kts | 213° |
| 2026-04-21 15:50 | 22.30805 | -135.64608 | 30130 ft | 467 kts | 213° |
| 2026-04-21 15:50 | 22.25153 | -135.67983 | 30128 ft | 467 kts | 213° |
| 2026-04-21 15:51 | 22.19462 | -135.71378 | 30129 ft | 467 kts | 213° |
| 2026-04-21 15:51 | 22.13773 | -135.74768 | 30133 ft | 467 kts | 213° |
| 2026-04-21 15:52 | 22.08087 | -135.78154 | 30129 ft | 467 kts | 213° |
| 2026-04-21 15:52 | 22.02399 | -135.81537 | 30123 ft | 467 kts | 213° |
| 2026-04-21 15:53 | 21.96705 | -135.84922 | 30120 ft | 467 kts | 213° |
| 2026-04-21 15:53 | 21.91015 | -135.88300 | 30119 ft | 467 kts | 213° |
| 2026-04-21 15:54 | 21.85329 | -135.91673 | 30121 ft | 467 kts | 213° |
| 2026-04-21 15:54 | 21.79637 | -135.95047 | 30132 ft | 467 kts | 213° |
| 2026-04-21 15:55 | 21.73947 | -135.98416 | 30117 ft | 467 kts | 212° |
| 2026-04-21 15:55 | 21.68264 | -136.01779 | 30129 ft | 467 kts | 212° |
| 2026-04-21 15:56 | 21.62610 | -136.05120 | 30119 ft | 466 kts | 212° |
| 2026-04-21 15:56 | 21.56922 | -136.08480 | 30112 ft | 466 kts | 212° |
| 2026-04-21 15:57 | 21.51234 | -136.11835 | 30112 ft | 466 kts | 212° |
| 2026-04-21 15:57 | 21.45544 | -136.15189 | 30121 ft | 467 kts | 212° |
| 2026-04-21 15:58 | 21.39855 | -136.18540 | 30121 ft | 467 kts | 212° |
| 2026-04-21 15:58 | 21.35079 | -136.21351 | 30117 ft | 467 kts | 212° |
| 2026-04-21 15:59 | 21.28462 | -136.25241 | 30119 ft | 467 kts | 212° |
| 2026-04-21 15:59 | 21.23686 | -136.28047 | 30121 ft | 467 kts | 212° |
| 2026-04-21 16:00 | 21.17976 | -136.31398 | 30115 ft | 467 kts | 212° |
| 2026-04-21 16:00 | 21.12272 | -136.34743 | 30116 ft | 468 kts | 212° |
| 2026-04-21 16:01 | 21.06595 | -136.38070 | 30112 ft | 468 kts | 212° |
| 2026-04-21 16:01 | 21.00882 | -136.41414 | 30113 ft | 468 kts | 212° |
| 2026-04-21 16:02 | 20.95165 | -136.44758 | 30116 ft | 468 kts | 212° |
| 2026-04-21 16:02 | 20.89439 | -136.48104 | 30117 ft | 468 kts | 212° |
| 2026-04-21 16:03 | 20.83729 | -136.51437 | 30110 ft | 467 kts | 212° |
| 2026-04-21 16:03 | 20.78025 | -136.54764 | 30121 ft | 467 kts | 212° |
| 2026-04-21 16:04 | 20.72311 | -136.58095 | 30109 ft | 468 kts | 212° |
| 2026-04-21 16:04 | 20.66585 | -136.61430 | 30108 ft | 468 kts | 212° |
| 2026-04-21 16:05 | 20.60864 | -136.64758 | 30107 ft | 468 kts | 212° |
| 2026-04-21 16:05 | 20.55139 | -136.68086 | 30108 ft | 469 kts | 212° |
| 2026-04-21 16:06 | 20.49447 | -136.71392 | 30102 ft | 469 kts | 212° |
| 2026-04-21 16:06 | 20.43711 | -136.74721 | 30104 ft | 470 kts | 212° |
| 2026-04-21 16:07 | 20.37924 | -136.78077 | 30103 ft | 470 kts | 212° |
| 2026-04-21 16:07 | 20.32212 | -136.81386 | 30099 ft | 471 kts | 212° |
| 2026-04-21 16:08 | 20.23562 | -136.86393 | 30108 ft | 472 kts | 212° |
| 2026-04-21 16:09 | 20.17790 | -136.89730 | 30106 ft | 472 kts | 212° |
| 2026-04-21 16:09 | 20.12013 | -136.93067 | 30104 ft | 472 kts | 212° |
| 2026-04-21 16:10 | 20.06237 | -136.96402 | 30098 ft | 473 kts | 212° |
| 2026-04-21 16:10 | 20.00464 | -136.99763 | 30100 ft | 472 kts | 214° |
| 2026-04-21 16:11 | 19.95093 | -137.03709 | 30110 ft | 469 kts | 219° |
| 2026-04-21 16:11 | 19.89838 | -137.07810 | 30101 ft | 469 kts | 219° |
| 2026-04-21 16:12 | 19.84561 | -137.11902 | 30098 ft | 469 kts | 219° |
| 2026-04-21 16:12 | 19.79279 | -137.15975 | 30099 ft | 470 kts | 219° |
| 2026-04-21 16:13 | 19.74018 | -137.20023 | 30101 ft | 470 kts | 219° |
| 2026-04-21 16:13 | 19.68724 | -137.24092 | 30102 ft | 470 kts | 219° |
| 2026-04-21 16:14 | 19.63425 | -137.28163 | 30097 ft | 470 kts | 219° |
| 2026-04-21 16:14 | 19.58130 | -137.32228 | 30095 ft | 470 kts | 219° |
| 2026-04-21 16:15 | 19.52830 | -137.36293 | 30097 ft | 470 kts | 219° |
| 2026-04-21 16:15 | 19.47529 | -137.40356 | 30097 ft | 470 kts | 219° |
| 2026-04-21 16:16 | 19.42257 | -137.44393 | 30097 ft | 470 kts | 219° |
| 2026-04-21 16:16 | 19.36922 | -137.48475 | 30098 ft | 470 kts | 219° |
| 2026-04-21 16:17 | 19.31650 | -137.52506 | 30096 ft | 471 kts | 219° |
| 2026-04-21 16:17 | 19.26344 | -137.56559 | 30098 ft | 471 kts | 219° |
| 2026-04-21 16:18 | 19.21031 | -137.60615 | 30093 ft | 471 kts | 219° |
| 2026-04-21 16:18 | 19.15713 | -137.64671 | 30093 ft | 471 kts | 219° |
| 2026-04-21 16:19 | 19.10392 | -137.68725 | 30092 ft | 472 kts | 219° |
| 2026-04-21 16:19 | 19.05068 | -137.72779 | 30094 ft | 472 kts | 219° |
| 2026-04-21 16:20 | 18.99735 | -137.76837 | 30088 ft | 472 kts | 219° |
| 2026-04-21 16:20 | 18.94399 | -137.80893 | 30089 ft | 472 kts | 218° |
| 2026-04-21 16:21 | 18.89066 | -137.84944 | 30083 ft | 473 kts | 218° |
| 2026-04-21 16:21 | 18.83718 | -137.89003 | 30086 ft | 473 kts | 218° |
| 2026-04-21 16:22 | 18.78369 | -137.93059 | 30088 ft | 473 kts | 218° |
| 2026-04-21 16:22 | 18.73017 | -137.97114 | 30089 ft | 474 kts | 218° |
| 2026-04-21 16:23 | 18.67662 | -138.01169 | 30082 ft | 474 kts | 218° |
| 2026-04-21 16:23 | 18.62304 | -138.05223 | 30084 ft | 474 kts | 218° |
| 2026-04-21 16:24 | 18.56935 | -138.09281 | 30082 ft | 475 kts | 218° |
| 2026-04-21 16:24 | 18.51598 | -138.13313 | 30091 ft | 475 kts | 218° |
| 2026-04-21 16:25 | 18.46221 | -138.17372 | 30084 ft | 475 kts | 218° |
| 2026-04-21 16:25 | 18.40839 | -138.21430 | 30085 ft | 476 kts | 218° |
| 2026-04-21 16:26 | 18.35456 | -138.25487 | 30077 ft | 476 kts | 218° |
| 2026-04-21 16:26 | 18.30064 | -138.29547 | 30086 ft | 477 kts | 218° |
| 2026-04-21 16:27 | 18.24668 | -138.33607 | 30077 ft | 477 kts | 218° |
| 2026-04-21 16:27 | 18.19265 | -138.37669 | 30080 ft | 478 kts | 218° |
| 2026-04-21 16:28 | 18.13857 | -138.41732 | 30075 ft | 478 kts | 218° |
| 2026-04-21 16:28 | 18.08440 | -138.45798 | 30078 ft | 479 kts | 218° |
| 2026-04-21 16:29 | 18.03014 | -138.49869 | 30075 ft | 479 kts | 218° |
| 2026-04-21 16:29 | 17.97580 | -138.53941 | 30077 ft | 479 kts | 218° |
| 2026-04-21 16:30 | 17.92147 | -138.58010 | 30074 ft | 480 kts | 218° |
| 2026-04-21 16:30 | 17.86705 | -138.62082 | 30074 ft | 480 kts | 218° |
| 2026-04-21 16:31 | 17.81307 | -138.66119 | 30074 ft | 480 kts | 218° |
| 2026-04-21 16:31 | 17.75858 | -138.70190 | 30077 ft | 481 kts | 218° |
| 2026-04-21 16:32 | 17.70408 | -138.74259 | 30074 ft | 481 kts | 218° |
| 2026-04-21 16:32 | 17.64953 | -138.78328 | 30070 ft | 481 kts | 218° |
| 2026-04-21 16:33 | 17.59497 | -138.82396 | 30072 ft | 481 kts | 218° |
| 2026-04-21 16:33 | 17.54037 | -138.86464 | 30073 ft | 481 kts | 218° |
| 2026-04-21 16:34 | 17.48572 | -138.90531 | 30069 ft | 482 kts | 218° |
| 2026-04-21 16:34 | 17.43104 | -138.94599 | 30070 ft | 482 kts | 218° |
| 2026-04-21 16:35 | 17.37632 | -138.98666 | 30068 ft | 483 kts | 218° |
| 2026-04-21 16:35 | 17.32147 | -139.02739 | 30070 ft | 483 kts | 218° |
| 2026-04-21 16:36 | 17.26662 | -139.06810 | 30067 ft | 484 kts | 218° |
| 2026-04-21 16:36 | 17.21194 | -139.10865 | 30059 ft | 474 kts | 217° |
| 2026-04-21 16:37 | 17.15926 | -139.14766 | 30068 ft | 465 kts | 217° |
| 2026-04-21 16:37 | 17.10579 | -139.18727 | 30072 ft | 470 kts | 217° |
| 2026-04-21 16:38 | 17.05228 | -139.22688 | 30072 ft | 473 kts | 217° |
| 2026-04-21 16:38 | 16.99880 | -139.26643 | 30064 ft | 475 kts | 217° |
| 2026-04-21 16:39 | 16.94456 | -139.30651 | 30055 ft | 474 kts | 217° |
| 2026-04-21 16:39 | 16.89107 | -139.34600 | 30059 ft | 473 kts | 217° |
| 2026-04-21 16:40 | 16.83748 | -139.38554 | 30058 ft | 471 kts | 217° |
| 2026-04-21 16:40 | 16.78404 | -139.42494 | 30059 ft | 470 kts | 217° |
| 2026-04-21 16:41 | 16.73930 | -139.45791 | 30062 ft | 470 kts | 217° |
| 2026-04-21 16:41 | 16.67725 | -139.50360 | 30056 ft | 470 kts | 217° |
| 2026-04-21 16:42 | 16.62378 | -139.54295 | 30058 ft | 470 kts | 217° |
| 2026-04-21 16:42 | 16.57026 | -139.58231 | 30060 ft | 471 kts | 217° |
| 2026-04-21 16:43 | 16.51669 | -139.62167 | 30057 ft | 471 kts | 217° |
| 2026-04-21 16:43 | 16.46308 | -139.66103 | 30054 ft | 472 kts | 217° |
| 2026-04-21 16:44 | 16.40935 | -139.70046 | 30054 ft | 472 kts | 217° |
| 2026-04-21 16:44 | 16.35569 | -139.73981 | 30054 ft | 472 kts | 217° |
| 2026-04-21 16:45 | 16.30227 | -139.77895 | 30055 ft | 472 kts | 217° |
| 2026-04-21 16:45 | 16.24861 | -139.81825 | 30052 ft | 472 kts | 217° |
| 2026-04-21 16:46 | 16.20361 | -139.85119 | 30050 ft | 471 kts | 217° |
| 2026-04-21 16:46 | 16.14996 | -139.89043 | 30048 ft | 471 kts | 217° |
| 2026-04-21 16:47 | 16.09672 | -139.92935 | 30052 ft | 471 kts | 217° |
| 2026-04-21 16:47 | 16.04312 | -139.96851 | 30049 ft | 471 kts | 217° |
| 2026-04-21 16:48 | 15.99188 | -140.01082 | 30046 ft | 469 kts | 224° |
| 2026-04-21 16:48 | 15.94771 | -140.06060 | 30053 ft | 468 kts | 229° |
| 2026-04-21 16:49 | 15.90481 | -140.11160 | 30042 ft | 469 kts | 229° |
| 2026-04-21 16:49 | 15.86172 | -140.16250 | 30046 ft | 469 kts | 229° |
| 2026-04-21 16:50 | 15.81855 | -140.21325 | 30037 ft | 469 kts | 229° |
| 2026-04-21 16:50 | 15.77526 | -140.26404 | 30039 ft | 469 kts | 229° |
| 2026-04-21 16:51 | 15.73205 | -140.31469 | 30043 ft | 469 kts | 229° |
| 2026-04-21 16:51 | 15.68889 | -140.36528 | 30042 ft | 468 kts | 229° |
| 2026-04-21 16:52 | 15.64595 | -140.41556 | 30038 ft | 468 kts | 229° |
| 2026-04-21 16:52 | 15.60271 | -140.46616 | 30037 ft | 468 kts | 229° |
| 2026-04-21 16:53 | 15.55952 | -140.51667 | 30036 ft | 468 kts | 229° |
| 2026-04-21 16:53 | 15.51637 | -140.56711 | 30035 ft | 467 kts | 229° |
| 2026-04-21 16:54 | 15.47322 | -140.61750 | 30033 ft | 467 kts | 229° |
| 2026-04-21 16:54 | 15.43003 | -140.66791 | 30035 ft | 467 kts | 229° |
| 2026-04-21 16:55 | 15.38691 | -140.71820 | 30034 ft | 467 kts | 229° |
| 2026-04-21 16:55 | 15.34367 | -140.76860 | 30032 ft | 467 kts | 229° |
| 2026-04-21 16:56 | 15.30049 | -140.81889 | 30038 ft | 468 kts | 229° |
| 2026-04-21 16:56 | 15.25724 | -140.86924 | 30030 ft | 468 kts | 229° |
| 2026-04-21 16:57 | 15.21423 | -140.91927 | 30032 ft | 468 kts | 229° |
| 2026-04-21 16:57 | 15.17086 | -140.96968 | 30035 ft | 468 kts | 229° |
| 2026-04-21 16:58 | 15.12758 | -141.01995 | 30032 ft | 468 kts | 229° |
| 2026-04-21 16:58 | 15.08425 | -141.07025 | 30024 ft | 468 kts | 229° |
| 2026-04-21 16:59 | 15.04091 | -141.12054 | 30025 ft | 468 kts | 229° |
| 2026-04-21 16:59 | 14.99756 | -141.17078 | 30024 ft | 468 kts | 229° |
| 2026-04-21 17:00 | 14.95416 | -141.22107 | 30025 ft | 469 kts | 229° |
| 2026-04-21 17:00 | 14.91803 | -141.26290 | 30035 ft | 469 kts | 229° |
| 2026-04-21 17:01 | 14.86719 | -141.32173 | 30017 ft | 469 kts | 229° |
| 2026-04-21 17:01 | 14.82365 | -141.37207 | 30019 ft | 470 kts | 229° |
| 2026-04-21 17:02 | 14.78035 | -141.42210 | 30018 ft | 470 kts | 229° |
| 2026-04-21 17:02 | 14.73677 | -141.47244 | 30022 ft | 470 kts | 229° |
| 2026-04-21 17:03 | 14.69315 | -141.52277 | 30030 ft | 470 kts | 229° |
| 2026-04-21 17:03 | 14.64945 | -141.57317 | 30018 ft | 471 kts | 229° |
| 2026-04-21 17:04 | 14.60578 | -141.62350 | 30025 ft | 471 kts | 229° |
| 2026-04-21 17:04 | 14.56206 | -141.67385 | 30032 ft | 471 kts | 229° |
| 2026-04-21 17:05 | 14.51826 | -141.72426 | 30024 ft | 472 kts | 228° |
| 2026-04-21 17:05 | 14.47442 | -141.77470 | 30005 ft | 472 kts | 228° |
| 2026-04-21 17:06 | 14.43056 | -141.82512 | 30018 ft | 472 kts | 228° |
| 2026-04-21 17:06 | 14.38663 | -141.87558 | 30026 ft | 473 kts | 228° |
| 2026-04-21 17:07 | 14.34267 | -141.92605 | 30029 ft | 473 kts | 228° |
| 2026-04-21 17:07 | 14.29868 | -141.97653 | 30003 ft | 473 kts | 228° |
| 2026-04-21 17:08 | 14.25468 | -142.02698 | 30008 ft | 474 kts | 228° |
| 2026-04-21 17:08 | 14.21062 | -142.07747 | 30016 ft | 474 kts | 228° |
| 2026-04-21 17:09 | 14.14470 | -142.15295 | 30019 ft | 474 kts | 228° |
| 2026-04-21 17:09 | 14.10049 | -142.20353 | 30017 ft | 475 kts | 228° |
| 2026-04-21 17:10 | 14.05632 | -142.25404 | 30008 ft | 475 kts | 228° |
| 2026-04-21 17:10 | 14.01206 | -142.30461 | 30004 ft | 475 kts | 228° |
| 2026-04-21 17:11 | 13.96779 | -142.35516 | 30009 ft | 475 kts | 228° |
| 2026-04-21 17:11 | 13.92355 | -142.40566 | 30006 ft | 475 kts | 228° |
| 2026-04-21 17:12 | 13.87923 | -142.45621 | 29999 ft | 475 kts | 228° |
| 2026-04-21 17:12 | 13.83494 | -142.50669 | 30010 ft | 475 kts | 228° |
| 2026-04-21 17:13 | 13.79057 | -142.55724 | 30004 ft | 475 kts | 228° |
| 2026-04-21 17:13 | 13.74625 | -142.60769 | 30008 ft | 475 kts | 229° |
| 2026-04-21 17:14 | 13.70197 | -142.65807 | 30000 ft | 475 kts | 229° |
| 2026-04-21 17:14 | 13.65759 | -142.70854 | 30002 ft | 475 kts | 229° |
| 2026-04-21 17:15 | 13.61351 | -142.75863 | 30002 ft | 475 kts | 229° |
| 2026-04-21 17:15 | 13.56916 | -142.80900 | 29997 ft | 475 kts | 229° |
| 2026-04-21 17:16 | 13.52478 | -142.85938 | 30004 ft | 475 kts | 229° |
| 2026-04-21 17:16 | 13.48033 | -142.90980 | 30000 ft | 476 kts | 229° |
| 2026-04-21 17:17 | 13.43591 | -142.96016 | 29998 ft | 476 kts | 229° |
| 2026-04-21 17:17 | 13.39141 | -143.01057 | 30004 ft | 476 kts | 229° |
| 2026-04-21 17:18 | 13.34693 | -143.06094 | 29995 ft | 476 kts | 229° |
| 2026-04-21 17:18 | 13.30244 | -143.11129 | 30007 ft | 476 kts | 229° |
| 2026-04-21 17:19 | 13.25789 | -143.16167 | 29991 ft | 476 kts | 229° |
| 2026-04-21 17:19 | 13.21333 | -143.21204 | 29996 ft | 477 kts | 229° |
| 2026-04-21 17:20 | 13.16875 | -143.26240 | 30000 ft | 477 kts | 229° |
| 2026-04-21 17:20 | 13.12433 | -143.31255 | 29998 ft | 477 kts | 229° |
| 2026-04-21 17:21 | 13.07961 | -143.36301 | 29990 ft | 478 kts | 229° |
| 2026-04-21 17:21 | 13.03491 | -143.41342 | 29992 ft | 478 kts | 229° |
| 2026-04-21 17:22 | 12.99015 | -143.46387 | 29991 ft | 478 kts | 229° |
| 2026-04-21 17:22 | 12.94538 | -143.51429 | 29998 ft | 478 kts | 229° |
| 2026-04-21 17:23 | 12.90057 | -143.56474 | 29995 ft | 478 kts | 229° |
| 2026-04-21 17:23 | 12.85574 | -143.61518 | 29997 ft | 479 kts | 229° |
| 2026-04-21 17:24 | 12.81090 | -143.66559 | 29995 ft | 479 kts | 229° |
| 2026-04-21 17:24 | 12.76600 | -143.71606 | 29998 ft | 479 kts | 229° |
| 2026-04-21 17:25 | 12.72115 | -143.76643 | 29992 ft | 479 kts | 229° |
| 2026-04-21 17:25 | 12.67625 | -143.81683 | 29980 ft | 479 kts | 228° |
| 2026-04-21 17:26 | 12.63131 | -143.86725 | 29992 ft | 479 kts | 229° |
| 2026-04-21 17:26 | 12.58634 | -143.91767 | 29987 ft | 479 kts | 229° |
| 2026-04-21 17:27 | 12.54134 | -143.96810 | 29990 ft | 480 kts | 229° |
| 2026-04-21 17:27 | 12.49659 | -144.01822 | 29992 ft | 480 kts | 229° |
| 2026-04-21 17:28 | 12.45152 | -144.06867 | 29988 ft | 480 kts | 229° |
| 2026-04-21 17:28 | 12.40642 | -144.11914 | 29991 ft | 481 kts | 228° |
| 2026-04-21 17:29 | 12.36129 | -144.16960 | 29991 ft | 481 kts | 229° |
| 2026-04-21 17:29 | 12.31610 | -144.22009 | 29985 ft | 481 kts | 229° |
| 2026-04-21 17:30 | 12.27090 | -144.27058 | 29983 ft | 481 kts | 229° |
| 2026-04-21 17:30 | 12.22570 | -144.32104 | 29986 ft | 481 kts | 229° |
| 2026-04-21 17:31 | 12.18052 | -144.37145 | 29986 ft | 481 kts | 229° |
| 2026-04-21 17:31 | 12.13527 | -144.42191 | 29977 ft | 482 kts | 229° |
| 2026-04-21 17:32 | 12.08994 | -144.47242 | 29979 ft | 482 kts | 229° |
| 2026-04-21 17:32 | 12.04460 | -144.52293 | 29984 ft | 482 kts | 229° |
| 2026-04-21 17:33 | 12.00690 | -144.56490 | 29981 ft | 483 kts | 229° |
| 2026-04-21 17:33 | 11.96153 | -144.61540 | 29984 ft | 483 kts | 229° |
| 2026-04-21 17:34 | 11.91609 | -144.66593 | 29978 ft | 483 kts | 229° |
| 2026-04-21 17:34 | 11.87060 | -144.71650 | 29978 ft | 483 kts | 229° |
| 2026-04-21 17:35 | 11.82517 | -144.76697 | 29981 ft | 483 kts | 229° |
| 2026-04-21 17:35 | 11.77228 | -144.82569 | 29977 ft | 483 kts | 229° |
| 2026-04-21 17:36 | 11.73441 | -144.86773 | 29978 ft | 483 kts | 229° |
| 2026-04-21 17:36 | 11.68888 | -144.91824 | 29978 ft | 483 kts | 229° |
| 2026-04-21 17:37 | 11.64333 | -144.96873 | 29977 ft | 484 kts | 229° |
| 2026-04-21 17:37 | 11.59780 | -145.01919 | 29971 ft | 484 kts | 229° |
| 2026-04-21 17:38 | 11.55221 | -145.06968 | 29973 ft | 484 kts | 229° |
| 2026-04-21 17:38 | 11.50662 | -145.12015 | 29980 ft | 484 kts | 229° |
| 2026-04-21 17:39 | 11.46098 | -145.17065 | 29973 ft | 484 kts | 229° |
| 2026-04-21 17:39 | 11.41533 | -145.22112 | 29973 ft | 484 kts | 229° |
| 2026-04-21 17:40 | 11.36995 | -145.27128 | 29974 ft | 484 kts | 229° |
| 2026-04-21 17:40 | 11.32424 | -145.32178 | 29971 ft | 484 kts | 229° |
| 2026-04-21 17:41 | 11.27860 | -145.37217 | 29974 ft | 484 kts | 229° |
| 2026-04-21 17:41 | 11.23294 | -145.42256 | 29969 ft | 484 kts | 229° |
| 2026-04-21 17:42 | 11.18725 | -145.47296 | 29972 ft | 484 kts | 229° |
| 2026-04-21 17:42 | 11.14163 | -145.52326 | 29968 ft | 484 kts | 229° |
| 2026-04-21 17:43 | 11.09600 | -145.57354 | 29973 ft | 483 kts | 229° |
| 2026-04-21 17:43 | 11.05034 | -145.62382 | 29973 ft | 484 kts | 229° |
| 2026-04-21 17:44 | 11.00467 | -145.67410 | 29969 ft | 484 kts | 229° |
| 2026-04-21 17:44 | 10.95890 | -145.72446 | 29967 ft | 484 kts | 229° |
| 2026-04-21 17:45 | 10.91351 | -145.77438 | 29968 ft | 484 kts | 229° |
| 2026-04-21 17:45 | 10.86772 | -145.82472 | 29972 ft | 484 kts | 229° |
| 2026-04-21 17:46 | 10.82199 | -145.87496 | 29972 ft | 484 kts | 229° |
| 2026-04-21 17:46 | 10.77616 | -145.92529 | 29971 ft | 485 kts | 229° |
| 2026-04-21 17:47 | 10.73037 | -145.97555 | 29972 ft | 485 kts | 229° |
| 2026-04-21 17:47 | 10.68449 | -146.02588 | 29967 ft | 485 kts | 229° |
| 2026-04-21 17:48 | 10.63860 | -146.07621 | 29965 ft | 485 kts | 229° |
| 2026-04-21 17:48 | 10.59272 | -146.12650 | 29965 ft | 485 kts | 229° |
| 2026-04-21 17:49 | 10.54684 | -146.17676 | 29966 ft | 485 kts | 229° |
| 2026-04-21 17:49 | 10.50089 | -146.22708 | 29968 ft | 485 kts | 229° |
| 2026-04-21 17:50 | 10.45500 | -146.27731 | 29965 ft | 485 kts | 229° |
| 2026-04-21 17:50 | 10.40900 | -146.32763 | 29963 ft | 485 kts | 229° |
| 2026-04-21 17:51 | 10.36307 | -146.37786 | 29966 ft | 486 kts | 229° |
| 2026-04-21 17:51 | 10.31698 | -146.42823 | 29961 ft | 486 kts | 229° |
| 2026-04-21 17:52 | 10.27127 | -146.47817 | 29963 ft | 486 kts | 229° |
| 2026-04-21 17:52 | 10.22520 | -146.52848 | 29963 ft | 486 kts | 229° |
| 2026-04-21 17:53 | 10.17910 | -146.57880 | 29967 ft | 487 kts | 229° |
| 2026-04-21 17:53 | 10.13300 | -146.62910 | 29965 ft | 487 kts | 229° |
| 2026-04-21 17:54 | 10.08687 | -146.67939 | 29967 ft | 487 kts | 229° |
| 2026-04-21 17:54 | 10.04071 | -146.72971 | 29965 ft | 487 kts | 229° |
| 2026-04-21 17:55 | 9.99456 | -146.77999 | 29969 ft | 487 kts | 229° |
| 2026-04-21 17:55 | 9.94837 | -146.83030 | 29968 ft | 487 kts | 229° |
| 2026-04-21 17:56 | 9.90212 | -146.88064 | 29970 ft | 487 kts | 229° |
| 2026-04-21 17:56 | 9.85586 | -146.93097 | 29965 ft | 488 kts | 229° |
| 2026-04-21 17:57 | 9.80957 | -146.98132 | 29969 ft | 488 kts | 229° |
| 2026-04-21 17:57 | 9.76326 | -147.03167 | 29968 ft | 488 kts | 229° |
| 2026-04-21 17:58 | 9.71717 | -147.08175 | 29969 ft | 488 kts | 229° |
| 2026-04-21 17:58 | 9.67086 | -147.13205 | 29970 ft | 489 kts | 229° |
| 2026-04-21 17:59 | 9.62444 | -147.18245 | 29972 ft | 489 kts | 229° |
| 2026-04-21 17:59 | 9.57794 | -147.23291 | 29972 ft | 489 kts | 229° |
| 2026-04-21 18:00 | 9.53151 | -147.28328 | 29969 ft | 490 kts | 229° |
| 2026-04-21 18:00 | 9.48500 | -147.33370 | 29973 ft | 490 kts | 229° |
| 2026-04-21 18:01 | 9.43843 | -147.38418 | 29975 ft | 490 kts | 229° |
| 2026-04-21 18:01 | 9.39189 | -147.43459 | 29968 ft | 490 kts | 229° |
| 2026-04-21 18:02 | 9.34532 | -147.48503 | 29974 ft | 490 kts | 229° |
| 2026-04-21 18:02 | 9.29873 | -147.53546 | 29960 ft | 490 kts | 229° |
| 2026-04-21 18:03 | 9.25215 | -147.58586 | 29970 ft | 490 kts | 229° |
| 2026-04-21 18:03 | 9.20559 | -147.63622 | 29977 ft | 490 kts | 229° |
| 2026-04-21 18:04 | 9.15929 | -147.68628 | 29969 ft | 490 kts | 229° |
| 2026-04-21 18:04 | 9.11265 | -147.73667 | 29974 ft | 491 kts | 229° |
| 2026-04-21 18:05 | 9.06602 | -147.78705 | 29971 ft | 491 kts | 229° |
| 2026-04-21 18:05 | 9.01932 | -147.83747 | 29974 ft | 491 kts | 229° |
| 2026-04-21 18:06 | 8.97255 | -147.88796 | 29971 ft | 491 kts | 229° |
| 2026-04-21 18:06 | 8.92575 | -147.93845 | 29974 ft | 492 kts | 229° |
| 2026-04-21 18:07 | 8.87895 | -147.98892 | 29971 ft | 492 kts | 229° |
| 2026-04-21 18:07 | 8.83210 | -148.03942 | 29975 ft | 492 kts | 229° |
| 2026-04-21 18:08 | 8.78525 | -148.08991 | 29978 ft | 492 kts | 229° |
| 2026-04-21 18:08 | 8.73837 | -148.14041 | 29976 ft | 492 kts | 229° |
| 2026-04-21 18:09 | 8.69177 | -148.19059 | 29977 ft | 493 kts | 229° |
| 2026-04-21 18:09 | 8.64487 | -148.24107 | 29972 ft | 493 kts | 229° |
| 2026-04-21 18:10 | 8.59789 | -148.29162 | 29974 ft | 493 kts | 229° |
| 2026-04-21 18:10 | 8.55092 | -148.34213 | 29970 ft | 493 kts | 229° |
| 2026-04-21 18:11 | 8.50394 | -148.39264 | 29972 ft | 493 kts | 229° |
| 2026-04-21 18:11 | 8.45688 | -148.44321 | 29971 ft | 494 kts | 229° |
| 2026-04-21 18:12 | 8.40982 | -148.49377 | 29972 ft | 494 kts | 229° |
| 2026-04-21 18:12 | 8.36270 | -148.54437 | 29971 ft | 495 kts | 229° |
| 2026-04-21 18:13 | 8.31558 | -148.59495 | 29972 ft | 495 kts | 229° |
| 2026-04-21 18:13 | 8.26838 | -148.64560 | 29970 ft | 495 kts | 229° |
| 2026-04-21 18:14 | 8.19755 | -148.72157 | 29975 ft | 496 kts | 229° |
| 2026-04-21 18:15 | 8.15023 | -148.77230 | 29970 ft | 496 kts | 229° |
| 2026-04-21 18:15 | 8.10325 | -148.82265 | 29967 ft | 496 kts | 229° |
| 2026-04-21 18:16 | 8.05557 | -148.87373 | 29970 ft | 497 kts | 229° |
| 2026-04-21 18:16 | 8.00853 | -148.92410 | 29973 ft | 497 kts | 229° |
| 2026-04-21 18:17 | 7.96106 | -148.97492 | 29971 ft | 497 kts | 229° |
| 2026-04-21 18:17 | 7.91359 | -149.02571 | 29974 ft | 498 kts | 229° |
| 2026-04-21 18:18 | 7.86607 | -149.07654 | 29974 ft | 498 kts | 229° |
| 2026-04-21 18:18 | 7.81850 | -149.12741 | 29969 ft | 498 kts | 229° |
| 2026-04-21 18:19 | 7.77092 | -149.17827 | 29972 ft | 498 kts | 229° |
| 2026-04-21 18:19 | 7.72334 | -149.22912 | 29971 ft | 499 kts | 229° |
| 2026-04-21 18:20 | 7.67570 | -149.28000 | 29974 ft | 499 kts | 229° |
| 2026-04-21 18:20 | 7.62838 | -149.33054 | 29978 ft | 499 kts | 229° |
| 2026-04-21 18:21 | 7.58076 | -149.38136 | 29978 ft | 499 kts | 229° |
| 2026-04-21 18:21 | 7.53309 | -149.43223 | 29968 ft | 499 kts | 229° |
| 2026-04-21 18:22 | 7.48541 | -149.48309 | 29975 ft | 499 kts | 229° |
| 2026-04-21 18:22 | 7.43766 | -149.53402 | 29971 ft | 500 kts | 229° |
| 2026-04-21 18:23 | 7.38986 | -149.58498 | 29973 ft | 500 kts | 229° |
| 2026-04-21 18:23 | 7.35020 | -149.62724 | 29973 ft | 500 kts | 229° |
| 2026-04-21 18:24 | 7.30241 | -149.67816 | 29974 ft | 500 kts | 229° |
| 2026-04-21 18:24 | 7.25454 | -149.72913 | 29971 ft | 500 kts | 229° |
| 2026-04-21 18:25 | 7.19868 | -149.78861 | 29969 ft | 500 kts | 229° |
| 2026-04-21 18:25 | 7.15888 | -149.83096 | 29969 ft | 500 kts | 229° |
| 2026-04-21 18:26 | 7.11104 | -149.88188 | 29966 ft | 501 kts | 229° |
| 2026-04-21 18:26 | 7.06322 | -149.93275 | 29976 ft | 501 kts | 229° |
| 2026-04-21 18:27 | 7.01532 | -149.98369 | 29974 ft | 501 kts | 229° |
| 2026-04-21 18:27 | 6.96790 | -150.03515 | 29972 ft | 500 kts | 230° |
| 2026-04-21 18:28 | 6.92181 | -150.08754 | 29965 ft | 500 kts | 230° |
| 2026-04-21 18:28 | 6.87612 | -150.13975 | 29967 ft | 500 kts | 230° |
| 2026-04-21 18:29 | 6.82993 | -150.19218 | 29971 ft | 500 kts | 230° |
| 2026-04-21 18:29 | 6.78371 | -150.24442 | 29971 ft | 500 kts | 230° |
| 2026-04-21 18:30 | 6.73736 | -150.29672 | 29967 ft | 500 kts | 230° |
| 2026-04-21 18:30 | 6.69103 | -150.34900 | 29969 ft | 500 kts | 230° |
| 2026-04-21 18:31 | 6.64473 | -150.40125 | 29971 ft | 500 kts | 230° |
| 2026-04-21 18:31 | 6.59849 | -150.45342 | 29964 ft | 500 kts | 230° |
| 2026-04-21 18:32 | 6.55225 | -150.50556 | 29963 ft | 499 kts | 230° |
| 2026-04-21 18:32 | 6.50602 | -150.55770 | 29979 ft | 499 kts | 230° |
| 2026-04-21 18:33 | 6.45985 | -150.60974 | 29968 ft | 499 kts | 230° |
| 2026-04-21 18:33 | 6.41371 | -150.66173 | 29964 ft | 498 kts | 230° |
| 2026-04-21 18:34 | 6.36757 | -150.71370 | 29980 ft | 498 kts | 230° |
| 2026-04-21 18:34 | 6.32178 | -150.76526 | 29961 ft | 498 kts | 230° |
| 2026-04-21 18:35 | 6.28313 | -150.80878 | 29957 ft | 497 kts | 230° |
| 2026-04-21 18:35 | 6.22961 | -150.86902 | 29972 ft | 497 kts | 230° |
| 2026-04-21 18:36 | 6.18352 | -150.92088 | 29977 ft | 497 kts | 230° |
| 2026-04-21 18:36 | 6.13742 | -150.97274 | 29972 ft | 497 kts | 230° |
| 2026-04-21 18:37 | 6.09133 | -151.02457 | 29954 ft | 497 kts | 230° |
| 2026-04-21 18:37 | 6.04524 | -151.07638 | 29956 ft | 497 kts | 230° |
| 2026-04-21 18:38 | 5.99911 | -151.12822 | 29969 ft | 497 kts | 230° |
| 2026-04-21 18:38 | 5.95297 | -151.18007 | 29970 ft | 498 kts | 230° |
| 2026-04-21 18:39 | 5.90681 | -151.23192 | 29967 ft | 498 kts | 230° |
| 2026-04-21 18:39 | 5.86065 | -151.28377 | 29970 ft | 498 kts | 229° |
| 2026-04-21 18:40 | 5.81445 | -151.33564 | 29953 ft | 498 kts | 229° |
| 2026-04-21 18:40 | 5.77608 | -151.37870 | 29968 ft | 498 kts | 229° |
| 2026-04-21 18:41 | 5.72232 | -151.43902 | 29968 ft | 498 kts | 229° |
| 2026-04-21 18:41 | 5.67609 | -151.49088 | 29968 ft | 498 kts | 229° |
| 2026-04-21 18:42 | 5.62989 | -151.54270 | 29951 ft | 498 kts | 229° |
| 2026-04-21 18:42 | 5.58371 | -151.59447 | 29967 ft | 498 kts | 229° |
| 2026-04-21 18:43 | 5.53750 | -151.64627 | 29969 ft | 498 kts | 229° |
| 2026-04-21 18:43 | 5.49128 | -151.69807 | 29945 ft | 498 kts | 229° |
| 2026-04-21 18:44 | 5.44500 | -151.74992 | 29960 ft | 498 kts | 229° |
| 2026-04-21 18:44 | 5.39869 | -151.80179 | 29966 ft | 499 kts | 229° |
| 2026-04-21 18:45 | 5.35234 | -151.85371 | 29944 ft | 499 kts | 229° |
| 2026-04-21 18:45 | 5.30597 | -151.90561 | 29960 ft | 500 kts | 229° |
| 2026-04-21 18:46 | 5.25987 | -151.95721 | 29956 ft | 500 kts | 229° |
| 2026-04-21 18:46 | 5.21344 | -152.00917 | 29958 ft | 500 kts | 229° |
| 2026-04-21 18:47 | 5.16696 | -152.06117 | 29961 ft | 501 kts | 229° |
| 2026-04-21 18:47 | 5.12044 | -152.11320 | 29959 ft | 501 kts | 229° |
| 2026-04-21 18:48 | 5.07388 | -152.16526 | 29958 ft | 501 kts | 229° |
| 2026-04-21 18:48 | 5.02732 | -152.21731 | 29957 ft | 501 kts | 229° |
| 2026-04-21 18:49 | 4.98067 | -152.26946 | 29956 ft | 502 kts | 229° |
| 2026-04-21 18:49 | 4.94188 | -152.31280 | 29959 ft | 502 kts | 229° |
| 2026-04-21 18:50 | 4.88732 | -152.37376 | 29959 ft | 502 kts | 229° |
| 2026-04-21 18:50 | 4.84062 | -152.42591 | 29957 ft | 502 kts | 229° |
| 2026-04-21 18:51 | 4.79396 | -152.47802 | 29958 ft | 502 kts | 229° |
| 2026-04-21 18:51 | 4.74720 | -152.53022 | 29956 ft | 502 kts | 229° |
| 2026-04-21 18:52 | 4.70082 | -152.58199 | 29955 ft | 502 kts | 229° |
| 2026-04-21 18:52 | 4.65415 | -152.63407 | 29953 ft | 502 kts | 229° |
| 2026-04-21 18:53 | 4.60743 | -152.68620 | 29949 ft | 502 kts | 229° |
| 2026-04-21 18:53 | 4.56078 | -152.73823 | 29949 ft | 502 kts | 229° |
| 2026-04-21 18:54 | 4.51401 | -152.79040 | 29948 ft | 502 kts | 229° |
| 2026-04-21 18:54 | 4.46724 | -152.84254 | 29949 ft | 503 kts | 229° |
| 2026-04-21 18:55 | 4.42837 | -152.88587 | 29954 ft | 503 kts | 230° |
| 2026-04-21 18:55 | 4.37370 | -152.94681 | 29956 ft | 503 kts | 230° |
| 2026-04-21 18:56 | 4.32681 | -152.99906 | 29953 ft | 504 kts | 230° |
| 2026-04-21 18:56 | 4.28019 | -153.05101 | 29949 ft | 504 kts | 230° |
| 2026-04-21 18:57 | 4.23326 | -153.10327 | 29953 ft | 505 kts | 230° |
| 2026-04-21 18:57 | 4.18625 | -153.15562 | 29953 ft | 505 kts | 230° |
| 2026-04-21 18:58 | 4.13923 | -153.20798 | 29954 ft | 506 kts | 230° |
| 2026-04-21 18:58 | 4.09220 | -153.26034 | 29951 ft | 506 kts | 230° |
| 2026-04-21 18:59 | 4.04509 | -153.31277 | 29951 ft | 506 kts | 230° |
| 2026-04-21 18:59 | 3.99809 | -153.36508 | 29952 ft | 505 kts | 229° |
| 2026-04-21 19:00 | 3.95102 | -153.41744 | 29951 ft | 505 kts | 229° |
| 2026-04-21 19:00 | 3.90404 | -153.46969 | 29945 ft | 505 kts | 229° |
| 2026-04-21 19:01 | 3.85712 | -153.52188 | 29944 ft | 504 kts | 229° |
| 2026-04-21 19:01 | 3.81049 | -153.57374 | 29947 ft | 504 kts | 229° |
| 2026-04-21 19:02 | 3.76357 | -153.62590 | 29953 ft | 504 kts | 229° |
| 2026-04-21 19:02 | 3.71666 | -153.67804 | 29954 ft | 504 kts | 229° |
| 2026-04-21 19:03 | 3.66979 | -153.73014 | 29949 ft | 504 kts | 229° |
| 2026-04-21 19:03 | 3.62283 | -153.78231 | 29948 ft | 503 kts | 229° |
| 2026-04-21 19:04 | 3.57600 | -153.83434 | 29953 ft | 504 kts | 229° |
| 2026-04-21 19:04 | 3.52906 | -153.88649 | 29948 ft | 503 kts | 229° |
| 2026-04-21 19:05 | 3.48220 | -153.93854 | 29947 ft | 503 kts | 229° |
| 2026-04-21 19:05 | 3.43529 | -153.99063 | 29952 ft | 503 kts | 229° |
| 2026-04-21 19:06 | 3.38841 | -154.04269 | 29952 ft | 503 kts | 229° |
| 2026-04-21 19:06 | 3.34181 | -154.09442 | 29952 ft | 503 kts | 229° |
| 2026-04-21 19:07 | 3.29498 | -154.14640 | 29945 ft | 503 kts | 229° |
| 2026-04-21 19:07 | 3.24809 | -154.19844 | 29947 ft | 503 kts | 229° |
| 2026-04-21 19:08 | 3.20127 | -154.25038 | 29945 ft | 502 kts | 229° |
| 2026-04-21 19:08 | 3.15453 | -154.30224 | 29949 ft | 502 kts | 229° |
| 2026-04-21 19:09 | 3.10776 | -154.35413 | 29946 ft | 502 kts | 229° |
| 2026-04-21 19:09 | 3.06104 | -154.40595 | 29942 ft | 501 kts | 229° |
| 2026-04-21 19:10 | 3.01435 | -154.45773 | 29947 ft | 501 kts | 229° |
| 2026-04-21 19:10 | 2.96773 | -154.50941 | 29946 ft | 500 kts | 229° |
| 2026-04-21 19:11 | 2.92105 | -154.56117 | 29946 ft | 500 kts | 229° |
| 2026-04-21 19:11 | 2.88227 | -154.60416 | 29947 ft | 500 kts | 229° |
| 2026-04-21 19:12 | 2.83567 | -154.65582 | 29945 ft | 500 kts | 229° |
| 2026-04-21 19:12 | 2.78146 | -154.71590 | 29942 ft | 500 kts | 229° |
| 2026-04-21 19:13 | 2.73483 | -154.76758 | 29939 ft | 500 kts | 229° |
| 2026-04-21 19:13 | 2.69573 | -154.81089 | 29939 ft | 500 kts | 229° |
| 2026-04-21 19:14 | 2.64940 | -154.86222 | 29942 ft | 500 kts | 229° |
| 2026-04-21 19:14 | 2.60253 | -154.91414 | 29943 ft | 500 kts | 229° |
| 2026-04-21 19:15 | 2.55615 | -154.96551 | 29944 ft | 500 kts | 229° |
| 2026-04-21 19:15 | 2.50949 | -155.01719 | 29944 ft | 500 kts | 229° |
| 2026-04-21 19:16 | 2.46288 | -155.06880 | 29941 ft | 500 kts | 229° |
| 2026-04-21 19:16 | 2.41627 | -155.12040 | 29943 ft | 500 kts | 229° |
| 2026-04-21 19:17 | 2.34638 | -155.19777 | 29943 ft | 500 kts | 229° |
| 2026-04-21 19:17 | 2.29975 | -155.24939 | 29945 ft | 500 kts | 229° |
| 2026-04-21 19:18 | 2.25302 | -155.30111 | 29945 ft | 501 kts | 229° |
| 2026-04-21 19:18 | 2.20629 | -155.35283 | 29943 ft | 501 kts | 229° |
| 2026-04-21 19:19 | 2.15981 | -155.40426 | 29943 ft | 502 kts | 229° |
| 2026-04-21 19:19 | 2.11305 | -155.45600 | 29944 ft | 501 kts | 229° |
| 2026-04-21 19:20 | 2.06627 | -155.50775 | 29945 ft | 501 kts | 229° |
| 2026-04-21 19:20 | 2.01948 | -155.55952 | 29944 ft | 501 kts | 229° |
| 2026-04-21 19:21 | 1.97277 | -155.61119 | 29943 ft | 500 kts | 229° |
| 2026-04-21 19:21 | 1.92613 | -155.66277 | 29947 ft | 500 kts | 229° |
| 2026-04-21 19:22 | 1.87941 | -155.71444 | 29945 ft | 500 kts | 229° |
| 2026-04-21 19:22 | 1.83275 | -155.76604 | 29941 ft | 500 kts | 229° |
| 2026-04-21 19:23 | 1.78608 | -155.81765 | 29941 ft | 500 kts | 229° |
| 2026-04-21 19:23 | 1.73938 | -155.86929 | 29948 ft | 501 kts | 229° |
| 2026-04-21 19:24 | 1.69264 | -155.92096 | 29947 ft | 500 kts | 229° |
| 2026-04-21 19:24 | 1.64626 | -155.97223 | 29943 ft | 500 kts | 229° |
| 2026-04-21 19:25 | 1.59960 | -156.02380 | 29946 ft | 501 kts | 229° |
| 2026-04-21 19:25 | 1.55284 | -156.07549 | 29945 ft | 501 kts | 229° |
| 2026-04-21 19:26 | 1.50601 | -156.12728 | 29945 ft | 502 kts | 229° |
| 2026-04-21 19:26 | 1.45916 | -156.17903 | 29947 ft | 502 kts | 229° |
| 2026-04-21 19:27 | 1.41228 | -156.23083 | 29947 ft | 503 kts | 229° |
| 2026-04-21 19:27 | 1.36537 | -156.28268 | 29948 ft | 503 kts | 229° |
| 2026-04-21 19:28 | 1.31843 | -156.33454 | 29942 ft | 503 kts | 229° |
| 2026-04-21 19:28 | 1.27150 | -156.38639 | 29943 ft | 503 kts | 229° |
| 2026-04-21 19:29 | 1.22450 | -156.43832 | 29945 ft | 503 kts | 229° |
| 2026-04-21 19:29 | 1.17755 | -156.49018 | 29941 ft | 503 kts | 229° |
| 2026-04-21 19:30 | 1.13054 | -156.54212 | 29945 ft | 503 kts | 229° |
| 2026-04-21 19:30 | 1.08357 | -156.59402 | 29944 ft | 504 kts | 229° |
| 2026-04-21 19:31 | 1.03680 | -156.64567 | 29947 ft | 504 kts | 229° |
| 2026-04-21 19:31 | 0.98978 | -156.69761 | 29950 ft | 504 kts | 229° |
| 2026-04-21 19:32 | 0.94271 | -156.74960 | 29947 ft | 504 kts | 229° |
| 2026-04-21 19:32 | 0.89565 | -156.80157 | 29949 ft | 504 kts | 229° |
| 2026-04-21 19:33 | 0.84864 | -156.85350 | 29950 ft | 503 kts | 229° |
| 2026-04-21 19:33 | 0.80162 | -156.90541 | 29944 ft | 503 kts | 229° |
| 2026-04-21 19:34 | 0.75470 | -156.95723 | 29946 ft | 503 kts | 229° |
| 2026-04-21 19:34 | 0.70802 | -157.00879 | 29950 ft | 503 kts | 229° |
| 2026-04-21 19:35 | 0.63763 | -157.08650 | 29947 ft | 502 kts | 229° |
| 2026-04-21 19:36 | 0.59078 | -157.13823 | 29944 ft | 502 kts | 229° |
| 2026-04-21 19:36 | 0.54394 | -157.18996 | 29945 ft | 502 kts | 229° |
| 2026-04-21 19:37 | 0.49710 | -157.24168 | 29948 ft | 502 kts | 228° |
| 2026-04-21 19:37 | 0.45019 | -157.29347 | 29947 ft | 502 kts | 228° |
| 2026-04-21 19:38 | 0.40336 | -157.34517 | 29950 ft | 502 kts | 228° |
| 2026-04-21 19:38 | 0.36448 | -157.38810 | 29948 ft | 502 kts | 228° |
| 2026-04-21 19:39 | 0.30973 | -157.44855 | 29946 ft | 501 kts | 228° |
| 2026-04-21 19:39 | 0.26299 | -157.50015 | 29951 ft | 501 kts | 228° |
| 2026-04-21 19:40 | 0.21651 | -157.55146 | 29949 ft | 501 kts | 228° |
| 2026-04-21 19:40 | 0.16967 | -157.60317 | 29948 ft | 502 kts | 228° |
| 2026-04-21 19:41 | 0.12282 | -157.65489 | 29945 ft | 502 kts | 228° |
| 2026-04-21 19:41 | 0.07591 | -157.70668 | 29949 ft | 502 kts | 228° |
| 2026-04-21 19:42 | 0.02908 | -157.75838 | 29949 ft | 502 kts | 228° |
| 2026-04-21 19:42 | -0.01789 | -157.81024 | 29949 ft | 502 kts | 228° |
| 2026-04-21 19:43 | -0.06481 | -157.86204 | 29948 ft | 502 kts | 228° |
| 2026-04-21 19:43 | -0.11169 | -157.91380 | 29951 ft | 502 kts | 228° |
| 2026-04-21 19:44 | -0.15826 | -157.96521 | 29947 ft | 503 kts | 228° |
| 2026-04-21 19:44 | -0.20515 | -158.01698 | 29946 ft | 503 kts | 228° |
| 2026-04-21 19:45 | -0.25238 | -158.06912 | 29950 ft | 503 kts | 228° |
| 2026-04-21 19:45 | -0.29908 | -158.12067 | 29950 ft | 504 kts | 228° |
| 2026-04-21 19:46 | -0.34642 | -158.17294 | 29951 ft | 504 kts | 228° |
| 2026-04-21 19:46 | -0.39328 | -158.22468 | 29948 ft | 505 kts | 228° |
| 2026-04-21 19:47 | -0.44047 | -158.27678 | 29950 ft | 506 kts | 228° |
| 2026-04-21 19:47 | -0.48767 | -158.32889 | 29946 ft | 506 kts | 228° |
| 2026-04-21 19:48 | -0.53492 | -158.38107 | 29949 ft | 506 kts | 228° |
| 2026-04-21 19:48 | -0.58221 | -158.43328 | 29943 ft | 507 kts | 228° |
| 2026-04-21 19:49 | -0.62957 | -158.48558 | 29954 ft | 507 kts | 228° |
| 2026-04-21 19:49 | -0.67687 | -158.53781 | 29948 ft | 507 kts | 228° |
| 2026-04-21 19:50 | -0.71613 | -158.58116 | 29949 ft | 507 kts | 228° |
| 2026-04-21 19:50 | -0.77136 | -158.64215 | 29948 ft | 506 kts | 228° |
| 2026-04-21 19:51 | -0.81864 | -158.69436 | 29952 ft | 506 kts | 228° |
| 2026-04-21 19:51 | -0.86590 | -158.74656 | 29950 ft | 506 kts | 228° |
| 2026-04-21 19:52 | -0.91277 | -158.79832 | 29947 ft | 506 kts | 228° |
| 2026-04-21 19:52 | -0.96005 | -158.85054 | 29948 ft | 506 kts | 228° |
| 2026-04-21 19:53 | -1.00731 | -158.90274 | 29950 ft | 507 kts | 228° |
| 2026-04-21 19:53 | -1.05453 | -158.95490 | 29954 ft | 507 kts | 228° |
| 2026-04-21 19:54 | -1.10183 | -159.00714 | 29948 ft | 507 kts | 228° |
| 2026-04-21 19:54 | -1.14917 | -159.05945 | 29948 ft | 507 kts | 227° |
| 2026-04-21 19:55 | -1.19651 | -159.11173 | 29953 ft | 508 kts | 227° |
| 2026-04-21 19:55 | -1.24387 | -159.16406 | 29952 ft | 508 kts | 227° |
| 2026-04-21 19:56 | -1.29124 | -159.21640 | 29948 ft | 508 kts | 227° |
| 2026-04-21 19:56 | -1.33870 | -159.26885 | 29948 ft | 509 kts | 227° |
| 2026-04-21 19:57 | -1.38618 | -159.32131 | 29946 ft | 509 kts | 227° |
| 2026-04-21 19:57 | -1.43372 | -159.37385 | 29943 ft | 510 kts | 227° |
| 2026-04-21 19:58 | -1.48133 | -159.42646 | 29952 ft | 510 kts | 227° |
| 2026-04-21 19:58 | -1.52863 | -159.47874 | 29948 ft | 510 kts | 227° |
| 2026-04-21 19:59 | -1.57660 | -159.53176 | 29948 ft | 511 kts | 227° |
| 2026-04-21 19:59 | -1.62396 | -159.58411 | 29945 ft | 511 kts | 227° |
| 2026-04-21 20:00 | -1.67162 | -159.63679 | 29948 ft | 511 kts | 227° |
| 2026-04-21 20:00 | -1.71929 | -159.68950 | 29948 ft | 511 kts | 226° |
| 2026-04-21 20:01 | -1.75891 | -159.73332 | 29947 ft | 511 kts | 226° |
| 2026-04-21 20:01 | -1.81460 | -159.79490 | 29946 ft | 510 kts | 226° |
| 2026-04-21 20:02 | -1.85419 | -159.83868 | 29944 ft | 510 kts | 226° |
| 2026-04-21 20:02 | -1.90174 | -159.89127 | 29947 ft | 510 kts | 226° |
| 2026-04-21 20:03 | -1.94924 | -159.94383 | 29947 ft | 510 kts | 226° |
| 2026-04-21 20:03 | -1.99674 | -159.99649 | 29951 ft | 510 kts | 227° |
| 2026-04-21 20:04 | -2.04048 | -160.05233 | 29954 ft | 511 kts | 232° |
| 2026-04-21 20:04 | -2.08300 | -160.10939 | 29944 ft | 511 kts | 232° |
| 2026-04-21 20:05 | -2.12553 | -160.16636 | 29952 ft | 511 kts | 232° |
| 2026-04-21 20:05 | -2.16827 | -160.22323 | 29951 ft | 512 kts | 231° |
| 2026-04-21 20:06 | -2.21114 | -160.28009 | 29949 ft | 512 kts | 231° |
| 2026-04-21 20:06 | -2.25404 | -160.33699 | 29954 ft | 512 kts | 231° |
| 2026-04-21 20:07 | -2.29695 | -160.39393 | 29948 ft | 513 kts | 231° |
| 2026-04-21 20:07 | -2.33987 | -160.45090 | 29948 ft | 513 kts | 231° |
| 2026-04-21 20:08 | -2.38255 | -160.50757 | 29946 ft | 513 kts | 231° |
| 2026-04-21 20:08 | -2.42554 | -160.56466 | 29947 ft | 514 kts | 231° |
| 2026-04-21 20:09 | -2.46857 | -160.62179 | 29945 ft | 514 kts | 231° |
| 2026-04-21 20:09 | -2.51165 | -160.67901 | 29949 ft | 515 kts | 231° |
| 2026-04-21 20:10 | -2.55476 | -160.73627 | 29948 ft | 515 kts | 231° |
| 2026-04-21 20:10 | -2.59791 | -160.79359 | 29950 ft | 516 kts | 231° |
| 2026-04-21 20:11 | -2.64114 | -160.85103 | 29945 ft | 516 kts | 231° |
| 2026-04-21 20:11 | -2.68435 | -160.90844 | 29947 ft | 517 kts | 231° |
| 2026-04-21 20:12 | -2.72759 | -160.96592 | 29949 ft | 517 kts | 231° |
| 2026-04-21 20:12 | -2.77060 | -161.02308 | 29948 ft | 518 kts | 231° |
| 2026-04-21 20:13 | -2.81418 | -161.08101 | 29947 ft | 518 kts | 230° |
| 2026-04-21 20:13 | -2.85723 | -161.13824 | 29945 ft | 518 kts | 230° |
| 2026-04-21 20:14 | -2.90057 | -161.19587 | 29944 ft | 519 kts | 230° |
| 2026-04-21 20:14 | -2.94399 | -161.25363 | 29944 ft | 519 kts | 230° |
| 2026-04-21 20:15 | -2.98733 | -161.31127 | 29945 ft | 519 kts | 230° |
| 2026-04-21 20:15 | -3.03073 | -161.36901 | 29948 ft | 519 kts | 230° |
| 2026-04-21 20:16 | -3.07411 | -161.42672 | 29946 ft | 519 kts | 230° |
| 2026-04-21 20:16 | -3.11752 | -161.48449 | 29945 ft | 519 kts | 230° |
| 2026-04-21 20:17 | -3.16091 | -161.54223 | 29947 ft | 519 kts | 230° |
| 2026-04-21 20:17 | -3.20426 | -161.59994 | 29944 ft | 519 kts | 230° |
| 2026-04-21 20:18 | -3.24034 | -161.64797 | 29945 ft | 519 kts | 230° |
| 2026-04-21 20:18 | -3.29112 | -161.71558 | 29947 ft | 519 kts | 230° |
| 2026-04-21 20:19 | -3.33454 | -161.77341 | 29943 ft | 520 kts | 230° |
| 2026-04-21 20:19 | -3.37795 | -161.83124 | 29945 ft | 520 kts | 230° |
| 2026-04-21 20:20 | -3.42139 | -161.88911 | 29943 ft | 520 kts | 230° |
| 2026-04-21 20:20 | -3.46478 | -161.94692 | 29948 ft | 520 kts | 230° |
| 2026-04-21 20:21 | -3.50822 | -162.00481 | 29945 ft | 520 kts | 230° |
| 2026-04-21 20:21 | -3.55134 | -162.06229 | 29949 ft | 520 kts | 230° |
| 2026-04-21 20:22 | -3.59458 | -162.11994 | 29949 ft | 520 kts | 230° |
| 2026-04-21 20:22 | -3.65971 | -162.20678 | 29950 ft | 520 kts | 230° |
| 2026-04-21 20:23 | -3.70244 | -162.26378 | 29949 ft | 520 kts | 230° |
| 2026-04-21 20:23 | -3.74587 | -162.32171 | 29950 ft | 520 kts | 230° |
| 2026-04-21 20:24 | -3.78931 | -162.37966 | 29949 ft | 520 kts | 230° |
| 2026-04-21 20:24 | -3.83275 | -162.43763 | 29949 ft | 521 kts | 230° |
| 2026-04-21 20:25 | -3.87625 | -162.49569 | 29949 ft | 521 kts | 230° |
| 2026-04-21 20:25 | -3.91974 | -162.55375 | 29946 ft | 521 kts | 229° |
| 2026-04-21 20:26 | -3.96301 | -162.61154 | 29943 ft | 522 kts | 229° |
| 2026-04-21 20:26 | -4.00628 | -162.66932 | 29947 ft | 522 kts | 229° |
| 2026-04-21 20:27 | -4.04984 | -162.72751 | 29949 ft | 522 kts | 229° |
| 2026-04-21 20:27 | -4.09340 | -162.78571 | 29945 ft | 522 kts | 229° |
| 2026-04-21 20:28 | -4.13699 | -162.84396 | 29944 ft | 522 kts | 229° |
| 2026-04-21 20:28 | -4.18059 | -162.90224 | 29948 ft | 523 kts | 229° |
| 2026-04-21 20:29 | -4.22416 | -162.96049 | 29945 ft | 523 kts | 229° |
| 2026-04-21 20:29 | -4.26776 | -163.01879 | 29946 ft | 523 kts | 229° |
| 2026-04-21 20:30 | -4.31129 | -163.07700 | 29944 ft | 523 kts | 229° |
| 2026-04-21 20:30 | -4.35489 | -163.13534 | 29946 ft | 523 kts | 229° |
| 2026-04-21 20:31 | -4.39748 | -163.19233 | 29944 ft | 523 kts | 229° |
| 2026-04-21 20:31 | -4.44107 | -163.25066 | 29944 ft | 523 kts | 230° |
| 2026-04-21 20:32 | -4.48466 | -163.30902 | 29946 ft | 523 kts | 229° |
| 2026-04-21 20:32 | -4.52829 | -163.36744 | 29943 ft | 523 kts | 230° |
| 2026-04-21 20:33 | -4.57168 | -163.42555 | 29944 ft | 523 kts | 230° |
| 2026-04-21 20:33 | -4.61509 | -163.48370 | 29942 ft | 524 kts | 230° |
| 2026-04-21 20:34 | -4.65868 | -163.54211 | 29943 ft | 524 kts | 230° |
| 2026-04-21 20:34 | -4.70233 | -163.60061 | 29945 ft | 524 kts | 230° |
| 2026-04-21 20:35 | -4.74596 | -163.65909 | 29944 ft | 524 kts | 230° |
| 2026-04-21 20:35 | -4.78961 | -163.71763 | 29947 ft | 524 kts | 230° |
| 2026-04-21 20:36 | -4.83292 | -163.77572 | 29948 ft | 524 kts | 230° |
| 2026-04-21 20:36 | -4.87654 | -163.83424 | 29944 ft | 524 kts | 230° |
| 2026-04-21 20:37 | -4.91985 | -163.89237 | 29947 ft | 524 kts | 230° |
| 2026-04-21 20:37 | -4.96347 | -163.95092 | 29942 ft | 524 kts | 230° |
| 2026-04-21 20:38 | -5.00740 | -164.00925 | 29944 ft | 523 kts | 228° |
| 2026-04-21 20:38 | -5.05410 | -164.06504 | 29946 ft | 522 kts | 226° |
| 2026-04-21 20:39 | -5.10148 | -164.12015 | 29945 ft | 522 kts | 226° |
| 2026-04-21 20:39 | -5.14879 | -164.17545 | 29948 ft | 522 kts | 226° |
| 2026-04-21 20:40 | -5.19588 | -164.23092 | 29945 ft | 522 kts | 227° |
| 2026-04-21 20:40 | -5.24260 | -164.28612 | 29946 ft | 522 kts | 227° |
| 2026-04-21 20:41 | -5.28962 | -164.34169 | 29948 ft | 522 kts | 227° |
| 2026-04-21 20:41 | -5.33661 | -164.39721 | 29945 ft | 522 kts | 227° |
| 2026-04-21 20:42 | -5.38103 | -164.44969 | 29945 ft | 522 kts | 227° |
| 2026-04-21 20:42 | -5.42798 | -164.50518 | 29948 ft | 522 kts | 227° |
| 2026-04-21 20:43 | -5.47496 | -164.56072 | 29949 ft | 522 kts | 227° |
| 2026-04-21 20:43 | -5.52193 | -164.61626 | 29945 ft | 522 kts | 227° |
| 2026-04-21 20:44 | -5.56889 | -164.67180 | 29949 ft | 522 kts | 227° |
| 2026-04-21 20:44 | -5.61587 | -164.72738 | 29947 ft | 522 kts | 227° |
| 2026-04-21 20:45 | -5.66250 | -164.78256 | 29948 ft | 522 kts | 227° |
| 2026-04-21 20:45 | -5.70945 | -164.83814 | 29949 ft | 521 kts | 227° |
| 2026-04-21 20:46 | -5.75629 | -164.89360 | 29948 ft | 521 kts | 227° |
| 2026-04-21 20:46 | -5.80322 | -164.94919 | 29947 ft | 521 kts | 227° |
| 2026-04-21 20:47 | -5.85011 | -165.00473 | 29950 ft | 521 kts | 227° |
| 2026-04-21 20:47 | -5.89707 | -165.06039 | 29947 ft | 521 kts | 227° |
| 2026-04-21 20:48 | -5.94392 | -165.11592 | 29949 ft | 522 kts | 227° |
| 2026-04-21 20:48 | -5.99084 | -165.17156 | 29955 ft | 522 kts | 227° |
| 2026-04-21 20:49 | -6.02985 | -165.21782 | 29952 ft | 522 kts | 227° |
| 2026-04-21 20:49 | -6.08471 | -165.28291 | 29951 ft | 522 kts | 227° |
| 2026-04-21 20:50 | -6.12372 | -165.32921 | 29955 ft | 522 kts | 227° |
| 2026-04-21 20:50 | -6.17833 | -165.39403 | 29953 ft | 522 kts | 227° |
| 2026-04-21 20:51 | -6.21761 | -165.44067 | 29960 ft | 523 kts | 227° |
| 2026-04-21 20:51 | -6.26460 | -165.49650 | 29956 ft | 523 kts | 227° |
| 2026-04-21 20:52 | -6.31129 | -165.55197 | 29957 ft | 523 kts | 227° |
| 2026-04-21 20:52 | -6.35825 | -165.60779 | 29949 ft | 523 kts | 227° |
| 2026-04-21 20:53 | -6.40522 | -165.66362 | 29953 ft | 523 kts | 227° |
| 2026-04-21 20:53 | -6.45222 | -165.71953 | 29953 ft | 523 kts | 227° |
| 2026-04-21 20:54 | -6.49927 | -165.77549 | 29950 ft | 524 kts | 227° |
| 2026-04-21 20:54 | -6.54629 | -165.83145 | 29949 ft | 524 kts | 227° |
| 2026-04-21 20:55 | -6.59339 | -165.88752 | 29954 ft | 524 kts | 227° |
| 2026-04-21 20:55 | -6.64058 | -165.94370 | 30124 ft | 527 kts | 227° |
| 2026-04-21 20:56 | -6.66414 | -165.97176 | 30498 ft | 524 kts | 227° |
| 2026-04-21 20:56 | -6.68758 | -165.99971 | 30896 ft | 521 kts | 227° |
| 2026-04-21 20:56 | -6.71096 | -166.02758 | 31282 ft | 519 kts | 227° |
| 2026-04-21 20:56 | -6.73422 | -166.05530 | 31633 ft | 518 kts | 227° |
| 2026-04-21 20:57 | -6.75712 | -166.08259 | 31946 ft | 517 kts | 227° |
| 2026-04-21 20:57 | -6.78030 | -166.11023 | 32256 ft | 517 kts | 227° |
| 2026-04-21 20:57 | -6.80350 | -166.13787 | 32592 ft | 516 kts | 227° |
| 2026-04-21 20:57 | -6.82660 | -166.16542 | 32928 ft | 514 kts | 226° |
| 2026-04-21 20:58 | -6.84973 | -166.19300 | 33251 ft | 513 kts | 226° |
| 2026-04-21 20:58 | -6.87275 | -166.22046 | 33575 ft | 512 kts | 226° |
| 2026-04-21 20:58 | -6.89569 | -166.24784 | 33863 ft | 512 kts | 226° |
| 2026-04-21 20:58 | -6.91868 | -166.27526 | 33910 ft | 514 kts | 226° |
| 2026-04-21 20:59 | -6.96480 | -166.33029 | 33942 ft | 512 kts | 226° |
| 2026-04-21 20:59 | -7.01029 | -166.38463 | 33944 ft | 510 kts | 226° |
| 2026-04-21 21:00 | -7.05593 | -166.43914 | 33952 ft | 508 kts | 226° |
| 2026-04-21 21:00 | -7.10147 | -166.49354 | 33952 ft | 507 kts | 226° |
| 2026-04-21 21:01 | -7.14701 | -166.54796 | 33948 ft | 508 kts | 226° |
| 2026-04-21 21:01 | -7.19257 | -166.60242 | 33955 ft | 509 kts | 226° |
| 2026-04-21 21:02 | -7.23826 | -166.65706 | 33953 ft | 510 kts | 227° |
| 2026-04-21 21:02 | -7.28394 | -166.71172 | 33951 ft | 510 kts | 227° |
| 2026-04-21 21:03 | -7.32972 | -166.76650 | 33967 ft | 511 kts | 227° |
| 2026-04-21 21:03 | -7.37548 | -166.82128 | 33952 ft | 511 kts | 227° |
| 2026-04-21 21:04 | -7.42117 | -166.87600 | 33954 ft | 510 kts | 227° |
| 2026-04-21 21:04 | -7.46687 | -166.93076 | 33953 ft | 510 kts | 227° |
| 2026-04-21 21:05 | -7.51249 | -166.98544 | 33954 ft | 509 kts | 227° |
| 2026-04-21 21:05 | -7.55775 | -167.03970 | 33953 ft | 509 kts | 227° |
| 2026-04-21 21:06 | -7.60327 | -167.09428 | 33952 ft | 508 kts | 227° |
| 2026-04-21 21:06 | -7.64868 | -167.14877 | 33955 ft | 508 kts | 227° |
| 2026-04-21 21:07 | -7.69418 | -167.20337 | 33953 ft | 508 kts | 227° |
| 2026-04-21 21:07 | -7.73960 | -167.25791 | 33950 ft | 508 kts | 227° |
| 2026-04-21 21:08 | -7.78504 | -167.31247 | 33950 ft | 508 kts | 227° |
| 2026-04-21 21:08 | -7.83051 | -167.36711 | 33951 ft | 508 kts | 227° |
| 2026-04-21 21:09 | -7.87603 | -167.42182 | 33954 ft | 509 kts | 227° |
| 2026-04-21 21:09 | -7.92152 | -167.47652 | 33950 ft | 509 kts | 227° |
| 2026-04-21 21:10 | -7.96703 | -167.53127 | 33948 ft | 509 kts | 227° |
| 2026-04-21 21:10 | -8.01221 | -167.58563 | 33953 ft | 509 kts | 227° |
| 2026-04-21 21:11 | -8.05773 | -167.64042 | 33951 ft | 509 kts | 227° |
| 2026-04-21 21:11 | -8.10322 | -167.69520 | 33949 ft | 509 kts | 227° |
| 2026-04-21 21:12 | -8.14865 | -167.74994 | 33949 ft | 508 kts | 227° |
| 2026-04-21 21:12 | -8.19415 | -167.80478 | 33953 ft | 508 kts | 227° |
| 2026-04-21 21:13 | -8.23957 | -167.85954 | 33952 ft | 508 kts | 227° |
| 2026-04-21 21:13 | -8.28464 | -167.91390 | 33950 ft | 508 kts | 227° |
| 2026-04-21 21:14 | -8.33004 | -167.96867 | 33952 ft | 508 kts | 227° |
| 2026-04-21 21:14 | -8.37536 | -168.02338 | 33953 ft | 508 kts | 227° |
| 2026-04-21 21:15 | -8.42085 | -168.07831 | 33950 ft | 508 kts | 227° |
| 2026-04-21 21:15 | -8.46620 | -168.13309 | 33949 ft | 508 kts | 227° |
| 2026-04-21 21:16 | -8.51158 | -168.18795 | 33964 ft | 509 kts | 227° |
| 2026-04-21 21:16 | -8.55698 | -168.24283 | 33968 ft | 509 kts | 227° |
| 2026-04-21 21:17 | -8.60233 | -168.29769 | 33949 ft | 509 kts | 227° |
| 2026-04-21 21:17 | -8.64749 | -168.35232 | 33951 ft | 509 kts | 227° |
| 2026-04-21 21:18 | -8.69288 | -168.40727 | 33949 ft | 509 kts | 227° |
| 2026-04-21 21:18 | -8.73821 | -168.46216 | 33971 ft | 509 kts | 227° |
| 2026-04-21 21:19 | -8.78365 | -168.51721 | 33965 ft | 509 kts | 227° |
| 2026-04-21 21:19 | -8.82899 | -168.57217 | 33948 ft | 509 kts | 227° |
| 2026-04-21 21:20 | -8.87435 | -168.62717 | 33945 ft | 509 kts | 227° |
| 2026-04-21 21:20 | -8.91963 | -168.68210 | 33967 ft | 508 kts | 227° |
| 2026-04-21 21:21 | -8.96489 | -168.73703 | 33968 ft | 508 kts | 227° |
| 2026-04-21 21:21 | -9.01018 | -168.79202 | 33960 ft | 508 kts | 227° |
| 2026-04-21 21:22 | -9.05532 | -168.84685 | 33951 ft | 507 kts | 227° |
| 2026-04-21 21:22 | -9.10027 | -168.90147 | 33964 ft | 507 kts | 227° |
| 2026-04-21 21:23 | -9.14534 | -168.95626 | 33968 ft | 506 kts | 227° |
| 2026-04-21 21:23 | -9.19040 | -169.01106 | 33947 ft | 506 kts | 227° |
| 2026-04-21 21:24 | -9.23537 | -169.06578 | 33963 ft | 506 kts | 227° |
| 2026-04-21 21:24 | -9.28035 | -169.12053 | 33964 ft | 505 kts | 227° |
| 2026-04-21 21:25 | -9.32524 | -169.17519 | 33961 ft | 505 kts | 227° |
| 2026-04-21 21:25 | -9.37013 | -169.22990 | 33961 ft | 504 kts | 227° |
| 2026-04-21 21:26 | -9.41492 | -169.28448 | 33963 ft | 504 kts | 227° |
| 2026-04-21 21:26 | -9.45969 | -169.33908 | 33958 ft | 504 kts | 227° |
| 2026-04-21 21:27 | -9.50419 | -169.39336 | 33963 ft | 503 kts | 227° |
| 2026-04-21 21:27 | -9.54890 | -169.44794 | 33964 ft | 503 kts | 227° |
| 2026-04-21 21:28 | -9.59361 | -169.50253 | 33952 ft | 503 kts | 227° |
| 2026-04-21 21:29 | -9.66051 | -169.58428 | 33964 ft | 502 kts | 227° |
| 2026-04-21 21:29 | -9.70511 | -169.63880 | 33961 ft | 501 kts | 227° |
| 2026-04-21 21:30 | -9.74959 | -169.69320 | 33961 ft | 501 kts | 227° |
| 2026-04-21 21:30 | -9.79400 | -169.74755 | 33961 ft | 500 kts | 227° |
| 2026-04-21 21:31 | -9.83807 | -169.80150 | 33961 ft | 499 kts | 227° |
| 2026-04-21 21:31 | -9.88240 | -169.85580 | 33961 ft | 499 kts | 227° |
| 2026-04-21 21:32 | -9.92665 | -169.91003 | 33965 ft | 498 kts | 227° |
| 2026-04-21 21:32 | -9.97057 | -169.96389 | 33962 ft | 498 kts | 228° |
| 2026-04-21 21:33 | -10.01631 | -170.01702 | 33965 ft | 495 kts | 222° |
| 2026-04-21 21:33 | -10.06570 | -170.06506 | 33969 ft | 494 kts | 221° |
| 2026-04-21 21:34 | -10.11567 | -170.11298 | 33966 ft | 495 kts | 221° |
| 2026-04-21 21:34 | -10.16551 | -170.16119 | 33967 ft | 495 kts | 221° |
| 2026-04-21 21:35 | -10.21524 | -170.20963 | 33965 ft | 495 kts | 221° |
| 2026-04-21 21:35 | -10.26488 | -170.25811 | 33965 ft | 495 kts | 222° |
| 2026-04-21 21:36 | -10.30619 | -170.29845 | 33968 ft | 495 kts | 222° |
| 2026-04-21 21:36 | -10.36428 | -170.35520 | 33970 ft | 496 kts | 222° |
| 2026-04-21 21:37 | -10.40558 | -170.39556 | 33968 ft | 496 kts | 222° |
| 2026-04-21 21:37 | -10.45523 | -170.44410 | 33969 ft | 496 kts | 222° |
| 2026-04-21 21:38 | -10.50493 | -170.49270 | 33972 ft | 496 kts | 222° |
| 2026-04-21 21:38 | -10.55465 | -170.54135 | 33971 ft | 495 kts | 222° |
| 2026-04-21 21:39 | -10.60403 | -170.58969 | 33967 ft | 495 kts | 222° |
| 2026-04-21 21:39 | -10.65368 | -170.63832 | 33967 ft | 495 kts | 222° |
| 2026-04-21 21:40 | -10.70330 | -170.68694 | 33972 ft | 496 kts | 222° |
| 2026-04-21 21:40 | -10.75301 | -170.73567 | 33968 ft | 496 kts | 222° |
| 2026-04-21 21:41 | -10.80270 | -170.78441 | 33969 ft | 496 kts | 222° |
| 2026-04-21 21:41 | -10.85241 | -170.83319 | 33968 ft | 496 kts | 222° |
| 2026-04-21 21:42 | -10.90214 | -170.88201 | 33967 ft | 497 kts | 222° |
| 2026-04-21 21:42 | -10.95183 | -170.93082 | 33969 ft | 497 kts | 222° |
| 2026-04-21 21:43 | -11.00130 | -170.97943 | 33968 ft | 497 kts | 222° |
| 2026-04-21 21:43 | -11.05103 | -171.02833 | 33973 ft | 497 kts | 222° |
| 2026-04-21 21:44 | -11.10077 | -171.07727 | 33973 ft | 497 kts | 222° |
| 2026-04-21 21:44 | -11.15055 | -171.12625 | 33973 ft | 498 kts | 222° |
| 2026-04-21 21:45 | -11.20035 | -171.17529 | 33975 ft | 498 kts | 222° |
| 2026-04-21 21:45 | -11.25020 | -171.22440 | 33972 ft | 498 kts | 222° |
| 2026-04-21 21:46 | -11.30003 | -171.27352 | 33976 ft | 498 kts | 223° |
| 2026-04-21 21:46 | -11.34983 | -171.32263 | 33976 ft | 499 kts | 223° |
| 2026-04-21 21:47 | -11.39970 | -171.37183 | 33973 ft | 499 kts | 223° |
| 2026-04-21 21:47 | -11.44963 | -171.42113 | 33974 ft | 499 kts | 223° |
| 2026-04-21 21:48 | -11.49916 | -171.47005 | 33977 ft | 499 kts | 223° |
| 2026-04-21 21:48 | -11.54905 | -171.51935 | 33974 ft | 499 kts | 223° |
| 2026-04-21 21:49 | -11.59900 | -171.56874 | 33976 ft | 500 kts | 223° |
| 2026-04-21 21:49 | -11.64901 | -171.61820 | 33978 ft | 500 kts | 223° |
| 2026-04-21 21:50 | -11.69893 | -171.66762 | 33981 ft | 500 kts | 223° |
| 2026-04-21 21:50 | -11.74857 | -171.71678 | 33981 ft | 500 kts | 223° |
| 2026-04-21 21:51 | -11.79853 | -171.76629 | 33982 ft | 500 kts | 223° |
| 2026-04-21 21:51 | -11.84850 | -171.81584 | 33981 ft | 501 kts | 223° |
| 2026-04-21 21:52 | -11.89848 | -171.86539 | 33981 ft | 501 kts | 223° |
| 2026-04-21 21:52 | -11.94845 | -171.91498 | 33977 ft | 501 kts | 223° |
| 2026-04-21 21:53 | -11.99847 | -171.96465 | 33986 ft | 501 kts | 223° |
| 2026-04-21 21:53 | -12.04849 | -172.01435 | 33985 ft | 501 kts | 223° |
| 2026-04-21 21:54 | -12.09821 | -172.06376 | 33980 ft | 501 kts | 223° |
| 2026-04-21 21:54 | -12.14826 | -172.11354 | 33986 ft | 502 kts | 223° |
| 2026-04-21 21:55 | -12.19834 | -172.16339 | 33986 ft | 502 kts | 223° |
| 2026-04-21 21:55 | -12.24808 | -172.21292 | 33984 ft | 501 kts | 223° |
| 2026-04-21 21:56 | -12.29809 | -172.26275 | 33981 ft | 501 kts | 223° |
| 2026-04-21 21:56 | -12.34798 | -172.31246 | 33981 ft | 501 kts | 223° |
| 2026-04-21 21:57 | -12.39786 | -172.36221 | 33982 ft | 500 kts | 223° |
| 2026-04-21 21:57 | -12.44766 | -172.41192 | 33988 ft | 500 kts | 223° |
| 2026-04-21 21:58 | -12.49746 | -172.46165 | 33988 ft | 500 kts | 223° |
| 2026-04-21 21:58 | -12.54726 | -172.51140 | 33991 ft | 500 kts | 223° |
| 2026-04-21 21:59 | -12.59698 | -172.56110 | 33987 ft | 500 kts | 223° |
| 2026-04-21 21:59 | -12.64678 | -172.61091 | 33987 ft | 500 kts | 223° |
| 2026-04-21 22:00 | -12.69626 | -172.66042 | 33987 ft | 501 kts | 223° |
| 2026-04-21 22:00 | -12.74614 | -172.71038 | 33987 ft | 501 kts | 223° |
| 2026-04-21 22:01 | -12.79604 | -172.76037 | 33990 ft | 501 kts | 223° |
| 2026-04-21 22:01 | -12.84597 | -172.81044 | 33989 ft | 502 kts | 223° |
| 2026-04-21 22:02 | -12.89556 | -172.86019 | 33994 ft | 502 kts | 223° |
| 2026-04-21 22:02 | -12.94553 | -172.91033 | 33992 ft | 502 kts | 223° |
| 2026-04-21 22:03 | -12.99544 | -172.96046 | 33990 ft | 502 kts | 223° |
| 2026-04-21 22:03 | -13.04535 | -173.01062 | 33990 ft | 500 kts | 223° |
| 2026-04-21 22:04 | -13.09497 | -173.06051 | 33996 ft | 499 kts | 223° |
| 2026-04-21 22:04 | -13.14450 | -173.11035 | 33985 ft | 498 kts | 223° |
| 2026-04-21 22:05 | -13.19398 | -173.16015 | 33993 ft | 498 kts | 223° |
| 2026-04-21 22:05 | -13.24344 | -173.20998 | 33989 ft | 498 kts | 223° |
| 2026-04-21 22:06 | -13.29289 | -173.25982 | 33998 ft | 498 kts | 223° |
| 2026-04-21 22:06 | -13.34238 | -173.30973 | 33995 ft | 499 kts | 224° |
| 2026-04-21 22:07 | -13.39157 | -173.35937 | 33995 ft | 499 kts | 224° |
| 2026-04-21 22:07 | -13.44110 | -173.40939 | 33996 ft | 499 kts | 224° |
| 2026-04-21 22:08 | -13.49066 | -173.45947 | 33989 ft | 499 kts | 224° |
| 2026-04-21 22:08 | -13.54015 | -173.50950 | 33989 ft | 499 kts | 224° |
| 2026-04-21 22:09 | -13.58962 | -173.55954 | 33994 ft | 498 kts | 224° |
| 2026-04-21 22:09 | -13.63900 | -173.60952 | 34000 ft | 498 kts | 224° |
| 2026-04-21 22:10 | -13.68831 | -173.65947 | 33994 ft | 498 kts | 224° |
| 2026-04-21 22:10 | -13.73760 | -173.70943 | 33991 ft | 498 kts | 224° |
| 2026-04-21 22:11 | -13.78691 | -173.75944 | 34000 ft | 497 kts | 224° |
| 2026-04-21 22:11 | -13.83624 | -173.80949 | 34000 ft | 498 kts | 224° |
| 2026-04-21 22:12 | -13.88549 | -173.85949 | 34000 ft | 498 kts | 224° |
| 2026-04-21 22:12 | -13.93446 | -173.90926 | 34001 ft | 498 kts | 224° |
| 2026-04-21 22:13 | -13.98375 | -173.95937 | 34001 ft | 498 kts | 224° |
| 2026-04-21 22:13 | -14.03308 | -174.00956 | 34002 ft | 498 kts | 224° |
| 2026-04-21 22:14 | -14.08236 | -174.05973 | 34005 ft | 498 kts | 224° |
| 2026-04-21 22:14 | -14.13171 | -174.10999 | 34001 ft | 498 kts | 224° |
| 2026-04-21 22:15 | -14.18101 | -174.16025 | 34004 ft | 499 kts | 224° |
| 2026-04-21 22:15 | -14.23008 | -174.21030 | 34002 ft | 499 kts | 224° |
| 2026-04-21 22:16 | -14.27939 | -174.26063 | 34003 ft | 499 kts | 224° |
| 2026-04-21 22:16 | -14.32866 | -174.31095 | 34003 ft | 499 kts | 224° |
| 2026-04-21 22:17 | -14.37799 | -174.36136 | 34003 ft | 499 kts | 224° |
| 2026-04-21 22:17 | -14.42730 | -174.41178 | 34001 ft | 499 kts | 224° |
| 2026-04-21 22:18 | -14.47654 | -174.46217 | 34008 ft | 498 kts | 224° |
| 2026-04-21 22:18 | -14.52575 | -174.51257 | 34003 ft | 498 kts | 224° |
| 2026-04-21 22:19 | -14.57472 | -174.56275 | 34007 ft | 498 kts | 224° |
| 2026-04-21 22:19 | -14.62397 | -174.61324 | 34004 ft | 498 kts | 224° |
| 2026-04-21 22:20 | -14.67316 | -174.66372 | 34009 ft | 498 kts | 224° |
| 2026-04-21 22:20 | -14.72232 | -174.71419 | 34005 ft | 498 kts | 225° |
| 2026-04-21 22:21 | -14.77147 | -174.76469 | 34005 ft | 499 kts | 225° |
| 2026-04-21 22:21 | -14.82041 | -174.81502 | 34006 ft | 499 kts | 225° |
| 2026-04-21 22:22 | -14.86968 | -174.86571 | 34006 ft | 499 kts | 225° |
| 2026-04-21 22:22 | -14.91891 | -174.91642 | 34003 ft | 499 kts | 225° |
| 2026-04-21 22:23 | -14.96795 | -174.96739 | 34005 ft | 499 kts | 228° |
| 2026-04-21 22:23 | -15.00907 | -175.02516 | 34009 ft | 499 kts | 239° |
| 2026-04-21 22:24 | -15.03958 | -175.08954 | 34007 ft | 498 kts | 247° |
| 2026-04-21 22:24 | -15.06228 | -175.14412 | 34007 ft | 499 kts | 247° |
| 2026-04-21 22:25 | -15.08990 | -175.21002 | 34002 ft | 499 kts | 247° |
| 2026-04-21 22:25 | -15.11787 | -175.27569 | 34008 ft | 498 kts | 246° |
| 2026-04-21 22:26 | -15.14589 | -175.34126 | 34008 ft | 498 kts | 247° |
| 2026-04-21 22:26 | -15.17371 | -175.40647 | 34003 ft | 497 kts | 247° |
| 2026-04-21 22:27 | -15.20161 | -175.47200 | 34006 ft | 497 kts | 247° |
| 2026-04-21 22:27 | -15.23096 | -175.53672 | 34007 ft | 497 kts | 241° |
| 2026-04-21 22:28 | -15.26848 | -175.59680 | 34012 ft | 497 kts | 237° |
| 2026-04-21 22:28 | -15.30714 | -175.65613 | 34006 ft | 497 kts | 237° |
| 2026-04-21 22:29 | -15.34557 | -175.71562 | 34005 ft | 497 kts | 237° |
| 2026-04-21 22:29 | -15.38365 | -175.77520 | 34002 ft | 498 kts | 237° |
| 2026-04-21 22:30 | -15.42180 | -175.83512 | 34000 ft | 498 kts | 237° |
| 2026-04-21 22:30 | -15.45995 | -175.89505 | 33999 ft | 498 kts | 237° |
| 2026-04-21 22:31 | -15.49786 | -175.95465 | 34005 ft | 498 kts | 237° |
| 2026-04-21 22:31 | -15.53601 | -176.01465 | 34010 ft | 498 kts | 237° |
| 2026-04-21 22:32 | -15.57411 | -176.07461 | 34004 ft | 497 kts | 237° |
| 2026-04-21 22:32 | -15.61211 | -176.13445 | 34006 ft | 497 kts | 238° |
| 2026-04-21 22:33 | -15.65011 | -176.19435 | 34004 ft | 496 kts | 238° |
| 2026-04-21 22:33 | -15.68807 | -176.25425 | 34006 ft | 496 kts | 238° |
| 2026-04-21 22:34 | -15.72569 | -176.31364 | 34003 ft | 495 kts | 238° |
| 2026-04-21 22:34 | -15.76352 | -176.37343 | 34005 ft | 494 kts | 238° |
| 2026-04-21 22:35 | -15.80125 | -176.43309 | 34006 ft | 494 kts | 238° |
| 2026-04-21 22:35 | -15.83894 | -176.49274 | 33989 ft | 493 kts | 238° |
| 2026-04-21 22:36 | -15.89540 | -176.58219 | 33993 ft | 493 kts | 238° |
| 2026-04-21 22:36 | -15.93279 | -176.64148 | 34005 ft | 493 kts | 238° |
| 2026-04-21 22:37 | -15.97035 | -176.70111 | 34007 ft | 493 kts | 238° |
| 2026-04-21 22:37 | -16.00794 | -176.76082 | 34003 ft | 494 kts | 238° |
| 2026-04-21 22:38 | -16.04558 | -176.82066 | 33994 ft | 494 kts | 238° |
| 2026-04-21 22:38 | -16.08321 | -176.88053 | 34007 ft | 494 kts | 238° |
| 2026-04-21 22:39 | -16.12054 | -176.93997 | 34010 ft | 494 kts | 238° |
| 2026-04-21 22:39 | -16.15816 | -176.99992 | 33988 ft | 494 kts | 238° |
| 2026-04-21 22:40 | -16.19568 | -177.05977 | 34005 ft | 494 kts | 238° |
| 2026-04-21 22:40 | -16.23328 | -177.11978 | 34011 ft | 494 kts | 239° |
| 2026-04-21 22:41 | -16.27075 | -177.17965 | 34006 ft | 494 kts | 239° |
| 2026-04-21 22:41 | -16.30825 | -177.23961 | 33989 ft | 494 kts | 239° |
| 2026-04-21 22:42 | -16.34568 | -177.29951 | 34007 ft | 493 kts | 239° |
| 2026-04-21 22:42 | -16.38309 | -177.35942 | 34010 ft | 493 kts | 239° |
| 2026-04-21 22:43 | -16.42022 | -177.41895 | 34011 ft | 492 kts | 239° |
| 2026-04-21 22:43 | -16.45757 | -177.47886 | 33988 ft | 492 kts | 239° |
| 2026-04-21 22:44 | -16.49480 | -177.53865 | 33989 ft | 492 kts | 239° |
| 2026-04-21 22:44 | -16.53199 | -177.59840 | 33989 ft | 491 kts | 239° |
| 2026-04-21 22:45 | -16.56918 | -177.65822 | 34008 ft | 491 kts | 239° |
| 2026-04-21 22:45 | -16.60629 | -177.71797 | 33992 ft | 491 kts | 239° |
| 2026-04-21 22:46 | -16.64338 | -177.77771 | 33994 ft | 490 kts | 239° |
| 2026-04-21 22:46 | -16.68017 | -177.83704 | 33993 ft | 490 kts | 239° |
| 2026-04-21 22:47 | -16.71718 | -177.89677 | 34010 ft | 490 kts | 239° |
| 2026-04-21 22:47 | -16.75417 | -177.95652 | 33991 ft | 490 kts | 239° |
| 2026-04-21 22:48 | -16.79115 | -178.01630 | 33993 ft | 490 kts | 239° |
| 2026-04-21 22:48 | -16.82804 | -178.07599 | 34010 ft | 490 kts | 239° |
| 2026-04-21 22:49 | -16.86499 | -178.13582 | 33996 ft | 490 kts | 240° |
| 2026-04-21 22:49 | -16.90188 | -178.19562 | 33995 ft | 490 kts | 240° |
| 2026-04-21 22:50 | -16.93879 | -178.25549 | 33995 ft | 491 kts | 240° |
| 2026-04-21 22:50 | -16.97552 | -178.31512 | 33992 ft | 491 kts | 240° |
| 2026-04-21 22:51 | -17.01250 | -178.37521 | 33993 ft | 492 kts | 240° |
| 2026-04-21 22:51 | -17.04949 | -178.43537 | 33995 ft | 492 kts | 240° |
| 2026-04-21 22:52 | -17.08653 | -178.49567 | 33993 ft | 493 kts | 240° |
| 2026-04-21 22:52 | -17.12354 | -178.55597 | 33995 ft | 493 kts | 240° |
| 2026-04-21 22:53 | -17.16060 | -178.61639 | 33994 ft | 493 kts | 240° |
| 2026-04-21 22:53 | -17.19742 | -178.67648 | 33994 ft | 493 kts | 240° |
| 2026-04-21 22:54 | -17.23449 | -178.73704 | 33997 ft | 494 kts | 240° |
| 2026-04-21 22:54 | -17.27153 | -178.79760 | 33993 ft | 494 kts | 240° |
| 2026-04-21 22:55 | -17.30847 | -178.85806 | 33997 ft | 493 kts | 240° |
| 2026-04-21 22:55 | -17.34547 | -178.91866 | 34000 ft | 493 kts | 240° |
| 2026-04-21 22:56 | -17.38237 | -178.97915 | 34002 ft | 493 kts | 240° |
| 2026-04-21 22:56 | -17.41905 | -179.03934 | 33994 ft | 493 kts | 240° |
| 2026-04-21 22:57 | -17.45594 | -179.09992 | 33995 ft | 493 kts | 240° |
| 2026-04-21 22:57 | -17.49278 | -179.16048 | 33995 ft | 493 kts | 241° |
| 2026-04-21 22:58 | -17.52962 | -179.22108 | 33993 ft | 493 kts | 241° |
| 2026-04-21 22:58 | -17.56642 | -179.28170 | 33995 ft | 493 kts | 241° |
| 2026-04-21 22:59 | -17.60327 | -179.34244 | 33992 ft | 493 kts | 241° |
| 2026-04-21 22:59 | -17.64014 | -179.40326 | 33992 ft | 494 kts | 241° |
| 2026-04-21 23:00 | -17.67694 | -179.46403 | 33990 ft | 494 kts | 241° |
| 2026-04-21 23:00 | -17.71355 | -179.52454 | 33990 ft | 494 kts | 241° |
| 2026-04-21 23:01 | -17.75044 | -179.58557 | 33993 ft | 495 kts | 241° |
| 2026-04-21 23:01 | -17.78729 | -179.64661 | 33992 ft | 495 kts | 241° |
| 2026-04-21 23:02 | -17.82413 | -179.70767 | 33987 ft | 495 kts | 241° |
| 2026-04-21 23:02 | -17.86075 | -179.76842 | 33968 ft | 495 kts | 241° |
| 2026-04-21 23:03 | -17.89761 | -179.82962 | 33988 ft | 495 kts | 241° |
| 2026-04-21 23:03 | -17.93439 | -179.89076 | 33991 ft | 495 kts | 241° |
| 2026-04-21 23:04 | -17.97113 | -179.95191 | 33988 ft | 495 kts | 241° |
| 2026-04-21 23:04 | -18.00855 | 179.98731 | 33976 ft | 497 kts | 237° |
| 2026-04-21 23:05 | -18.05015 | 179.92928 | 33982 ft | 497 kts | 236° |
| 2026-04-21 23:05 | -18.09243 | 179.87146 | 34269 ft | 499 kts | 236° |
| 2026-04-21 23:06 | -18.11353 | 179.84251 | 34627 ft | 496 kts | 236° |
| 2026-04-21 23:06 | -18.13439 | 179.81374 | 35001 ft | 493 kts | 236° |
| 2026-04-21 23:06 | -18.15507 | 179.78513 | 35337 ft | 490 kts | 237° |
| 2026-04-21 23:06 | -18.17562 | 179.75660 | 35640 ft | 489 kts | 237° |
| 2026-04-21 23:07 | -18.19611 | 179.72811 | 35896 ft | 489 kts | 237° |
| 2026-04-21 23:07 | -18.21667 | 179.69948 | 35926 ft | 491 kts | 237° |
| 2026-04-21 23:07 | -18.25755 | 179.64253 | 35967 ft | 489 kts | 237° |
| 2026-04-21 23:08 | -18.29850 | 179.58550 | 35981 ft | 486 kts | 237° |
| 2026-04-21 23:08 | -18.33925 | 179.52869 | 35972 ft | 485 kts | 237° |
| 2026-04-21 23:09 | -18.37981 | 179.47211 | 35974 ft | 484 kts | 237° |
| 2026-04-21 23:09 | -18.42039 | 179.41541 | 35970 ft | 485 kts | 237° |
| 2026-04-21 23:10 | -18.46075 | 179.35899 | 35976 ft | 486 kts | 237° |
| 2026-04-21 23:10 | -18.50147 | 179.30202 | 35981 ft | 487 kts | 237° |
| 2026-04-21 23:11 | -18.54224 | 179.24493 | 35978 ft | 488 kts | 237° |
| 2026-04-21 23:11 | -18.58310 | 179.18767 | 35981 ft | 489 kts | 237° |
| 2026-04-21 23:12 | -18.62400 | 179.13030 | 35976 ft | 489 kts | 237° |
| 2026-04-21 23:12 | -18.66489 | 179.07290 | 35973 ft | 490 kts | 237° |
| 2026-04-21 23:13 | -18.70553 | 179.01579 | 35970 ft | 489 kts | 238° |
| 2026-04-21 23:13 | -18.74632 | 178.95841 | 35976 ft | 489 kts | 238° |
| 2026-04-21 23:14 | -18.78711 | 178.90100 | 35972 ft | 488 kts | 238° |
| 2026-04-21 23:14 | -18.82786 | 178.84358 | 35975 ft | 488 kts | 238° |
| 2026-04-21 23:15 | -18.86165 | 178.79592 | 35978 ft | 487 kts | 238° |
| 2026-04-21 23:15 | -18.90226 | 178.73860 | 35977 ft | 487 kts | 238° |
| 2026-04-21 23:16 | -18.94285 | 178.68124 | 35972 ft | 487 kts | 238° |
| 2026-04-21 23:16 | -18.98339 | 178.62393 | 35974 ft | 487 kts | 238° |
| 2026-04-21 23:17 | -19.02390 | 178.56659 | 35974 ft | 486 kts | 238° |
| 2026-04-21 23:17 | -19.06431 | 178.50934 | 35972 ft | 486 kts | 238° |
| 2026-04-21 23:18 | -19.10474 | 178.45199 | 35973 ft | 486 kts | 238° |
| 2026-04-21 23:18 | -19.14519 | 178.39459 | 35973 ft | 486 kts | 238° |
| 2026-04-21 23:19 | -19.18557 | 178.33722 | 35974 ft | 486 kts | 239° |
| 2026-04-21 23:19 | -19.22568 | 178.28018 | 35976 ft | 486 kts | 239° |
| 2026-04-21 23:20 | -19.26601 | 178.22277 | 35968 ft | 486 kts | 239° |
| 2026-04-21 23:20 | -19.30639 | 178.16526 | 35975 ft | 486 kts | 239° |
| 2026-04-21 23:21 | -19.34666 | 178.10782 | 35972 ft | 486 kts | 239° |
| 2026-04-21 23:21 | -19.38700 | 178.05025 | 35972 ft | 486 kts | 239° |
| 2026-04-21 23:22 | -19.42729 | 177.99268 | 35975 ft | 486 kts | 239° |
| 2026-04-21 23:22 | -19.46751 | 177.93517 | 35973 ft | 486 kts | 239° |
| 2026-04-21 23:23 | -19.50775 | 177.87756 | 35974 ft | 486 kts | 239° |
| 2026-04-21 23:23 | -19.54798 | 177.81994 | 35970 ft | 486 kts | 239° |
| 2026-04-21 23:24 | -19.58793 | 177.76263 | 35963 ft | 486 kts | 239° |
| 2026-04-21 23:24 | -19.62809 | 177.70499 | 35976 ft | 486 kts | 239° |
| 2026-04-21 23:25 | -19.66829 | 177.64723 | 35977 ft | 486 kts | 239° |
| 2026-04-21 23:25 | -19.70843 | 177.58949 | 35969 ft | 486 kts | 239° |
| 2026-04-21 23:26 | -19.74852 | 177.53178 | 35964 ft | 486 kts | 239° |
| 2026-04-21 23:26 | -19.78837 | 177.47429 | 35973 ft | 486 kts | 240° |
| 2026-04-21 23:27 | -19.82833 | 177.41640 | 35975 ft | 486 kts | 240° |
| 2026-04-21 23:27 | -19.86842 | 177.35848 | 35982 ft | 486 kts | 240° |
| 2026-04-21 23:28 | -19.90847 | 177.30065 | 35980 ft | 486 kts | 240° |
| 2026-04-21 23:28 | -19.94850 | 177.24277 | 35972 ft | 486 kts | 240° |
| 2026-04-21 23:29 | -19.98846 | 177.18491 | 35976 ft | 486 kts | 240° |
| 2026-04-21 23:29 | -20.02838 | 177.12706 | 35977 ft | 485 kts | 240° |
| 2026-04-21 23:30 | -20.06832 | 177.06911 | 35980 ft | 485 kts | 240° |
| 2026-04-21 23:30 | -20.10815 | 177.01127 | 35980 ft | 484 kts | 240° |
| 2026-04-21 23:31 | -20.14783 | 176.95359 | 35977 ft | 483 kts | 240° |
| 2026-04-21 23:31 | -20.18754 | 176.89582 | 35978 ft | 483 kts | 240° |
| 2026-04-21 23:32 | -20.22714 | 176.83823 | 35981 ft | 482 kts | 240° |
| 2026-04-21 23:32 | -20.26673 | 176.78057 | 35982 ft | 482 kts | 240° |
| 2026-04-21 23:33 | -20.30598 | 176.72328 | 35985 ft | 481 kts | 240° |
| 2026-04-21 23:33 | -20.34542 | 176.66564 | 35988 ft | 481 kts | 240° |
| 2026-04-21 23:34 | -20.38479 | 176.60807 | 35988 ft | 480 kts | 240° |
| 2026-04-21 23:34 | -20.42410 | 176.55053 | 35988 ft | 480 kts | 240° |
| 2026-04-21 23:35 | -20.46341 | 176.49295 | 35992 ft | 480 kts | 240° |
| 2026-04-21 23:35 | -20.50264 | 176.43542 | 35990 ft | 479 kts | 240° |
| 2026-04-21 23:36 | -20.54186 | 176.37783 | 35990 ft | 479 kts | 240° |
| 2026-04-21 23:36 | -20.58073 | 176.32070 | 35987 ft | 478 kts | 240° |
| 2026-04-21 23:37 | -20.61983 | 176.26319 | 35992 ft | 478 kts | 240° |
| 2026-04-21 23:37 | -20.65882 | 176.20581 | 35995 ft | 477 kts | 240° |
| 2026-04-21 23:38 | -20.69772 | 176.14846 | 35995 ft | 477 kts | 241° |
| 2026-04-21 23:38 | -20.73658 | 176.09111 | 35994 ft | 476 kts | 241° |
| 2026-04-21 23:39 | -20.77537 | 176.03383 | 35992 ft | 476 kts | 241° |
| 2026-04-21 23:39 | -20.81410 | 175.97656 | 35994 ft | 475 kts | 241° |
| 2026-04-21 23:40 | -20.85280 | 175.91930 | 35995 ft | 474 kts | 241° |
| 2026-04-21 23:40 | -20.89139 | 175.86213 | 36000 ft | 474 kts | 241° |
| 2026-04-21 23:41 | -20.92997 | 175.80494 | 35998 ft | 473 kts | 241° |
| 2026-04-21 23:41 | -20.96826 | 175.74811 | 35999 ft | 473 kts | 241° |
| 2026-04-21 23:42 | -21.00667 | 175.69102 | 35999 ft | 472 kts | 241° |
| 2026-04-21 23:42 | -21.04505 | 175.63395 | 35998 ft | 472 kts | 242° |
| 2026-04-21 23:43 | -21.08332 | 175.57695 | 36001 ft | 471 kts | 242° |
| 2026-04-21 23:43 | -21.12153 | 175.52000 | 36004 ft | 471 kts | 242° |
| 2026-04-21 23:44 | -21.15965 | 175.46312 | 36002 ft | 470 kts | 242° |
| 2026-04-21 23:44 | -21.19492 | 175.41045 | 36018 ft | 470 kts | 242° |
| 2026-04-21 23:45 | -21.25189 | 175.32533 | 36006 ft | 469 kts | 242° |
| 2026-04-21 23:46 | -21.28992 | 175.26846 | 36010 ft | 468 kts | 242° |
| 2026-04-21 23:46 | -21.32785 | 175.21161 | 36010 ft | 467 kts | 242° |
| 2026-04-21 23:47 | -21.36564 | 175.15490 | 36014 ft | 467 kts | 242° |
| 2026-04-21 23:47 | -21.40335 | 175.09827 | 36032 ft | 467 kts | 242° |
| 2026-04-21 23:48 | -21.44119 | 175.04134 | 36034 ft | 469 kts | 242° |
| 2026-04-21 23:48 | -21.47901 | 174.98442 | 36008 ft | 470 kts | 242° |
| 2026-04-21 23:49 | -21.51705 | 174.92719 | 36012 ft | 466 kts | 243° |
| 2026-04-21 23:49 | -21.55432 | 174.87102 | 36013 ft | 463 kts | 243° |
| 2026-04-21 23:50 | -21.59160 | 174.81475 | 36007 ft | 461 kts | 243° |
| 2026-04-21 23:50 | -21.62872 | 174.75863 | 36022 ft | 460 kts | 243° |
| 2026-04-21 23:51 | -21.66573 | 174.70263 | 36028 ft | 460 kts | 243° |
| 2026-04-21 23:51 | -21.70282 | 174.64644 | 36018 ft | 460 kts | 243° |
| 2026-04-21 23:52 | -21.73991 | 174.59024 | 36023 ft | 461 kts | 243° |
| 2026-04-21 23:52 | -21.77676 | 174.53432 | 36020 ft | 462 kts | 243° |
| 2026-04-21 23:53 | -21.81389 | 174.47793 | 36023 ft | 462 kts | 243° |
| 2026-04-21 23:53 | -21.85105 | 174.42143 | 36025 ft | 462 kts | 243° |
| 2026-04-21 23:54 | -21.88825 | 174.36483 | 36021 ft | 462 kts | 244° |
| 2026-04-21 23:54 | -21.92531 | 174.30837 | 36020 ft | 462 kts | 244° |
| 2026-04-21 23:55 | -21.96244 | 174.25174 | 36021 ft | 461 kts | 244° |
| 2026-04-21 23:55 | -21.99942 | 174.19528 | 36026 ft | 461 kts | 244° |
| 2026-04-21 23:56 | -22.03634 | 174.13884 | 36023 ft | 461 kts | 244° |
| 2026-04-21 23:56 | -22.07322 | 174.08242 | 36026 ft | 460 kts | 244° |
| 2026-04-21 23:57 | -22.11224 | 174.02766 | 36034 ft | 464 kts | 241° |
| 2026-04-21 23:57 | -22.15295 | 173.97348 | 36031 ft | 465 kts | 240° |
| 2026-04-21 23:58 | -22.19391 | 173.91898 | 36022 ft | 464 kts | 241° |
| 2026-04-21 23:58 | -22.23415 | 173.86505 | 36024 ft | 464 kts | 241° |
| 2026-04-21 23:59 | -22.27377 | 173.81171 | 36020 ft | 463 kts | 241° |
| 2026-04-21 23:59 | -22.31403 | 173.75743 | 36026 ft | 463 kts | 242° |
| 2026-04-22 00:00 | -22.35423 | 173.70316 | 36027 ft | 463 kts | 242° |
| 2026-04-22 00:00 | -22.39445 | 173.64883 | 36030 ft | 462 kts | 242° |
| 2026-04-22 00:01 | -22.43459 | 173.59456 | 36032 ft | 462 kts | 242° |
| 2026-04-22 00:01 | -22.46793 | 173.54944 | 36034 ft | 462 kts | 242° |
| 2026-04-22 00:02 | -22.50801 | 173.49515 | 36036 ft | 461 kts | 242° |
| 2026-04-22 00:02 | -22.54807 | 173.44082 | 36038 ft | 461 kts | 242° |
| 2026-04-22 00:03 | -22.58804 | 173.38656 | 36035 ft | 461 kts | 242° |
| 2026-04-22 00:03 | -22.62771 | 173.33265 | 36039 ft | 460 kts | 243° |
| 2026-04-22 00:04 | -22.66756 | 173.27845 | 36041 ft | 460 kts | 243° |
| 2026-04-22 00:04 | -22.70738 | 173.22423 | 36040 ft | 459 kts | 243° |
| 2026-04-22 00:05 | -22.74725 | 173.16987 | 36039 ft | 460 kts | 243° |
| 2026-04-22 00:05 | -22.78696 | 173.11569 | 36040 ft | 459 kts | 243° |
| 2026-04-22 00:06 | -22.82629 | 173.06196 | 36042 ft | 459 kts | 243° |
| 2026-04-22 00:06 | -22.86599 | 173.00768 | 36040 ft | 458 kts | 243° |
| 2026-04-22 00:07 | -22.90554 | 172.95354 | 36043 ft | 458 kts | 243° |
| 2026-04-22 00:07 | -22.94520 | 172.89919 | 36037 ft | 458 kts | 243° |
| 2026-04-22 00:08 | -22.98448 | 172.84532 | 36039 ft | 458 kts | 244° |
| 2026-04-22 00:08 | -23.02399 | 172.79106 | 36039 ft | 458 kts | 244° |
| 2026-04-22 00:09 | -23.06346 | 172.73680 | 36037 ft | 458 kts | 244° |
| 2026-04-22 00:09 | -23.10291 | 172.68251 | 36036 ft | 458 kts | 244° |
| 2026-04-22 00:10 | -23.14236 | 172.62817 | 36044 ft | 458 kts | 244° |
| 2026-04-22 00:10 | -23.18181 | 172.57377 | 36040 ft | 458 kts | 244° |
| 2026-04-22 00:11 | -23.22130 | 172.51925 | 36045 ft | 458 kts | 244° |
| 2026-04-22 00:11 | -23.26047 | 172.46513 | 36047 ft | 458 kts | 244° |
| 2026-04-22 00:12 | -23.29994 | 172.41053 | 36039 ft | 458 kts | 244° |
| 2026-04-22 00:12 | -23.33934 | 172.35596 | 36036 ft | 458 kts | 244° |
| 2026-04-22 00:13 | -23.37874 | 172.30133 | 36038 ft | 458 kts | 245° |
| 2026-04-22 00:13 | -23.41819 | 172.24659 | 36047 ft | 458 kts | 245° |
| 2026-04-22 00:14 | -23.45731 | 172.19223 | 36044 ft | 459 kts | 245° |
| 2026-04-22 00:14 | -23.49668 | 172.13748 | 36043 ft | 459 kts | 245° |
| 2026-04-22 00:15 | -23.53604 | 172.08267 | 36043 ft | 459 kts | 245° |
| 2026-04-22 00:15 | -23.57542 | 172.02779 | 36046 ft | 459 kts | 245° |
| 2026-04-22 00:16 | -23.61476 | 171.97289 | 36045 ft | 459 kts | 245° |
| 2026-04-22 00:16 | -23.65414 | 171.91789 | 36044 ft | 459 kts | 245° |
| 2026-04-22 00:17 | -23.69319 | 171.86329 | 36036 ft | 459 kts | 245° |
| 2026-04-22 00:17 | -23.73249 | 171.80828 | 36038 ft | 459 kts | 245° |
| 2026-04-22 00:18 | -23.77168 | 171.75334 | 36048 ft | 459 kts | 245° |
| 2026-04-22 00:18 | -23.81087 | 171.69836 | 36049 ft | 458 kts | 245° |
| 2026-04-22 00:19 | -23.84984 | 171.64362 | 36046 ft | 458 kts | 245° |
| 2026-04-22 00:19 | -23.88811 | 171.58981 | 36049 ft | 458 kts | 246° |
| 2026-04-22 00:20 | -23.92719 | 171.53480 | 36047 ft | 458 kts | 246° |
| 2026-04-22 00:20 | -23.96637 | 171.47958 | 36050 ft | 458 kts | 246° |
| 2026-04-22 00:21 | -24.00545 | 171.42446 | 36045 ft | 458 kts | 246° |
| 2026-04-22 00:21 | -24.04456 | 171.36921 | 36048 ft | 458 kts | 246° |
| 2026-04-22 00:22 | -24.08339 | 171.31431 | 36047 ft | 458 kts | 246° |
| 2026-04-22 00:22 | -24.12243 | 171.25905 | 36044 ft | 458 kts | 246° |
| 2026-04-22 00:23 | -24.16149 | 171.20370 | 36043 ft | 458 kts | 246° |
| 2026-04-22 00:23 | -24.20050 | 171.14835 | 36046 ft | 458 kts | 246° |
| 2026-04-22 00:24 | -24.23924 | 171.09333 | 36044 ft | 459 kts | 246° |
| 2026-04-22 00:24 | -24.27823 | 171.03790 | 36049 ft | 459 kts | 246° |
| 2026-04-22 00:25 | -24.31713 | 170.98253 | 36049 ft | 459 kts | 246° |
| 2026-04-22 00:25 | -24.35606 | 170.92705 | 36052 ft | 459 kts | 246° |
| 2026-04-22 00:26 | -24.39498 | 170.87153 | 36040 ft | 459 kts | 246° |
| 2026-04-22 00:26 | -24.43382 | 170.81605 | 36047 ft | 458 kts | 246° |
| 2026-04-22 00:27 | -24.47265 | 170.76053 | 36047 ft | 458 kts | 246° |
| 2026-04-22 00:27 | -24.51143 | 170.70501 | 36048 ft | 458 kts | 247° |
| 2026-04-22 00:28 | -24.55001 | 170.64971 | 36048 ft | 458 kts | 247° |
| 2026-04-22 00:28 | -24.58878 | 170.59408 | 36050 ft | 458 kts | 247° |
| 2026-04-22 00:29 | -24.62738 | 170.53864 | 36046 ft | 457 kts | 247° |
| 2026-04-22 00:29 | -24.66602 | 170.48306 | 36050 ft | 457 kts | 247° |
| 2026-04-22 00:30 | -24.70460 | 170.42752 | 36049 ft | 457 kts | 247° |
| 2026-04-22 00:30 | -24.74315 | 170.37196 | 36050 ft | 457 kts | 247° |
| 2026-04-22 00:31 | -24.78163 | 170.31642 | 36048 ft | 456 kts | 247° |
| 2026-04-22 00:31 | -24.82013 | 170.26080 | 36048 ft | 456 kts | 247° |
| 2026-04-22 00:32 | -24.85827 | 170.20562 | 36045 ft | 456 kts | 247° |
| 2026-04-22 00:32 | -24.89666 | 170.15003 | 36048 ft | 455 kts | 247° |
| 2026-04-22 00:33 | -24.93503 | 170.09438 | 36046 ft | 455 kts | 247° |
| 2026-04-22 00:33 | -24.97332 | 170.03879 | 36055 ft | 456 kts | 247° |
| 2026-04-22 00:34 | -25.01224 | 169.98346 | 36051 ft | 460 kts | 245° |
| 2026-04-22 00:34 | -25.05384 | 169.92924 | 36051 ft | 463 kts | 244° |
| 2026-04-22 00:35 | -25.09588 | 169.87527 | 36054 ft | 463 kts | 244° |
| 2026-04-22 00:35 | -25.13753 | 169.82150 | 36058 ft | 463 kts | 244° |
| 2026-04-22 00:36 | -25.17918 | 169.76740 | 36055 ft | 463 kts | 244° |
| 2026-04-22 00:36 | -25.22088 | 169.71307 | 36055 ft | 463 kts | 244° |
| 2026-04-22 00:37 | -25.26217 | 169.65918 | 36050 ft | 463 kts | 244° |
| 2026-04-22 00:37 | -25.30376 | 169.60486 | 36054 ft | 463 kts | 243° |
| 2026-04-22 00:38 | -25.34534 | 169.55051 | 36053 ft | 463 kts | 243° |
| 2026-04-22 00:38 | -25.38681 | 169.49624 | 36052 ft | 463 kts | 243° |
| 2026-04-22 00:39 | -25.42829 | 169.44187 | 36052 ft | 462 kts | 243° |
| 2026-04-22 00:39 | -25.46978 | 169.38745 | 36054 ft | 462 kts | 243° |
| 2026-04-22 00:40 | -25.51128 | 169.33294 | 36047 ft | 462 kts | 243° |
| 2026-04-22 00:40 | -25.55279 | 169.27836 | 36049 ft | 462 kts | 243° |
| 2026-04-22 00:41 | -25.59388 | 169.22426 | 36051 ft | 462 kts | 243° |
| 2026-04-22 00:41 | -25.63528 | 169.16969 | 36053 ft | 462 kts | 243° |
| 2026-04-22 00:42 | -25.67659 | 169.11517 | 36056 ft | 462 kts | 243° |
| 2026-04-22 00:42 | -25.71795 | 169.06052 | 36062 ft | 462 kts | 242° |
| 2026-04-22 00:43 | -25.75928 | 169.00585 | 36057 ft | 462 kts | 242° |
| 2026-04-22 00:43 | -25.80064 | 168.95108 | 36056 ft | 462 kts | 242° |
| 2026-04-22 00:44 | -25.84170 | 168.89663 | 36057 ft | 462 kts | 242° |
| 2026-04-22 00:44 | -25.88292 | 168.84191 | 36060 ft | 462 kts | 242° |
| 2026-04-22 00:45 | -25.92416 | 168.78710 | 36063 ft | 462 kts | 242° |
| 2026-04-22 00:45 | -25.96538 | 168.73226 | 36049 ft | 462 kts | 242° |
| 2026-04-22 00:46 | -26.00648 | 168.67750 | 36055 ft | 461 kts | 242° |
| 2026-04-22 00:46 | -26.04734 | 168.62299 | 36057 ft | 461 kts | 242° |
| 2026-04-22 00:47 | -26.08846 | 168.56807 | 36056 ft | 461 kts | 241° |
| 2026-04-22 00:47 | -26.12953 | 168.51317 | 36055 ft | 461 kts | 241° |
| 2026-04-22 00:48 | -26.17052 | 168.45831 | 36056 ft | 461 kts | 241° |
| 2026-04-22 00:48 | -26.21124 | 168.40371 | 36054 ft | 460 kts | 241° |
| 2026-04-22 00:49 | -26.25212 | 168.34886 | 36054 ft | 460 kts | 241° |
| 2026-04-22 00:49 | -26.28636 | 168.30285 | 36057 ft | 460 kts | 241° |
| 2026-04-22 00:50 | -26.32688 | 168.24835 | 36052 ft | 459 kts | 241° |
| 2026-04-22 00:50 | -26.36767 | 168.19343 | 36053 ft | 459 kts | 240° |
| 2026-04-22 00:51 | -26.40842 | 168.13848 | 36054 ft | 459 kts | 240° |
| 2026-04-22 00:51 | -26.44907 | 168.08361 | 36054 ft | 459 kts | 240° |
| 2026-04-22 00:52 | -26.48973 | 168.02866 | 36054 ft | 459 kts | 240° |
| 2026-04-22 00:52 | -26.53041 | 167.97361 | 36051 ft | 459 kts | 240° |
| 2026-04-22 00:53 | -26.57100 | 167.91861 | 36054 ft | 459 kts | 240° |
| 2026-04-22 00:53 | -26.61137 | 167.86384 | 36054 ft | 459 kts | 240° |
| 2026-04-22 00:54 | -26.65193 | 167.80875 | 36053 ft | 459 kts | 240° |
| 2026-04-22 00:54 | -26.69248 | 167.75361 | 36058 ft | 459 kts | 240° |
| 2026-04-22 00:55 | -26.73301 | 167.69842 | 36054 ft | 459 kts | 239° |
| 2026-04-22 00:55 | -26.79380 | 167.61554 | 36053 ft | 459 kts | 239° |
| 2026-04-22 00:56 | -26.83429 | 167.56023 | 36054 ft | 459 kts | 239° |
| 2026-04-22 00:56 | -26.87456 | 167.50517 | 36045 ft | 459 kts | 239° |
| 2026-04-22 00:57 | -26.91498 | 167.44983 | 36048 ft | 458 kts | 239° |
| 2026-04-22 00:57 | -26.95539 | 167.39442 | 36055 ft | 458 kts | 239° |
| 2026-04-22 00:58 | -26.99570 | 167.33910 | 36057 ft | 458 kts | 239° |
| 2026-04-22 00:58 | -27.03576 | 167.28404 | 36062 ft | 458 kts | 239° |
| 2026-04-22 00:59 | -27.07596 | 167.22872 | 36063 ft | 458 kts | 239° |
| 2026-04-22 00:59 | -27.11621 | 167.17325 | 36061 ft | 458 kts | 238° |
| 2026-04-22 01:00 | -27.15644 | 167.11776 | 36058 ft | 458 kts | 238° |
| 2026-04-22 01:00 | -27.19665 | 167.06223 | 36059 ft | 458 kts | 238° |
| 2026-04-22 01:01 | -27.23689 | 167.00657 | 36057 ft | 458 kts | 238° |
| 2026-04-22 01:01 | -27.27707 | 166.95093 | 36061 ft | 458 kts | 238° |
| 2026-04-22 01:02 | -27.31695 | 166.89563 | 36060 ft | 458 kts | 238° |
| 2026-04-22 01:02 | -27.35705 | 166.83996 | 36060 ft | 458 kts | 238° |
| 2026-04-22 01:03 | -27.39719 | 166.78416 | 36064 ft | 458 kts | 238° |
| 2026-04-22 01:03 | -27.43731 | 166.72832 | 36073 ft | 458 kts | 238° |
| 2026-04-22 01:04 | -27.47737 | 166.67250 | 36071 ft | 458 kts | 238° |
| 2026-04-22 01:04 | -27.51744 | 166.61657 | 36070 ft | 458 kts | 238° |
| 2026-04-22 01:05 | -27.55719 | 166.56104 | 36069 ft | 458 kts | 238° |
| 2026-04-22 01:05 | -27.59718 | 166.50509 | 36059 ft | 458 kts | 238° |
| 2026-04-22 01:06 | -27.63713 | 166.44914 | 36064 ft | 457 kts | 238° |
| 2026-04-22 01:06 | -27.67700 | 166.39321 | 36063 ft | 457 kts | 238° |
| 2026-04-22 01:07 | -27.71683 | 166.33727 | 36061 ft | 457 kts | 238° |
| 2026-04-22 01:07 | -27.75666 | 166.28126 | 36063 ft | 457 kts | 238° |
| 2026-04-22 01:08 | -27.79617 | 166.22563 | 36066 ft | 456 kts | 238° |
| 2026-04-22 01:08 | -27.83584 | 166.16970 | 36068 ft | 456 kts | 238° |
| 2026-04-22 01:09 | -27.87555 | 166.11363 | 36065 ft | 456 kts | 238° |
| 2026-04-22 01:09 | -27.91515 | 166.05766 | 36064 ft | 455 kts | 238° |
| 2026-04-22 01:10 | -27.95466 | 166.00173 | 36068 ft | 455 kts | 238° |
| 2026-04-22 01:10 | -27.99413 | 165.94580 | 36061 ft | 455 kts | 238° |
| 2026-04-22 01:11 | -28.03354 | 165.88986 | 36061 ft | 454 kts | 238° |
| 2026-04-22 01:11 | -28.07287 | 165.83398 | 36065 ft | 454 kts | 237° |
| 2026-04-22 01:12 | -28.11196 | 165.77835 | 36069 ft | 453 kts | 237° |
| 2026-04-22 01:12 | -28.15120 | 165.72244 | 36068 ft | 453 kts | 237° |
| 2026-04-22 01:13 | -28.19056 | 165.66629 | 36067 ft | 453 kts | 237° |
| 2026-04-22 01:13 | -28.22970 | 165.61038 | 36069 ft | 453 kts | 237° |
| 2026-04-22 01:14 | -28.26883 | 165.55442 | 36068 ft | 452 kts | 237° |
| 2026-04-22 01:14 | -28.30770 | 165.49874 | 36070 ft | 452 kts | 237° |
| 2026-04-22 01:15 | -28.34677 | 165.44272 | 36072 ft | 452 kts | 237° |
| 2026-04-22 01:15 | -28.38576 | 165.38672 | 36071 ft | 452 kts | 237° |
| 2026-04-22 01:16 | -28.42468 | 165.33076 | 36066 ft | 452 kts | 237° |
| 2026-04-22 01:16 | -28.46363 | 165.27468 | 36071 ft | 451 kts | 237° |
| 2026-04-22 01:17 | -28.50225 | 165.21901 | 36069 ft | 451 kts | 237° |
| 2026-04-22 01:17 | -28.54130 | 165.16263 | 36072 ft | 450 kts | 237° |
| 2026-04-22 01:18 | -28.57981 | 165.10697 | 36072 ft | 450 kts | 237° |
| 2026-04-22 01:18 | -28.61852 | 165.05094 | 36075 ft | 450 kts | 237° |
| 2026-04-22 01:19 | -28.65723 | 164.99483 | 36072 ft | 450 kts | 237° |
| 2026-04-22 01:19 | -28.69584 | 164.93878 | 36071 ft | 449 kts | 237° |
| 2026-04-22 01:20 | -28.73439 | 164.88276 | 36074 ft | 449 kts | 237° |
| 2026-04-22 01:20 | -28.77295 | 164.82665 | 36069 ft | 449 kts | 237° |
| 2026-04-22 01:21 | -28.81115 | 164.77098 | 36073 ft | 449 kts | 237° |
| 2026-04-22 01:21 | -28.84960 | 164.71488 | 36073 ft | 449 kts | 237° |
| 2026-04-22 01:22 | -28.88799 | 164.65878 | 36066 ft | 448 kts | 237° |
| 2026-04-22 01:22 | -28.92644 | 164.60254 | 36072 ft | 448 kts | 237° |
| 2026-04-22 01:23 | -28.96480 | 164.54633 | 36076 ft | 448 kts | 237° |
| 2026-04-22 01:23 | -29.00313 | 164.49011 | 36074 ft | 448 kts | 237° |
| 2026-04-22 01:24 | -29.04138 | 164.43391 | 36075 ft | 448 kts | 237° |
| 2026-04-22 01:24 | -29.07969 | 164.37757 | 36073 ft | 448 kts | 237° |
| 2026-04-22 01:25 | -29.11784 | 164.32137 | 36076 ft | 448 kts | 237° |
| 2026-04-22 01:25 | -29.15606 | 164.26499 | 36072 ft | 448 kts | 237° |
| 2026-04-22 01:26 | -29.19397 | 164.20901 | 36073 ft | 448 kts | 237° |
| 2026-04-22 01:26 | -29.23229 | 164.15233 | 36078 ft | 447 kts | 237° |
| 2026-04-22 01:27 | -29.27013 | 164.09628 | 36076 ft | 447 kts | 237° |
| 2026-04-22 01:27 | -29.30824 | 164.03977 | 36076 ft | 447 kts | 237° |
| 2026-04-22 01:28 | -29.34628 | 163.98327 | 36075 ft | 447 kts | 237° |
| 2026-04-22 01:28 | -29.38410 | 163.92704 | 36078 ft | 447 kts | 237° |
| 2026-04-22 01:29 | -29.42213 | 163.87040 | 36080 ft | 447 kts | 237° |
| 2026-04-22 01:29 | -29.46009 | 163.81380 | 36079 ft | 447 kts | 237° |
| 2026-04-22 01:30 | -29.49804 | 163.75713 | 36081 ft | 447 kts | 237° |
| 2026-04-22 01:30 | -29.53578 | 163.70069 | 36079 ft | 447 kts | 237° |
| 2026-04-22 01:31 | -29.57369 | 163.64392 | 36078 ft | 447 kts | 237° |
| 2026-04-22 01:31 | -29.61156 | 163.58714 | 36083 ft | 447 kts | 237° |
| 2026-04-22 01:32 | -29.64922 | 163.53059 | 36072 ft | 447 kts | 237° |
| 2026-04-22 01:32 | -29.68701 | 163.47377 | 36074 ft | 447 kts | 237° |
| 2026-04-22 01:33 | -29.72478 | 163.41689 | 36076 ft | 447 kts | 237° |
| 2026-04-22 01:33 | -29.76263 | 163.35982 | 36081 ft | 447 kts | 237° |
| 2026-04-22 01:34 | -29.80017 | 163.30314 | 36083 ft | 448 kts | 237° |
| 2026-04-22 01:34 | -29.83793 | 163.24603 | 36082 ft | 448 kts | 237° |
| 2026-04-22 01:35 | -29.87567 | 163.18887 | 36080 ft | 448 kts | 237° |
| 2026-04-22 01:35 | -29.91342 | 163.13163 | 36083 ft | 448 kts | 237° |
| 2026-04-22 01:36 | -29.94475 | 163.08406 | 36083 ft | 448 kts | 237° |
| 2026-04-22 01:36 | -29.98219 | 163.02646 | 36087 ft | 447 kts | 240° |
| 2026-04-22 01:37 | -30.01264 | 162.96450 | 36096 ft | 442 kts | 248° |
| 2026-04-22 01:37 | -30.03567 | 162.89912 | 36090 ft | 442 kts | 251° |
| 2026-04-22 01:38 | -30.05822 | 162.83310 | 36085 ft | 442 kts | 251° |
| 2026-04-22 01:38 | -30.08088 | 162.76709 | 36089 ft | 442 kts | 250° |
| 2026-04-22 01:39 | -30.09983 | 162.71211 | 36088 ft | 443 kts | 250° |
| 2026-04-22 01:39 | -30.12652 | 162.63476 | 36086 ft | 443 kts | 250° |
| 2026-04-22 01:40 | -30.14930 | 162.56862 | 36085 ft | 443 kts | 250° |
| 2026-04-22 01:40 | -30.16835 | 162.51372 | 36084 ft | 443 kts | 248° |
| 2026-04-22 01:41 | -30.20068 | 162.43953 | 36086 ft | 444 kts | 245° |
| 2026-04-22 01:41 | -30.22919 | 162.37599 | 36096 ft | 444 kts | 245° |
| 2026-04-22 01:42 | -30.25748 | 162.31237 | 36090 ft | 444 kts | 245° |
| 2026-04-22 01:42 | -30.28560 | 162.24868 | 36089 ft | 444 kts | 245° |
| 2026-04-22 01:43 | -30.31351 | 162.18523 | 36089 ft | 445 kts | 245° |
| 2026-04-22 01:43 | -30.34159 | 162.12128 | 36093 ft | 445 kts | 245° |
| 2026-04-22 01:44 | -30.36948 | 162.05765 | 36091 ft | 445 kts | 245° |
| 2026-04-22 01:44 | -30.39747 | 161.99370 | 36097 ft | 445 kts | 245° |
| 2026-04-22 01:45 | -30.42543 | 161.92972 | 36094 ft | 445 kts | 245° |
| 2026-04-22 01:45 | -30.45340 | 161.86560 | 36092 ft | 446 kts | 245° |
| 2026-04-22 01:46 | -30.48139 | 161.80132 | 36094 ft | 446 kts | 245° |
| 2026-04-22 01:46 | -30.50932 | 161.73709 | 36093 ft | 446 kts | 245° |
| 2026-04-22 01:47 | -30.53727 | 161.67268 | 36097 ft | 446 kts | 245° |
| 2026-04-22 01:47 | -30.56498 | 161.60873 | 36096 ft | 446 kts | 245° |
| 2026-04-22 01:48 | -30.59284 | 161.54431 | 36096 ft | 446 kts | 245° |
| 2026-04-22 01:48 | -30.62070 | 161.47980 | 36097 ft | 446 kts | 245° |
| 2026-04-22 01:49 | -30.64848 | 161.41536 | 36098 ft | 446 kts | 245° |
| 2026-04-22 01:49 | -30.67624 | 161.35084 | 36102 ft | 447 kts | 245° |
| 2026-04-22 01:50 | -30.70401 | 161.28619 | 36102 ft | 447 kts | 245° |
| 2026-04-22 01:50 | -30.73156 | 161.22194 | 36098 ft | 447 kts | 245° |
| 2026-04-22 01:51 | -30.75460 | 161.16813 | 36099 ft | 447 kts | 245° |
| 2026-04-22 01:51 | -30.78233 | 161.10327 | 36100 ft | 447 kts | 245° |
| 2026-04-22 01:52 | -30.81002 | 161.03838 | 36103 ft | 448 kts | 245° |
| 2026-04-22 01:52 | -30.83770 | 160.97341 | 36104 ft | 448 kts | 245° |
| 2026-04-22 01:53 | -30.86533 | 160.90842 | 36105 ft | 448 kts | 245° |
| 2026-04-22 01:53 | -30.89302 | 160.84320 | 36109 ft | 448 kts | 245° |
| 2026-04-22 01:54 | -30.92046 | 160.77845 | 36102 ft | 449 kts | 245° |
| 2026-04-22 01:54 | -30.94808 | 160.71314 | 36104 ft | 449 kts | 245° |
| 2026-04-22 01:55 | -30.97574 | 160.64764 | 36104 ft | 449 kts | 245° |
| 2026-04-22 01:55 | -31.00329 | 160.58229 | 36107 ft | 449 kts | 245° |
| 2026-04-22 01:56 | -31.03064 | 160.51727 | 36105 ft | 449 kts | 245° |
| 2026-04-22 01:56 | -31.05816 | 160.45177 | 36110 ft | 449 kts | 245° |
| 2026-04-22 01:57 | -31.08566 | 160.38616 | 36106 ft | 449 kts | 245° |
| 2026-04-22 01:57 | -31.11291 | 160.32105 | 36110 ft | 449 kts | 245° |
| 2026-04-22 01:58 | -31.14031 | 160.25546 | 36108 ft | 450 kts | 245° |
| 2026-04-22 01:58 | -31.16770 | 160.18980 | 36109 ft | 450 kts | 245° |
| 2026-04-22 01:59 | -31.19511 | 160.12395 | 36113 ft | 450 kts | 245° |
| 2026-04-22 01:59 | -31.22245 | 160.05816 | 36108 ft | 450 kts | 244° |
| 2026-04-22 02:00 | -31.24964 | 159.99261 | 36110 ft | 450 kts | 244° |
| 2026-04-22 02:00 | -31.27691 | 159.92675 | 36111 ft | 450 kts | 244° |
| 2026-04-22 02:01 | -31.30416 | 159.86080 | 36113 ft | 450 kts | 244° |
| 2026-04-22 02:01 | -31.33138 | 159.79482 | 36117 ft | 450 kts | 244° |
| 2026-04-22 02:02 | -31.35860 | 159.72871 | 36117 ft | 450 kts | 244° |
| 2026-04-22 02:02 | -31.38578 | 159.66260 | 36111 ft | 451 kts | 244° |
| 2026-04-22 02:03 | -31.41275 | 159.59687 | 36116 ft | 451 kts | 244° |
| 2026-04-22 02:03 | -31.43987 | 159.53065 | 36129 ft | 450 kts | 244° |
| 2026-04-22 02:04 | -31.48029 | 159.43171 | 36126 ft | 451 kts | 244° |
| 2026-04-22 02:05 | -31.50733 | 159.36538 | 36129 ft | 451 kts | 244° |
| 2026-04-22 02:05 | -31.53432 | 159.29907 | 36127 ft | 451 kts | 244° |
| 2026-04-22 02:06 | -31.56110 | 159.23314 | 36131 ft | 451 kts | 244° |
| 2026-04-22 02:06 | -31.58805 | 159.16667 | 36127 ft | 451 kts | 244° |
| 2026-04-22 02:07 | -31.61493 | 159.10023 | 36131 ft | 451 kts | 244° |
| 2026-04-22 02:07 | -31.64179 | 159.03374 | 36131 ft | 451 kts | 244° |
| 2026-04-22 02:08 | -31.66863 | 158.96717 | 36133 ft | 451 kts | 244° |
| 2026-04-22 02:08 | -31.69528 | 158.90094 | 36134 ft | 451 kts | 244° |
| 2026-04-22 02:09 | -31.72188 | 158.83472 | 36139 ft | 451 kts | 244° |
| 2026-04-22 02:09 | -31.74865 | 158.76793 | 36142 ft | 451 kts | 244° |
| 2026-04-22 02:10 | -31.77534 | 158.70125 | 36145 ft | 451 kts | 244° |
| 2026-04-22 02:10 | -31.80200 | 158.63449 | 36144 ft | 451 kts | 244° |
| 2026-04-22 02:11 | -31.82864 | 158.56767 | 36144 ft | 451 kts | 244° |
| 2026-04-22 02:11 | -31.85519 | 158.50094 | 36140 ft | 451 kts | 244° |
| 2026-04-22 02:12 | -31.88172 | 158.43415 | 36146 ft | 451 kts | 244° |
| 2026-04-22 02:12 | -31.90825 | 158.36722 | 36147 ft | 450 kts | 244° |
| 2026-04-22 02:13 | -31.93468 | 158.30043 | 36151 ft | 450 kts | 244° |
| 2026-04-22 02:13 | -31.96092 | 158.23397 | 36147 ft | 450 kts | 244° |
| 2026-04-22 02:14 | -31.98729 | 158.16707 | 36153 ft | 450 kts | 244° |
| 2026-04-22 02:14 | -32.01364 | 158.10009 | 36153 ft | 450 kts | 244° |
| 2026-04-22 02:15 | -32.03996 | 158.03305 | 36154 ft | 450 kts | 244° |
| 2026-04-22 02:15 | -32.06623 | 157.96604 | 36154 ft | 450 kts | 244° |
| 2026-04-22 02:16 | -32.09226 | 157.89948 | 36157 ft | 449 kts | 244° |
| 2026-04-22 02:16 | -32.11840 | 157.83252 | 36155 ft | 449 kts | 244° |
| 2026-04-22 02:17 | -32.14449 | 157.76557 | 36158 ft | 449 kts | 244° |
| 2026-04-22 02:17 | -32.17056 | 157.69852 | 36164 ft | 449 kts | 244° |
| 2026-04-22 02:18 | -32.19653 | 157.63162 | 36162 ft | 448 kts | 244° |
| 2026-04-22 02:18 | -32.22233 | 157.56502 | 36167 ft | 448 kts | 244° |
| 2026-04-22 02:19 | -32.24826 | 157.49796 | 36168 ft | 448 kts | 244° |
| 2026-04-22 02:19 | -32.27411 | 157.43098 | 36168 ft | 448 kts | 244° |
| 2026-04-22 02:20 | -32.29992 | 157.36398 | 36168 ft | 448 kts | 244° |
| 2026-04-22 02:20 | -32.32552 | 157.29740 | 36172 ft | 447 kts | 243° |
| 2026-04-22 02:21 | -32.35119 | 157.23049 | 36174 ft | 447 kts | 243° |
| 2026-04-22 02:21 | -32.37668 | 157.16391 | 36175 ft | 447 kts | 243° |
| 2026-04-22 02:22 | -32.40226 | 157.09700 | 36179 ft | 446 kts | 243° |
| 2026-04-22 02:22 | -32.42368 | 157.04084 | 36178 ft | 446 kts | 243° |
| 2026-04-22 02:23 | -32.44900 | 156.97435 | 36183 ft | 446 kts | 243° |
| 2026-04-22 02:23 | -32.47876 | 156.89603 | 36181 ft | 446 kts | 243° |
| 2026-04-22 02:24 | -32.49991 | 156.84029 | 36183 ft | 446 kts | 243° |
| 2026-04-22 02:24 | -32.52530 | 156.77321 | 36184 ft | 446 kts | 243° |
| 2026-04-22 02:25 | -32.55062 | 156.70621 | 36187 ft | 446 kts | 243° |
| 2026-04-22 02:25 | -32.57592 | 156.63912 | 36190 ft | 445 kts | 243° |
| 2026-04-22 02:26 | -32.60119 | 156.57197 | 36192 ft | 445 kts | 243° |
| 2026-04-22 02:26 | -32.62576 | 156.50656 | 36192 ft | 445 kts | 243° |
| 2026-04-22 02:27 | -32.65093 | 156.43942 | 36193 ft | 444 kts | 243° |
| 2026-04-22 02:27 | -32.67603 | 156.37233 | 36201 ft | 444 kts | 243° |
| 2026-04-22 02:28 | -32.70104 | 156.30537 | 36200 ft | 444 kts | 243° |
| 2026-04-22 02:28 | -32.72600 | 156.23837 | 36199 ft | 443 kts | 243° |
| 2026-04-22 02:29 | -32.75089 | 156.17147 | 36203 ft | 443 kts | 243° |
| 2026-04-22 02:29 | -32.77575 | 156.10449 | 36204 ft | 443 kts | 243° |
| 2026-04-22 02:30 | -32.80058 | 156.03746 | 36208 ft | 442 kts | 243° |
| 2026-04-22 02:30 | -32.82519 | 155.97091 | 36206 ft | 442 kts | 243° |
| 2026-04-22 02:31 | -32.84988 | 155.90398 | 36211 ft | 441 kts | 243° |
| 2026-04-22 02:31 | -32.87450 | 155.83713 | 36213 ft | 441 kts | 243° |
| 2026-04-22 02:32 | -32.89912 | 155.77015 | 36213 ft | 441 kts | 243° |
| 2026-04-22 02:32 | -32.92361 | 155.70337 | 36222 ft | 440 kts | 243° |
| 2026-04-22 02:33 | -32.94812 | 155.63641 | 36220 ft | 440 kts | 243° |
| 2026-04-22 02:33 | -32.97254 | 155.56956 | 36221 ft | 440 kts | 243° |
| 2026-04-22 02:34 | -32.99690 | 155.50272 | 36230 ft | 440 kts | 243° |
| 2026-04-22 02:34 | -33.02110 | 155.43621 | 36234 ft | 440 kts | 243° |
| 2026-04-22 02:35 | -33.04542 | 155.36924 | 36230 ft | 440 kts | 243° |
| 2026-04-22 02:35 | -33.06965 | 155.30238 | 36232 ft | 440 kts | 243° |
| 2026-04-22 02:36 | -33.09384 | 155.23546 | 36231 ft | 439 kts | 243° |
| 2026-04-22 02:36 | -33.11804 | 155.16841 | 36234 ft | 439 kts | 243° |
| 2026-04-22 02:37 | -33.14200 | 155.10190 | 36234 ft | 439 kts | 243° |
| 2026-04-22 02:37 | -33.16615 | 155.03494 | 36234 ft | 438 kts | 242° |
| 2026-04-22 02:38 | -33.19141 | 154.96869 | 36236 ft | 437 kts | 241° |
| 2026-04-22 02:38 | -33.21681 | 154.90322 | 36238 ft | 437 kts | 241° |
| 2026-04-22 02:39 | -33.24224 | 154.83727 | 36243 ft | 437 kts | 241° |
| 2026-04-22 02:39 | -33.26754 | 154.77118 | 36243 ft | 437 kts | 241° |
| 2026-04-22 02:40 | -33.29273 | 154.70513 | 36248 ft | 436 kts | 241° |
| 2026-04-22 02:40 | -33.30515 | 154.67251 | 36248 ft | 436 kts | 241° |
| 2026-04-22 02:42 | -33.32573 | 154.61839 | 36246 ft | 436 kts | 241° |
| 2026-04-22 02:43 | -33.35082 | 154.55232 | 36246 ft | 436 kts | 241° |
| 2026-04-22 02:43 | -33.37589 | 154.48616 | 36249 ft | 436 kts | 241° |
| 2026-04-22 02:44 | -33.40093 | 154.41993 | 36247 ft | 436 kts | 241° |
| 2026-04-22 02:44 | -33.42591 | 154.35376 | 36255 ft | 436 kts | 241° |
| 2026-04-22 02:45 | -33.45069 | 154.28797 | 36259 ft | 435 kts | 241° |
| 2026-04-22 02:45 | -33.47554 | 154.22185 | 36260 ft | 435 kts | 241° |
| 2026-04-22 02:46 | -33.50039 | 154.15563 | 36272 ft | 435 kts | 241° |
| 2026-04-22 02:46 | -33.52516 | 154.08946 | 36273 ft | 435 kts | 241° |
| 2026-04-22 02:47 | -33.54990 | 154.02328 | 36271 ft | 435 kts | 241° |
| 2026-04-22 02:47 | -33.57459 | 153.95707 | 36275 ft | 434 kts | 242° |
| 2026-04-22 02:48 | -33.59920 | 153.89096 | 36270 ft | 434 kts | 242° |
| 2026-04-22 02:48 | -33.62380 | 153.82473 | 36275 ft | 434 kts | 242° |
| 2026-04-22 02:49 | -33.64831 | 153.75862 | 36275 ft | 434 kts | 242° |
| 2026-04-22 02:49 | -33.67262 | 153.69291 | 36275 ft | 433 kts | 242° |
| 2026-04-22 02:50 | -33.69706 | 153.62670 | 36275 ft | 433 kts | 242° |
| 2026-04-22 02:50 | -33.72155 | 153.56026 | 36275 ft | 433 kts | 242° |
| 2026-04-22 02:51 | -33.74590 | 153.49405 | 36281 ft | 433 kts | 242° |
| 2026-04-22 02:51 | -33.77014 | 153.42801 | 36281 ft | 433 kts | 242° |
| 2026-04-22 02:52 | -33.79446 | 153.36159 | 36284 ft | 434 kts | 242° |
| 2026-04-22 02:52 | -33.81879 | 153.29502 | 36286 ft | 434 kts | 242° |
| 2026-04-22 02:53 | -33.84298 | 153.22871 | 36286 ft | 434 kts | 242° |
| 2026-04-22 02:53 | -33.86712 | 153.16239 | 36276 ft | 429 kts | 242° |
| 2026-04-22 02:53 | -33.87894 | 153.12978 | 36028 ft | 423 kts | 242° |
| 2026-04-22 02:54 | -33.89074 | 153.09726 | 35383 ft | 423 kts | 242° |
| 2026-04-22 02:54 | -33.90250 | 153.06487 | 34656 ft | 424 kts | 241° |
| 2026-04-22 02:54 | -33.91427 | 153.03247 | 33797 ft | 427 kts | 241° |
| 2026-04-22 02:54 | -33.92619 | 152.99961 | 32873 ft | 431 kts | 241° |
| 2026-04-22 02:55 | -33.93822 | 152.96637 | 31943 ft | 434 kts | 241° |
| 2026-04-22 02:55 | -33.95031 | 152.93293 | 31142 ft | 436 kts | 241° |
| 2026-04-22 02:55 | -33.96241 | 152.89936 | 30472 ft | 434 kts | 241° |
| 2026-04-22 02:55 | -33.97442 | 152.86599 | 29701 ft | 433 kts | 241° |
| 2026-04-22 02:56 | -33.98635 | 152.83284 | 29000 ft | 430 kts | 241° |
| 2026-04-22 02:56 | -33.99823 | 152.79978 | 28338 ft | 427 kts | 241° |
| 2026-04-22 02:56 | -34.00987 | 152.76739 | 27701 ft | 424 kts | 241° |
| 2026-04-22 02:56 | -34.02153 | 152.73490 | 27057 ft | 422 kts | 241° |
| 2026-04-22 02:57 | -34.03317 | 152.70246 | 26418 ft | 420 kts | 241° |
| 2026-04-22 02:57 | -34.04476 | 152.67015 | 25784 ft | 419 kts | 241° |
| 2026-04-22 02:57 | -34.05629 | 152.63796 | 25174 ft | 417 kts | 241° |
| 2026-04-22 02:57 | -34.06746 | 152.60571 | 24555 ft | 418 kts | 245° |
| 2026-04-22 02:58 | -34.07485 | 152.57150 | 23935 ft | 425 kts | 255° |
| 2026-04-22 02:58 | -34.07804 | 152.53573 | 23217 ft | 429 kts | 262° |
| 2026-04-22 02:58 | -34.07704 | 152.50003 | 22560 ft | 433 kts | 270° |
| 2026-04-22 02:58 | -34.07361 | 152.46405 | 21927 ft | 432 kts | 271° |
| 2026-04-22 02:59 | -34.06987 | 152.42802 | 21319 ft | 430 kts | 272° |
| 2026-04-22 02:59 | -34.06617 | 152.39221 | 20709 ft | 428 kts | 272° |
| 2026-04-22 02:59 | -34.06259 | 152.35648 | 20115 ft | 426 kts | 272° |
| 2026-04-22 02:59 | -34.05915 | 152.32107 | 19519 ft | 425 kts | 272° |
| 2026-04-22 03:00 | -34.05692 | 152.29762 | 19126 ft | 425 kts | 272° |
| 2026-04-22 03:00 | -34.05244 | 152.25025 | 18285 ft | 425 kts | 272° |
| 2026-04-22 03:00 | -34.04914 | 152.21529 | 17625 ft | 424 kts | 272° |
| 2026-04-22 03:00 | -34.04580 | 152.17998 | 16995 ft | 422 kts | 272° |
| 2026-04-22 03:01 | -34.04245 | 152.14484 | 16405 ft | 421 kts | 273° |
| 2026-04-22 03:01 | -34.03911 | 152.10986 | 15793 ft | 419 kts | 273° |
| 2026-04-22 03:01 | -34.03577 | 152.07497 | 15200 ft | 418 kts | 274° |
| 2026-04-22 03:01 | -34.03237 | 152.04026 | 14672 ft | 414 kts | 274° |
| 2026-04-22 03:02 | -34.02887 | 152.00577 | 14132 ft | 412 kts | 274° |
| 2026-04-22 03:02 | -34.02536 | 151.97150 | 13562 ft | 409 kts | 275° |
| 2026-04-22 03:02 | -34.02193 | 151.93821 | 13147 ft | 401 kts | 275° |
| 2026-04-22 03:02 | -34.01853 | 151.90507 | 12583 ft | 397 kts | 275° |
| 2026-04-22 03:03 | -34.01513 | 151.87170 | 11830 ft | 400 kts | 275° |
| 2026-04-22 03:03 | -34.01174 | 151.83866 | 11466 ft | 392 kts | 275° |
| 2026-04-22 03:03 | -34.00845 | 151.80674 | 11368 ft | 376 kts | 275° |
| 2026-04-22 03:03 | -34.00527 | 151.77606 | 11281 ft | 362 kts | 275° |
| 2026-04-22 03:04 | -34.00223 | 151.74652 | 11192 ft | 349 kts | 275° |
| 2026-04-22 03:04 | -33.99929 | 151.71796 | 11107 ft | 337 kts | 275° |
| 2026-04-22 03:04 | -33.99664 | 151.69215 | 11022 ft | 326 kts | 275° |
| 2026-04-22 03:04 | -33.99390 | 151.66550 | 10944 ft | 315 kts | 275° |
| 2026-04-22 03:05 | -33.99129 | 151.64018 | 10842 ft | 305 kts | 275° |
| 2026-04-22 03:05 | -33.98870 | 151.61516 | 10711 ft | 297 kts | 275° |
| 2026-04-22 03:05 | -33.98616 | 151.59069 | 10472 ft | 293 kts | 275° |
| 2026-04-22 03:05 | -33.98365 | 151.56642 | 10182 ft | 291 kts | 275° |
| 2026-04-22 03:06 | -33.98113 | 151.54218 | 9838 ft | 291 kts | 275° |
| 2026-04-22 03:06 | -33.97862 | 151.51815 | 9566 ft | 287 kts | 275° |
| 2026-04-22 03:06 | -33.97614 | 151.49440 | 9264 ft | 285 kts | 275° |
| 2026-04-22 03:06 | -33.97370 | 151.47104 | 8958 ft | 284 kts | 275° |
| 2026-04-22 03:07 | -33.97155 | 151.45043 | 8687 ft | 283 kts | 275° |
| 2026-04-22 03:07 | -33.96915 | 151.42759 | 8402 ft | 281 kts | 275° |
| 2026-04-22 03:07 | -33.96671 | 151.40442 | 8116 ft | 279 kts | 275° |
| 2026-04-22 03:07 | -33.96431 | 151.38161 | 7799 ft | 278 kts | 274° |
| 2026-04-22 03:08 | -33.96193 | 151.35860 | 7514 ft | 276 kts | 274° |
| 2026-04-22 03:08 | -33.95958 | 151.33574 | 7242 ft | 274 kts | 274° |
| 2026-04-22 03:08 | -33.95726 | 151.31301 | 7035 ft | 271 kts | 274° |
| 2026-04-22 03:08 | -33.95496 | 151.29068 | 6920 ft | 266 kts | 274° |
| 2026-04-22 03:09 | -33.95270 | 151.26860 | 6625 ft | 266 kts | 274° |
| 2026-04-22 03:09 | -33.95119 | 151.25389 | 6421 ft | 265 kts | 275° |
| 2026-04-22 03:09 | -33.94822 | 151.22529 | 6118 ft | 260 kts | 274° |
| 2026-04-22 03:09 | -33.94600 | 151.20393 | 6053 ft | 253 kts | 275° |
| 2026-04-22 03:10 | -33.94443 | 151.18997 | 6009 ft | 257 kts | 279° |
| 2026-04-22 03:10 | -33.93865 | 151.16910 | 6039 ft | 271 kts | 290° |
| 2026-04-22 03:10 | -33.93221 | 151.15144 | 6036 ft | 279 kts | 292° |
| 2026-04-22 03:10 | -33.92141 | 151.12303 | 5909 ft | 279 kts | 293° |
| 2026-04-22 03:11 | -33.91331 | 151.10197 | 5720 ft | 274 kts | 292° |
| 2026-04-22 03:11 | -33.90792 | 151.08799 | 5528 ft | 273 kts | 293° |
| 2026-04-22 03:11 | -33.90003 | 151.06749 | 5261 ft | 271 kts | 292° |
| 2026-04-22 03:11 | -33.89209 | 151.04695 | 4951 ft | 267 kts | 295° |
| 2026-04-22 03:12 | -33.88064 | 151.02996 | 4674 ft | 264 kts | 323° |
| 2026-04-22 03:12 | -33.84636 | 151.01611 | 4223 ft | 255 kts | 347° |
| 2026-04-22 03:12 | -33.82916 | 151.01153 | 4088 ft | 249 kts | 347° |
| 2026-04-22 03:13 | -33.81250 | 151.00715 | 4015 ft | 241 kts | 348° |
| 2026-04-22 03:13 | -33.79595 | 151.00273 | 3987 ft | 250 kts | 347° |
| 2026-04-22 03:13 | -33.77901 | 150.99815 | 3928 ft | 246 kts | 347° |
| 2026-04-22 03:13 | -33.76258 | 150.99367 | 3856 ft | 237 kts | 347° |
| 2026-04-22 03:14 | -33.74710 | 150.98942 | 3815 ft | 225 kts | 347° |
| 2026-04-22 03:14 | -33.73214 | 150.98842 | 3770 ft | 215 kts | 16° |
| 2026-04-22 03:14 | -33.71969 | 150.99722 | 3773 ft | 207 kts | 55° |
| 2026-04-22 03:14 | -33.71297 | 151.01222 | 3820 ft | 205 kts | 72° |
| 2026-04-22 03:15 | -33.70752 | 151.02851 | 3732 ft | 212 kts | 73° |
| 2026-04-22 03:15 | -33.70229 | 151.04492 | 3604 ft | 206 kts | 79° |
| 2026-04-22 03:15 | -33.70286 | 151.06110 | 3549 ft | 191 kts | 115° |
| 2026-04-22 03:15 | -33.70858 | 151.07542 | 3488 ft | 190 kts | 122° |
| 2026-04-22 03:16 | -33.71492 | 151.08941 | 3404 ft | 191 kts | 122° |
| 2026-04-22 03:16 | -33.72289 | 151.10182 | 3249 ft | 185 kts | 142° |
| 2026-04-22 03:16 | -33.73201 | 151.11140 | 3157 ft | 185 kts | 138° |
| 2026-04-22 03:16 | -33.74109 | 151.12241 | 3037 ft | 184 kts | 142° |
| 2026-04-22 03:17 | -33.75270 | 151.12746 | 2896 ft | 177 kts | 174° |
| 2026-04-22 03:17 | -33.76517 | 151.12955 | 2747 ft | 181 kts | 170° |
| 2026-04-22 03:17 | -33.77751 | 151.13235 | 2562 ft | 181 kts | 168° |
| 2026-04-22 03:17 | -33.78940 | 151.13533 | 2418 ft | 166 kts | 168° |
| 2026-04-22 03:18 | -33.79986 | 151.13803 | 2271 ft | 147 kts | 168° |
| 2026-04-22 03:18 | -33.80949 | 151.14050 | 2157 ft | 136 kts | 169° |
| 2026-04-22 03:18 | -33.81874 | 151.14289 | 2035 ft | 143 kts | 166° |
| 2026-04-22 03:18 | -33.82869 | 151.14549 | 1928 ft | 149 kts | 169° |
| 2026-04-22 03:19 | -33.83852 | 151.14803 | 1825 ft | 140 kts | 167° |
| 2026-04-22 03:19 | -33.84791 | 151.15046 | 1694 ft | 138 kts | 167° |
| 2026-04-22 03:19 | -33.85718 | 151.15286 | 1501 ft | 137 kts | 167° |
| 2026-04-22 03:19 | -33.86637 | 151.15526 | 1316 ft | 133 kts | 167° |
| 2026-04-22 03:20 | -33.87541 | 151.15760 | 1164 ft | 137 kts | 167° |
| 2026-04-22 03:20 | -33.88449 | 151.15995 | 992 ft | 145 kts | 167° |
| 2026-04-22 03:20 | -33.89372 | 151.16235 | 765 ft | 140 kts | 167° |
| 2026-04-22 03:20 | -33.90319 | 151.16481 | 587 ft | 138 kts | 167° |
| 2026-04-22 03:21 | -33.91246 | 151.16723 | 403 ft | 137 kts | 168° |
| 2026-04-22 03:21 | -33.92171 | 151.16966 | 206 ft | 132 kts | 167° |
| 2026-04-22 03:21 | -33.93007 | 151.17177 | 62 ft | 114 kts | 166° |
| 2026-04-22 03:21 | -33.93749 | 151.17376 | 31 ft | 100 kts | 168° |
| 2026-04-22 03:22 | -33.94279 | 151.17509 | 35 ft | 55 kts | 171° |
| 2026-04-22 03:22 | -33.94505 | 151.17566 | 35 ft | 15 kts | 169° |
| 2026-04-22 03:22 | -33.94627 | 151.17599 | 35 ft | 15 kts | 167° |
| 2026-04-22 03:22 | -33.94723 | 151.17590 | 34 ft | 15 kts | 217° |
| 2026-04-22 03:23 | -33.94743 | 151.17478 | 35 ft | 15 kts | 288° |
| 2026-04-22 03:23 | -33.94666 | 151.17407 | 35 ft | 15 kts | 347° |
| 2026-04-22 03:23 | -33.94567 | 151.17380 | 35 ft | 15 kts | 348° |
| 2026-04-22 03:23 | -33.94466 | 151.17354 | 35 ft | 15 kts | 348° |
| 2026-04-22 03:24 | -33.94366 | 151.17328 | 35 ft | 15 kts | 348° |
| 2026-04-22 03:24 | -33.94264 | 151.17302 | 34 ft | 16 kts | 347° |
| 2026-04-22 03:24 | -33.94157 | 151.17273 | 33 ft | 17 kts | 347° |
| 2026-04-22 03:24 | -33.94041 | 151.17243 | 34 ft | 17 kts | 347° |
| 2026-04-22 03:25 | -33.93986 | 151.17194 | 34 ft | 8 kts | 281° |
| 2026-04-22 03:25 | -33.93970 | 151.17129 | 34 ft | 8 kts | 305° |
| 2026-04-22 03:25 | -33.93920 | 151.17097 | 34 ft | 9 kts | 345° |
| 2026-04-22 03:25 | -33.93860 | 151.17079 | 35 ft | 9 kts | 348° |
| 2026-04-22 03:26 | -33.93824 | 151.17070 | 35 ft | 3 kts | 348° |
| 2026-04-22 03:26 | -33.93800 | 151.17064 | 35 ft | 4 kts | 348° |
| 2026-04-22 03:26 | -33.93782 | 151.17040 | 35 ft | 4 kts | 290° |
| 2026-04-22 03:26 | -33.93784 | 151.17004 | 35 ft | 5 kts | 259° |
| 2026-04-22 03:27 | -33.93790 | 151.16980 | 35 ft | 0 kts | 255° |
| 2026-04-22 03:27 | -33.93793 | 151.16967 | 35 ft | 2 kts | 255° |
| 2026-04-22 03:27 | -33.93794 | 151.16960 | 35 ft | 0 kts | 254° |
| 2026-04-22 03:27 | -33.93795 | 151.16956 | 35 ft | 1 kts | 254° |